<?xml version="1.0" encoding="UTF-8" standalone="no" ?>
<gpx xmlns="http://www.topografix.com/GPX/1/1" xmlns:xsi="http://www.w3.org/2001/XMLSchema-instance" xsi:schemaLocation="http://www.topografix.com/GPX/1/1 http://www.topografix.com/GPX/1/1/gpx.xsd" version="1.1" creator="VisuGPX - https://www.visugpx.com">
  <metadata>
    <name>Randonnée à ollieres</name>
    <desc><![CDATA[randonnée Ollieres le 24 novembre]]></desc>
  </metadata>
  <trk>
    <name><![CDATA[2018-11-24 21:35:14]]></name>
    <trkseg>
      <trkpt lat="43.48487" lon="5.82975">
        <ele>343.81</ele>
        <time>2018-11-24T13:08:41Z</time>
      </trkpt>
      <trkpt lat="43.48504" lon="5.82967">
        <ele>343.81</ele>
        <time>2018-11-24T13:08:58Z</time>
      </trkpt>
      <trkpt lat="43.48512" lon="5.82962">
        <ele>343.33</ele>
        <time>2018-11-24T13:09:05Z</time>
      </trkpt>
      <trkpt lat="43.48527" lon="5.82956">
        <ele>342.85</ele>
        <time>2018-11-24T13:09:21Z</time>
      </trkpt>
      <trkpt lat="43.48533" lon="5.82954">
        <ele>342.37</ele>
        <time>2018-11-24T13:09:27Z</time>
      </trkpt>
      <trkpt lat="43.48548" lon="5.82945">
        <ele>342.37</ele>
        <time>2018-11-24T13:09:39Z</time>
      </trkpt>
      <trkpt lat="43.48549" lon="5.82944">
        <ele>341.89</ele>
        <time>2018-11-24T13:09:40Z</time>
      </trkpt>
      <trkpt lat="43.48561" lon="5.8294">
        <ele>341.41</ele>
        <time>2018-11-24T13:09:52Z</time>
      </trkpt>
      <trkpt lat="43.48562" lon="5.82939">
        <ele>341.41</ele>
        <time>2018-11-24T13:09:54Z</time>
      </trkpt>
      <trkpt lat="43.48576" lon="5.82937">
        <ele>341.41</ele>
        <time>2018-11-24T13:10:05Z</time>
      </trkpt>
      <trkpt lat="43.48577" lon="5.82936">
        <ele>341.41</ele>
        <time>2018-11-24T13:10:07Z</time>
      </trkpt>
      <trkpt lat="43.48591" lon="5.82936">
        <ele>341.41</ele>
        <time>2018-11-24T13:10:21Z</time>
      </trkpt>
      <trkpt lat="43.48607" lon="5.82928">
        <ele>341.41</ele>
        <time>2018-11-24T13:10:35Z</time>
      </trkpt>
      <trkpt lat="43.48609" lon="5.82927">
        <ele>341.41</ele>
        <time>2018-11-24T13:10:38Z</time>
      </trkpt>
      <trkpt lat="43.48621" lon="5.82925">
        <ele>341.41</ele>
        <time>2018-11-24T13:10:50Z</time>
      </trkpt>
      <trkpt lat="43.48622" lon="5.82924">
        <ele>341.41</ele>
        <time>2018-11-24T13:10:53Z</time>
      </trkpt>
      <trkpt lat="43.48628" lon="5.82924">
        <ele>341.41</ele>
        <time>2018-11-24T13:10:57Z</time>
      </trkpt>
      <trkpt lat="43.48632" lon="5.82922">
        <ele>340.92</ele>
        <time>2018-11-24T13:11:02Z</time>
      </trkpt>
      <trkpt lat="43.48641" lon="5.8292">
        <ele>340.44</ele>
        <time>2018-11-24T13:11:10Z</time>
      </trkpt>
      <trkpt lat="43.48652" lon="5.8292">
        <ele>339.96</ele>
        <time>2018-11-24T13:11:17Z</time>
      </trkpt>
      <trkpt lat="43.48667" lon="5.82917">
        <ele>338.52</ele>
        <time>2018-11-24T13:11:29Z</time>
      </trkpt>
      <trkpt lat="43.48676" lon="5.82912">
        <ele>338.04</ele>
        <time>2018-11-24T13:11:39Z</time>
      </trkpt>
      <trkpt lat="43.48677" lon="5.82912">
        <ele>338.04</ele>
        <time>2018-11-24T13:11:40Z</time>
      </trkpt>
      <trkpt lat="43.48679" lon="5.82912">
        <ele>338.04</ele>
        <time>2018-11-24T13:11:41Z</time>
      </trkpt>
      <trkpt lat="43.48689" lon="5.82907">
        <ele>337.56</ele>
        <time>2018-11-24T13:11:49Z</time>
      </trkpt>
      <trkpt lat="43.48703" lon="5.829">
        <ele>335.64</ele>
        <time>2018-11-24T13:12:03Z</time>
      </trkpt>
      <trkpt lat="43.48708" lon="5.82897">
        <ele>335.16</ele>
        <time>2018-11-24T13:12:08Z</time>
      </trkpt>
      <trkpt lat="43.48723" lon="5.82888">
        <ele>334.2</ele>
        <time>2018-11-24T13:12:24Z</time>
      </trkpt>
      <trkpt lat="43.48728" lon="5.82884">
        <ele>334.2</ele>
        <time>2018-11-24T13:12:30Z</time>
      </trkpt>
      <trkpt lat="43.4873" lon="5.82883">
        <ele>334.2</ele>
        <time>2018-11-24T13:12:31Z</time>
      </trkpt>
      <trkpt lat="43.48731" lon="5.82882">
        <ele>334.2</ele>
        <time>2018-11-24T13:12:32Z</time>
      </trkpt>
      <trkpt lat="43.48737" lon="5.82877">
        <ele>334.2</ele>
        <time>2018-11-24T13:12:42Z</time>
      </trkpt>
      <trkpt lat="43.48741" lon="5.82875">
        <ele>334.2</ele>
        <time>2018-11-24T13:12:45Z</time>
      </trkpt>
      <trkpt lat="43.48756" lon="5.82868">
        <ele>335.64</ele>
        <time>2018-11-24T13:12:59Z</time>
      </trkpt>
      <trkpt lat="43.48765" lon="5.82865">
        <ele>336.12</ele>
        <time>2018-11-24T13:13:13Z</time>
      </trkpt>
      <trkpt lat="43.48772" lon="5.82865">
        <ele>337.08</ele>
        <time>2018-11-24T13:13:29Z</time>
      </trkpt>
      <trkpt lat="43.48769" lon="5.82867">
        <ele>336.6</ele>
        <time>2018-11-24T13:13:47Z</time>
      </trkpt>
      <trkpt lat="43.48772" lon="5.82869">
        <ele>336.6</ele>
        <time>2018-11-24T13:14:19Z</time>
      </trkpt>
      <trkpt lat="43.48778" lon="5.82871">
        <ele>336.6</ele>
        <time>2018-11-24T13:14:40Z</time>
      </trkpt>
      <trkpt lat="43.48779" lon="5.82871">
        <ele>335.64</ele>
        <time>2018-11-24T13:14:41Z</time>
      </trkpt>
      <trkpt lat="43.48782" lon="5.82871">
        <ele>334.68</ele>
        <time>2018-11-24T13:14:53Z</time>
      </trkpt>
      <trkpt lat="43.48783" lon="5.82872">
        <ele>334.2</ele>
        <time>2018-11-24T13:15:11Z</time>
      </trkpt>
      <trkpt lat="43.48784" lon="5.82873">
        <ele>328.91</ele>
        <time>2018-11-24T13:15:25Z</time>
      </trkpt>
      <trkpt lat="43.48783" lon="5.82873">
        <ele>331.79</ele>
        <time>2018-11-24T13:15:26Z</time>
      </trkpt>
      <trkpt lat="43.48782" lon="5.82874">
        <ele>333.23</ele>
        <time>2018-11-24T13:15:28Z</time>
      </trkpt>
      <trkpt lat="43.48783" lon="5.82875">
        <ele>339</ele>
        <time>2018-11-24T13:15:30Z</time>
      </trkpt>
      <trkpt lat="43.48783" lon="5.82875">
        <ele>334.2</ele>
        <time>2018-11-24T13:15:31Z</time>
      </trkpt>
      <trkpt lat="43.48795" lon="5.82869">
        <ele>334.68</ele>
        <time>2018-11-24T13:15:47Z</time>
      </trkpt>
      <trkpt lat="43.48796" lon="5.8287">
        <ele>335.16</ele>
        <time>2018-11-24T13:16:01Z</time>
      </trkpt>
      <trkpt lat="43.48804" lon="5.82868">
        <ele>335.16</ele>
        <time>2018-11-24T13:16:15Z</time>
      </trkpt>
      <trkpt lat="43.48813" lon="5.82874">
        <ele>336.12</ele>
        <time>2018-11-24T13:16:31Z</time>
      </trkpt>
      <trkpt lat="43.48809" lon="5.82883">
        <ele>338.04</ele>
        <time>2018-11-24T13:16:45Z</time>
      </trkpt>
      <trkpt lat="43.48802" lon="5.82898">
        <ele>339.48</ele>
        <time>2018-11-24T13:17:02Z</time>
      </trkpt>
      <trkpt lat="43.48797" lon="5.82912">
        <ele>340.44</ele>
        <time>2018-11-24T13:17:15Z</time>
      </trkpt>
      <trkpt lat="43.48792" lon="5.82933">
        <ele>342.37</ele>
        <time>2018-11-24T13:17:32Z</time>
      </trkpt>
      <trkpt lat="43.4879" lon="5.8294">
        <ele>342.85</ele>
        <time>2018-11-24T13:17:44Z</time>
      </trkpt>
      <trkpt lat="43.48789" lon="5.82943">
        <ele>343.33</ele>
        <time>2018-11-24T13:17:50Z</time>
      </trkpt>
      <trkpt lat="43.48789" lon="5.82946">
        <ele>343.33</ele>
        <time>2018-11-24T13:17:52Z</time>
      </trkpt>
      <trkpt lat="43.48788" lon="5.82947">
        <ele>343.33</ele>
        <time>2018-11-24T13:17:53Z</time>
      </trkpt>
      <trkpt lat="43.48784" lon="5.8296">
        <ele>344.29</ele>
        <time>2018-11-24T13:18:08Z</time>
      </trkpt>
      <trkpt lat="43.48783" lon="5.82967">
        <ele>344.77</ele>
        <time>2018-11-24T13:18:15Z</time>
      </trkpt>
      <trkpt lat="43.48784" lon="5.82979">
        <ele>345.73</ele>
        <time>2018-11-24T13:18:28Z</time>
      </trkpt>
      <trkpt lat="43.48784" lon="5.82987">
        <ele>347.17</ele>
        <time>2018-11-24T13:18:36Z</time>
      </trkpt>
      <trkpt lat="43.48786" lon="5.83">
        <ele>348.13</ele>
        <time>2018-11-24T13:18:49Z</time>
      </trkpt>
      <trkpt lat="43.48786" lon="5.83013">
        <ele>349.58</ele>
        <time>2018-11-24T13:19:04Z</time>
      </trkpt>
      <trkpt lat="43.48787" lon="5.83027">
        <ele>351.5</ele>
        <time>2018-11-24T13:19:18Z</time>
      </trkpt>
      <trkpt lat="43.48787" lon="5.83039">
        <ele>351.98</ele>
        <time>2018-11-24T13:19:28Z</time>
      </trkpt>
      <trkpt lat="43.48788" lon="5.83051">
        <ele>353.9</ele>
        <time>2018-11-24T13:19:39Z</time>
      </trkpt>
      <trkpt lat="43.48791" lon="5.83064">
        <ele>355.34</ele>
        <time>2018-11-24T13:19:55Z</time>
      </trkpt>
      <trkpt lat="43.48791" lon="5.83068">
        <ele>356.31</ele>
        <time>2018-11-24T13:20:08Z</time>
      </trkpt>
      <trkpt lat="43.48794" lon="5.83073">
        <ele>357.75</ele>
        <time>2018-11-24T13:20:17Z</time>
      </trkpt>
      <trkpt lat="43.48796" lon="5.83085">
        <ele>358.71</ele>
        <time>2018-11-24T13:20:28Z</time>
      </trkpt>
      <trkpt lat="43.48803" lon="5.83102">
        <ele>361.59</ele>
        <time>2018-11-24T13:20:45Z</time>
      </trkpt>
      <trkpt lat="43.48804" lon="5.83109">
        <ele>363.04</ele>
        <time>2018-11-24T13:21:00Z</time>
      </trkpt>
      <trkpt lat="43.48804" lon="5.83113">
        <ele>363.04</ele>
        <time>2018-11-24T13:21:17Z</time>
      </trkpt>
      <trkpt lat="43.48802" lon="5.83127">
        <ele>364</ele>
        <time>2018-11-24T13:21:32Z</time>
      </trkpt>
      <trkpt lat="43.48803" lon="5.83131">
        <ele>364</ele>
        <time>2018-11-24T13:21:52Z</time>
      </trkpt>
      <trkpt lat="43.48803" lon="5.83134">
        <ele>364.48</ele>
        <time>2018-11-24T13:21:54Z</time>
      </trkpt>
      <trkpt lat="43.48803" lon="5.83142">
        <ele>365.92</ele>
        <time>2018-11-24T13:22:08Z</time>
      </trkpt>
      <trkpt lat="43.48805" lon="5.83141">
        <ele>365.44</ele>
        <time>2018-11-24T13:22:28Z</time>
      </trkpt>
      <trkpt lat="43.48808" lon="5.83141">
        <ele>366.4</ele>
        <time>2018-11-24T13:22:31Z</time>
      </trkpt>
      <trkpt lat="43.48812" lon="5.83144">
        <ele>367.36</ele>
        <time>2018-11-24T13:22:45Z</time>
      </trkpt>
      <trkpt lat="43.48814" lon="5.83154">
        <ele>367.84</ele>
        <time>2018-11-24T13:22:56Z</time>
      </trkpt>
      <trkpt lat="43.48813" lon="5.83156">
        <ele>366.88</ele>
        <time>2018-11-24T13:23:13Z</time>
      </trkpt>
      <trkpt lat="43.48813" lon="5.83155">
        <ele>368.32</ele>
        <time>2018-11-24T13:23:22Z</time>
      </trkpt>
      <trkpt lat="43.48813" lon="5.83161">
        <ele>369.28</ele>
        <time>2018-11-24T13:23:39Z</time>
      </trkpt>
      <trkpt lat="43.48814" lon="5.83161">
        <ele>369.28</ele>
        <time>2018-11-24T13:23:51Z</time>
      </trkpt>
      <trkpt lat="43.48816" lon="5.83167">
        <ele>370.24</ele>
        <time>2018-11-24T13:24:06Z</time>
      </trkpt>
      <trkpt lat="43.48816" lon="5.83169">
        <ele>370.24</ele>
        <time>2018-11-24T13:24:11Z</time>
      </trkpt>
      <trkpt lat="43.48817" lon="5.8317">
        <ele>370.24</ele>
        <time>2018-11-24T13:24:12Z</time>
      </trkpt>
      <trkpt lat="43.48821" lon="5.83176">
        <ele>370.73</ele>
        <time>2018-11-24T13:24:19Z</time>
      </trkpt>
      <trkpt lat="43.48821" lon="5.83177">
        <ele>370.73</ele>
        <time>2018-11-24T13:24:20Z</time>
      </trkpt>
      <trkpt lat="43.48824" lon="5.83177">
        <ele>370.73</ele>
        <time>2018-11-24T13:24:29Z</time>
      </trkpt>
      <trkpt lat="43.48826" lon="5.8318">
        <ele>371.69</ele>
        <time>2018-11-24T13:24:32Z</time>
      </trkpt>
      <trkpt lat="43.48827" lon="5.83182">
        <ele>371.69</ele>
        <time>2018-11-24T13:24:33Z</time>
      </trkpt>
      <trkpt lat="43.48831" lon="5.8319">
        <ele>373.13</ele>
        <time>2018-11-24T13:24:40Z</time>
      </trkpt>
      <trkpt lat="43.48832" lon="5.83191">
        <ele>373.13</ele>
        <time>2018-11-24T13:24:42Z</time>
      </trkpt>
      <trkpt lat="43.48836" lon="5.83199">
        <ele>374.57</ele>
        <time>2018-11-24T13:24:54Z</time>
      </trkpt>
      <trkpt lat="43.48838" lon="5.83201">
        <ele>374.57</ele>
        <time>2018-11-24T13:24:57Z</time>
      </trkpt>
      <trkpt lat="43.48839" lon="5.83202">
        <ele>374.57</ele>
        <time>2018-11-24T13:24:58Z</time>
      </trkpt>
      <trkpt lat="43.48841" lon="5.83206">
        <ele>375.05</ele>
        <time>2018-11-24T13:25:02Z</time>
      </trkpt>
      <trkpt lat="43.48843" lon="5.8321">
        <ele>375.53</ele>
        <time>2018-11-24T13:25:06Z</time>
      </trkpt>
      <trkpt lat="43.48846" lon="5.8322">
        <ele>376.49</ele>
        <time>2018-11-24T13:25:16Z</time>
      </trkpt>
      <trkpt lat="43.48849" lon="5.83227">
        <ele>376.97</ele>
        <time>2018-11-24T13:25:23Z</time>
      </trkpt>
      <trkpt lat="43.48851" lon="5.8323">
        <ele>376.97</ele>
        <time>2018-11-24T13:25:26Z</time>
      </trkpt>
      <trkpt lat="43.48852" lon="5.83231">
        <ele>376.97</ele>
        <time>2018-11-24T13:25:27Z</time>
      </trkpt>
      <trkpt lat="43.48855" lon="5.83237">
        <ele>377.45</ele>
        <time>2018-11-24T13:25:33Z</time>
      </trkpt>
      <trkpt lat="43.48859" lon="5.83245">
        <ele>377.94</ele>
        <time>2018-11-24T13:25:44Z</time>
      </trkpt>
      <trkpt lat="43.4886" lon="5.8325">
        <ele>378.42</ele>
        <time>2018-11-24T13:25:52Z</time>
      </trkpt>
      <trkpt lat="43.48861" lon="5.8325">
        <ele>378.42</ele>
        <time>2018-11-24T13:25:53Z</time>
      </trkpt>
      <trkpt lat="43.48869" lon="5.83255">
        <ele>379.38</ele>
        <time>2018-11-24T13:26:04Z</time>
      </trkpt>
      <trkpt lat="43.48878" lon="5.83262">
        <ele>380.34</ele>
        <time>2018-11-24T13:26:21Z</time>
      </trkpt>
      <trkpt lat="43.48892" lon="5.83264">
        <ele>381.78</ele>
        <time>2018-11-24T13:26:38Z</time>
      </trkpt>
      <trkpt lat="43.48903" lon="5.83273">
        <ele>382.26</ele>
        <time>2018-11-24T13:26:54Z</time>
      </trkpt>
      <trkpt lat="43.48913" lon="5.83287">
        <ele>383.22</ele>
        <time>2018-11-24T13:27:12Z</time>
      </trkpt>
      <trkpt lat="43.48923" lon="5.83297">
        <ele>383.7</ele>
        <time>2018-11-24T13:27:27Z</time>
      </trkpt>
      <trkpt lat="43.48925" lon="5.83297">
        <ele>383.7</ele>
        <time>2018-11-24T13:27:29Z</time>
      </trkpt>
      <trkpt lat="43.48932" lon="5.83307">
        <ele>384.18</ele>
        <time>2018-11-24T13:27:42Z</time>
      </trkpt>
      <trkpt lat="43.48937" lon="5.83321">
        <ele>384.18</ele>
        <time>2018-11-24T13:27:57Z</time>
      </trkpt>
      <trkpt lat="43.48943" lon="5.83327">
        <ele>385.63</ele>
        <time>2018-11-24T13:28:08Z</time>
      </trkpt>
      <trkpt lat="43.48948" lon="5.83332">
        <ele>385.63</ele>
        <time>2018-11-24T13:28:15Z</time>
      </trkpt>
      <trkpt lat="43.4895" lon="5.83334">
        <ele>385.15</ele>
        <time>2018-11-24T13:28:18Z</time>
      </trkpt>
      <trkpt lat="43.48952" lon="5.83337">
        <ele>385.15</ele>
        <time>2018-11-24T13:28:21Z</time>
      </trkpt>
      <trkpt lat="43.48954" lon="5.83341">
        <ele>386.59</ele>
        <time>2018-11-24T13:28:32Z</time>
      </trkpt>
      <trkpt lat="43.48955" lon="5.83341">
        <ele>386.59</ele>
        <time>2018-11-24T13:28:33Z</time>
      </trkpt>
      <trkpt lat="43.48956" lon="5.83343">
        <ele>386.59</ele>
        <time>2018-11-24T13:28:35Z</time>
      </trkpt>
      <trkpt lat="43.48963" lon="5.83347">
        <ele>386.11</ele>
        <time>2018-11-24T13:28:49Z</time>
      </trkpt>
      <trkpt lat="43.48973" lon="5.83358">
        <ele>386.11</ele>
        <time>2018-11-24T13:29:05Z</time>
      </trkpt>
      <trkpt lat="43.4898" lon="5.83372">
        <ele>387.55</ele>
        <time>2018-11-24T13:29:22Z</time>
      </trkpt>
      <trkpt lat="43.48981" lon="5.83373">
        <ele>387.55</ele>
        <time>2018-11-24T13:29:24Z</time>
      </trkpt>
      <trkpt lat="43.4898" lon="5.83386">
        <ele>388.03</ele>
        <time>2018-11-24T13:29:37Z</time>
      </trkpt>
      <trkpt lat="43.48979" lon="5.83393">
        <ele>388.51</ele>
        <time>2018-11-24T13:29:43Z</time>
      </trkpt>
      <trkpt lat="43.48982" lon="5.83413">
        <ele>389.95</ele>
        <time>2018-11-24T13:29:59Z</time>
      </trkpt>
      <trkpt lat="43.48982" lon="5.83415">
        <ele>389.95</ele>
        <time>2018-11-24T13:30:00Z</time>
      </trkpt>
      <trkpt lat="43.48983" lon="5.83416">
        <ele>389.95</ele>
        <time>2018-11-24T13:30:01Z</time>
      </trkpt>
      <trkpt lat="43.48992" lon="5.83427">
        <ele>391.87</ele>
        <time>2018-11-24T13:30:16Z</time>
      </trkpt>
      <trkpt lat="43.49004" lon="5.83439">
        <ele>393.32</ele>
        <time>2018-11-24T13:30:33Z</time>
      </trkpt>
      <trkpt lat="43.49014" lon="5.8345">
        <ele>394.28</ele>
        <time>2018-11-24T13:30:48Z</time>
      </trkpt>
      <trkpt lat="43.49021" lon="5.83459">
        <ele>395.24</ele>
        <time>2018-11-24T13:31:03Z</time>
      </trkpt>
      <trkpt lat="43.49023" lon="5.83461">
        <ele>395.24</ele>
        <time>2018-11-24T13:31:06Z</time>
      </trkpt>
      <trkpt lat="43.49023" lon="5.83468">
        <ele>395.24</ele>
        <time>2018-11-24T13:31:25Z</time>
      </trkpt>
      <trkpt lat="43.49025" lon="5.8347">
        <ele>395.72</ele>
        <time>2018-11-24T13:31:48Z</time>
      </trkpt>
      <trkpt lat="43.49024" lon="5.83476">
        <ele>396.2</ele>
        <time>2018-11-24T13:32:01Z</time>
      </trkpt>
      <trkpt lat="43.49025" lon="5.83475">
        <ele>396.2</ele>
        <time>2018-11-24T13:32:27Z</time>
      </trkpt>
      <trkpt lat="43.49022" lon="5.83473">
        <ele>396.68</ele>
        <time>2018-11-24T13:32:43Z</time>
      </trkpt>
      <trkpt lat="43.49023" lon="5.83475">
        <ele>396.68</ele>
        <time>2018-11-24T13:32:55Z</time>
      </trkpt>
      <trkpt lat="43.49023" lon="5.83478">
        <ele>396.68</ele>
        <time>2018-11-24T13:33:04Z</time>
      </trkpt>
      <trkpt lat="43.49028" lon="5.83489">
        <ele>396.68</ele>
        <time>2018-11-24T13:33:17Z</time>
      </trkpt>
      <trkpt lat="43.49027" lon="5.83486">
        <ele>397.16</ele>
        <time>2018-11-24T13:33:34Z</time>
      </trkpt>
      <trkpt lat="43.49026" lon="5.83484">
        <ele>397.16</ele>
        <time>2018-11-24T13:33:38Z</time>
      </trkpt>
      <trkpt lat="43.49025" lon="5.8348">
        <ele>397.16</ele>
        <time>2018-11-24T13:33:42Z</time>
      </trkpt>
      <trkpt lat="43.49024" lon="5.83478">
        <ele>397.16</ele>
        <time>2018-11-24T13:33:43Z</time>
      </trkpt>
      <trkpt lat="43.49024" lon="5.83476">
        <ele>397.16</ele>
        <time>2018-11-24T13:33:46Z</time>
      </trkpt>
      <trkpt lat="43.49021" lon="5.83473">
        <ele>395.72</ele>
        <time>2018-11-24T13:33:58Z</time>
      </trkpt>
      <trkpt lat="43.49028" lon="5.83483">
        <ele>395.72</ele>
        <time>2018-11-24T13:34:12Z</time>
      </trkpt>
      <trkpt lat="43.49029" lon="5.8349">
        <ele>397.16</ele>
        <time>2018-11-24T13:34:17Z</time>
      </trkpt>
      <trkpt lat="43.4903" lon="5.83498">
        <ele>397.64</ele>
        <time>2018-11-24T13:34:33Z</time>
      </trkpt>
      <trkpt lat="43.49035" lon="5.83504">
        <ele>398.12</ele>
        <time>2018-11-24T13:34:48Z</time>
      </trkpt>
      <trkpt lat="43.49035" lon="5.83516">
        <ele>398.6</ele>
        <time>2018-11-24T13:35:02Z</time>
      </trkpt>
      <trkpt lat="43.49035" lon="5.83515">
        <ele>398.12</ele>
        <time>2018-11-24T13:35:18Z</time>
      </trkpt>
      <trkpt lat="43.49036" lon="5.83514">
        <ele>398.12</ele>
        <time>2018-11-24T13:35:23Z</time>
      </trkpt>
      <trkpt lat="43.49039" lon="5.83529">
        <ele>399.08</ele>
        <time>2018-11-24T13:35:38Z</time>
      </trkpt>
      <trkpt lat="43.4904" lon="5.83532">
        <ele>399.08</ele>
        <time>2018-11-24T13:35:45Z</time>
      </trkpt>
      <trkpt lat="43.49043" lon="5.8354">
        <ele>399.57</ele>
        <time>2018-11-24T13:35:52Z</time>
      </trkpt>
      <trkpt lat="43.49049" lon="5.83554">
        <ele>399.57</ele>
        <time>2018-11-24T13:36:04Z</time>
      </trkpt>
      <trkpt lat="43.49054" lon="5.83571">
        <ele>400.05</ele>
        <time>2018-11-24T13:36:20Z</time>
      </trkpt>
      <trkpt lat="43.49054" lon="5.83574">
        <ele>399.57</ele>
        <time>2018-11-24T13:36:24Z</time>
      </trkpt>
      <trkpt lat="43.49058" lon="5.83584">
        <ele>400.53</ele>
        <time>2018-11-24T13:36:34Z</time>
      </trkpt>
      <trkpt lat="43.49061" lon="5.83588">
        <ele>400.53</ele>
        <time>2018-11-24T13:36:49Z</time>
      </trkpt>
      <trkpt lat="43.49062" lon="5.83603">
        <ele>400.05</ele>
        <time>2018-11-24T13:37:03Z</time>
      </trkpt>
      <trkpt lat="43.49063" lon="5.83613">
        <ele>399.08</ele>
        <time>2018-11-24T13:37:16Z</time>
      </trkpt>
      <trkpt lat="43.49065" lon="5.83618">
        <ele>398.6</ele>
        <time>2018-11-24T13:37:21Z</time>
      </trkpt>
      <trkpt lat="43.49067" lon="5.83628">
        <ele>398.6</ele>
        <time>2018-11-24T13:37:33Z</time>
      </trkpt>
      <trkpt lat="43.49068" lon="5.83641">
        <ele>400.05</ele>
        <time>2018-11-24T13:37:44Z</time>
      </trkpt>
      <trkpt lat="43.4907" lon="5.83644">
        <ele>400.05</ele>
        <time>2018-11-24T13:38:01Z</time>
      </trkpt>
      <trkpt lat="43.49069" lon="5.83648">
        <ele>400.05</ele>
        <time>2018-11-24T13:38:20Z</time>
      </trkpt>
      <trkpt lat="43.49067" lon="5.83653">
        <ele>400.05</ele>
        <time>2018-11-24T13:38:38Z</time>
      </trkpt>
      <trkpt lat="43.49066" lon="5.83662">
        <ele>400.05</ele>
        <time>2018-11-24T13:38:52Z</time>
      </trkpt>
      <trkpt lat="43.49062" lon="5.83667">
        <ele>401.01</ele>
        <time>2018-11-24T13:39:06Z</time>
      </trkpt>
      <trkpt lat="43.49061" lon="5.83663">
        <ele>401.01</ele>
        <time>2018-11-24T13:39:25Z</time>
      </trkpt>
      <trkpt lat="43.49059" lon="5.83669">
        <ele>401.01</ele>
        <time>2018-11-24T13:39:54Z</time>
      </trkpt>
      <trkpt lat="43.49059" lon="5.83671">
        <ele>401.49</ele>
        <time>2018-11-24T13:39:57Z</time>
      </trkpt>
      <trkpt lat="43.49062" lon="5.83672">
        <ele>400.05</ele>
        <time>2018-11-24T13:40:00Z</time>
      </trkpt>
      <trkpt lat="43.49065" lon="5.83676">
        <ele>400.05</ele>
        <time>2018-11-24T13:40:03Z</time>
      </trkpt>
      <trkpt lat="43.49065" lon="5.83684">
        <ele>401.01</ele>
        <time>2018-11-24T13:40:09Z</time>
      </trkpt>
      <trkpt lat="43.49059" lon="5.83693">
        <ele>401.97</ele>
        <time>2018-11-24T13:40:24Z</time>
      </trkpt>
      <trkpt lat="43.49053" lon="5.83704">
        <ele>402.45</ele>
        <time>2018-11-24T13:40:40Z</time>
      </trkpt>
      <trkpt lat="43.49047" lon="5.83715">
        <ele>402.45</ele>
        <time>2018-11-24T13:40:54Z</time>
      </trkpt>
      <trkpt lat="43.4904" lon="5.83731">
        <ele>402.93</ele>
        <time>2018-11-24T13:41:10Z</time>
      </trkpt>
      <trkpt lat="43.49037" lon="5.83736">
        <ele>403.41</ele>
        <time>2018-11-24T13:41:24Z</time>
      </trkpt>
      <trkpt lat="43.49028" lon="5.83739">
        <ele>404.37</ele>
        <time>2018-11-24T13:41:40Z</time>
      </trkpt>
      <trkpt lat="43.49023" lon="5.83747">
        <ele>404.85</ele>
        <time>2018-11-24T13:41:56Z</time>
      </trkpt>
      <trkpt lat="43.49024" lon="5.8375">
        <ele>404.85</ele>
        <time>2018-11-24T13:42:01Z</time>
      </trkpt>
      <trkpt lat="43.49022" lon="5.83765">
        <ele>403.41</ele>
        <time>2018-11-24T13:42:15Z</time>
      </trkpt>
      <trkpt lat="43.49023" lon="5.83768">
        <ele>403.41</ele>
        <time>2018-11-24T13:42:19Z</time>
      </trkpt>
      <trkpt lat="43.49028" lon="5.83773">
        <ele>403.41</ele>
        <time>2018-11-24T13:42:32Z</time>
      </trkpt>
      <trkpt lat="43.49032" lon="5.83772">
        <ele>402.93</ele>
        <time>2018-11-24T13:42:43Z</time>
      </trkpt>
      <trkpt lat="43.49039" lon="5.8378">
        <ele>402.93</ele>
        <time>2018-11-24T13:42:58Z</time>
      </trkpt>
      <trkpt lat="43.49039" lon="5.83791">
        <ele>402.93</ele>
        <time>2018-11-24T13:43:09Z</time>
      </trkpt>
      <trkpt lat="43.49036" lon="5.83797">
        <ele>402.93</ele>
        <time>2018-11-24T13:43:18Z</time>
      </trkpt>
      <trkpt lat="43.49038" lon="5.83798">
        <ele>402.93</ele>
        <time>2018-11-24T13:43:30Z</time>
      </trkpt>
      <trkpt lat="43.49038" lon="5.83798">
        <ele>402.93</ele>
        <time>2018-11-24T13:43:31Z</time>
      </trkpt>
      <trkpt lat="43.49036" lon="5.83806">
        <ele>404.37</ele>
        <time>2018-11-24T13:43:40Z</time>
      </trkpt>
      <trkpt lat="43.49033" lon="5.83818">
        <ele>404.85</ele>
        <time>2018-11-24T13:43:54Z</time>
      </trkpt>
      <trkpt lat="43.4903" lon="5.83833">
        <ele>406.29</ele>
        <time>2018-11-24T13:44:11Z</time>
      </trkpt>
      <trkpt lat="43.49028" lon="5.83846">
        <ele>406.77</ele>
        <time>2018-11-24T13:44:26Z</time>
      </trkpt>
      <trkpt lat="43.49029" lon="5.83857">
        <ele>408.22</ele>
        <time>2018-11-24T13:44:44Z</time>
      </trkpt>
      <trkpt lat="43.49026" lon="5.83874">
        <ele>408.7</ele>
        <time>2018-11-24T13:45:00Z</time>
      </trkpt>
      <trkpt lat="43.49026" lon="5.83883">
        <ele>409.18</ele>
        <time>2018-11-24T13:45:17Z</time>
      </trkpt>
      <trkpt lat="43.49031" lon="5.83893">
        <ele>409.18</ele>
        <time>2018-11-24T13:45:33Z</time>
      </trkpt>
      <trkpt lat="43.49031" lon="5.83895">
        <ele>410.14</ele>
        <time>2018-11-24T13:45:48Z</time>
      </trkpt>
      <trkpt lat="43.49035" lon="5.83898">
        <ele>410.14</ele>
        <time>2018-11-24T13:46:12Z</time>
      </trkpt>
      <trkpt lat="43.49033" lon="5.83898">
        <ele>410.14</ele>
        <time>2018-11-24T13:46:25Z</time>
      </trkpt>
      <trkpt lat="43.49035" lon="5.83902">
        <ele>410.14</ele>
        <time>2018-11-24T13:46:38Z</time>
      </trkpt>
      <trkpt lat="43.49037" lon="5.83911">
        <ele>410.62</ele>
        <time>2018-11-24T13:46:54Z</time>
      </trkpt>
      <trkpt lat="43.49039" lon="5.83916">
        <ele>411.1</ele>
        <time>2018-11-24T13:47:02Z</time>
      </trkpt>
      <trkpt lat="43.49042" lon="5.83933">
        <ele>412.06</ele>
        <time>2018-11-24T13:47:20Z</time>
      </trkpt>
      <trkpt lat="43.49043" lon="5.83932">
        <ele>412.06</ele>
        <time>2018-11-24T13:47:32Z</time>
      </trkpt>
      <trkpt lat="43.49042" lon="5.83935">
        <ele>412.06</ele>
        <time>2018-11-24T13:47:54Z</time>
      </trkpt>
      <trkpt lat="43.49039" lon="5.83939">
        <ele>410.62</ele>
        <time>2018-11-24T13:48:02Z</time>
      </trkpt>
      <trkpt lat="43.4904" lon="5.83946">
        <ele>408.7</ele>
        <time>2018-11-24T13:48:15Z</time>
      </trkpt>
      <trkpt lat="43.49041" lon="5.83949">
        <ele>408.22</ele>
        <time>2018-11-24T13:48:35Z</time>
      </trkpt>
      <trkpt lat="43.49039" lon="5.83953">
        <ele>407.26</ele>
        <time>2018-11-24T13:48:50Z</time>
      </trkpt>
      <trkpt lat="43.49035" lon="5.83958">
        <ele>406.29</ele>
        <time>2018-11-24T13:49:06Z</time>
      </trkpt>
      <trkpt lat="43.49035" lon="5.83958">
        <ele>405.81</ele>
        <time>2018-11-24T13:49:18Z</time>
      </trkpt>
      <trkpt lat="43.49037" lon="5.83963">
        <ele>405.81</ele>
        <time>2018-11-24T13:49:30Z</time>
      </trkpt>
      <trkpt lat="43.49045" lon="5.83956">
        <ele>407.74</ele>
        <time>2018-11-24T13:49:45Z</time>
      </trkpt>
      <trkpt lat="43.49054" lon="5.83954">
        <ele>408.7</ele>
        <time>2018-11-24T13:50:00Z</time>
      </trkpt>
      <trkpt lat="43.49065" lon="5.83958">
        <ele>408.22</ele>
        <time>2018-11-24T13:50:17Z</time>
      </trkpt>
      <trkpt lat="43.49071" lon="5.83959">
        <ele>408.22</ele>
        <time>2018-11-24T13:50:26Z</time>
      </trkpt>
      <trkpt lat="43.49075" lon="5.83959">
        <ele>408.22</ele>
        <time>2018-11-24T13:50:30Z</time>
      </trkpt>
      <trkpt lat="43.49079" lon="5.8396">
        <ele>408.7</ele>
        <time>2018-11-24T13:50:35Z</time>
      </trkpt>
      <trkpt lat="43.4909" lon="5.8397">
        <ele>408.22</ele>
        <time>2018-11-24T13:50:48Z</time>
      </trkpt>
      <trkpt lat="43.49097" lon="5.83969">
        <ele>408.22</ele>
        <time>2018-11-24T13:50:58Z</time>
      </trkpt>
      <trkpt lat="43.49106" lon="5.83963">
        <ele>408.7</ele>
        <time>2018-11-24T13:51:11Z</time>
      </trkpt>
      <trkpt lat="43.49107" lon="5.83963">
        <ele>409.18</ele>
        <time>2018-11-24T13:51:12Z</time>
      </trkpt>
      <trkpt lat="43.49113" lon="5.83962">
        <ele>409.66</ele>
        <time>2018-11-24T13:51:19Z</time>
      </trkpt>
      <trkpt lat="43.49116" lon="5.83961">
        <ele>409.66</ele>
        <time>2018-11-24T13:51:23Z</time>
      </trkpt>
      <trkpt lat="43.49121" lon="5.83962">
        <ele>409.66</ele>
        <time>2018-11-24T13:51:34Z</time>
      </trkpt>
      <trkpt lat="43.49127" lon="5.83956">
        <ele>410.14</ele>
        <time>2018-11-24T13:51:51Z</time>
      </trkpt>
      <trkpt lat="43.49127" lon="5.83955">
        <ele>410.14</ele>
        <time>2018-11-24T13:51:53Z</time>
      </trkpt>
      <trkpt lat="43.49134" lon="5.83949">
        <ele>411.58</ele>
        <time>2018-11-24T13:52:07Z</time>
      </trkpt>
      <trkpt lat="43.49141" lon="5.83948">
        <ele>411.58</ele>
        <time>2018-11-24T13:52:20Z</time>
      </trkpt>
      <trkpt lat="43.49145" lon="5.83946">
        <ele>411.58</ele>
        <time>2018-11-24T13:52:33Z</time>
      </trkpt>
      <trkpt lat="43.49154" lon="5.83952">
        <ele>411.58</ele>
        <time>2018-11-24T13:52:48Z</time>
      </trkpt>
      <trkpt lat="43.49156" lon="5.83951">
        <ele>410.62</ele>
        <time>2018-11-24T13:52:52Z</time>
      </trkpt>
      <trkpt lat="43.49162" lon="5.83951">
        <ele>410.62</ele>
        <time>2018-11-24T13:53:02Z</time>
      </trkpt>
      <trkpt lat="43.49164" lon="5.83951">
        <ele>410.62</ele>
        <time>2018-11-24T13:53:05Z</time>
      </trkpt>
      <trkpt lat="43.4917" lon="5.83957">
        <ele>410.62</ele>
        <time>2018-11-24T13:53:13Z</time>
      </trkpt>
      <trkpt lat="43.49174" lon="5.8396">
        <ele>410.14</ele>
        <time>2018-11-24T13:53:24Z</time>
      </trkpt>
      <trkpt lat="43.49175" lon="5.83959">
        <ele>410.14</ele>
        <time>2018-11-24T13:53:26Z</time>
      </trkpt>
      <trkpt lat="43.49177" lon="5.83961">
        <ele>411.58</ele>
        <time>2018-11-24T13:53:31Z</time>
      </trkpt>
      <trkpt lat="43.49178" lon="5.83961">
        <ele>411.1</ele>
        <time>2018-11-24T13:53:35Z</time>
      </trkpt>
      <trkpt lat="43.49187" lon="5.83965">
        <ele>411.58</ele>
        <time>2018-11-24T13:53:46Z</time>
      </trkpt>
      <trkpt lat="43.49191" lon="5.83966">
        <ele>411.58</ele>
        <time>2018-11-24T13:54:02Z</time>
      </trkpt>
      <trkpt lat="43.49193" lon="5.83966">
        <ele>412.06</ele>
        <time>2018-11-24T13:54:13Z</time>
      </trkpt>
      <trkpt lat="43.49191" lon="5.83966">
        <ele>412.06</ele>
        <time>2018-11-24T13:54:19Z</time>
      </trkpt>
      <trkpt lat="43.49198" lon="5.83961">
        <ele>411.1</ele>
        <time>2018-11-24T13:54:31Z</time>
      </trkpt>
      <trkpt lat="43.49204" lon="5.8396">
        <ele>411.1</ele>
        <time>2018-11-24T13:54:44Z</time>
      </trkpt>
      <trkpt lat="43.49205" lon="5.83963">
        <ele>412.06</ele>
        <time>2018-11-24T13:54:57Z</time>
      </trkpt>
      <trkpt lat="43.49207" lon="5.83966">
        <ele>410.62</ele>
        <time>2018-11-24T13:55:07Z</time>
      </trkpt>
      <trkpt lat="43.49211" lon="5.83966">
        <ele>409.18</ele>
        <time>2018-11-24T13:55:18Z</time>
      </trkpt>
      <trkpt lat="43.49208" lon="5.83962">
        <ele>410.14</ele>
        <time>2018-11-24T13:55:27Z</time>
      </trkpt>
      <trkpt lat="43.49207" lon="5.83961">
        <ele>411.1</ele>
        <time>2018-11-24T13:55:31Z</time>
      </trkpt>
      <trkpt lat="43.49206" lon="5.83959">
        <ele>412.06</ele>
        <time>2018-11-24T13:55:44Z</time>
      </trkpt>
      <trkpt lat="43.49203" lon="5.83961">
        <ele>412.06</ele>
        <time>2018-11-24T13:56:00Z</time>
      </trkpt>
      <trkpt lat="43.49203" lon="5.83959">
        <ele>412.06</ele>
        <time>2018-11-24T13:56:04Z</time>
      </trkpt>
      <trkpt lat="43.49204" lon="5.8396">
        <ele>412.06</ele>
        <time>2018-11-24T13:56:15Z</time>
      </trkpt>
      <trkpt lat="43.492" lon="5.83958">
        <ele>413.5</ele>
        <time>2018-11-24T13:56:38Z</time>
      </trkpt>
      <trkpt lat="43.49199" lon="5.83965">
        <ele>411.1</ele>
        <time>2018-11-24T13:56:59Z</time>
      </trkpt>
      <trkpt lat="43.49199" lon="5.83965">
        <ele>411.1</ele>
        <time>2018-11-24T13:57:00Z</time>
      </trkpt>
      <trkpt lat="43.49191" lon="5.83964">
        <ele>411.58</ele>
        <time>2018-11-24T13:57:14Z</time>
      </trkpt>
      <trkpt lat="43.4919" lon="5.83964">
        <ele>411.58</ele>
        <time>2018-11-24T13:57:15Z</time>
      </trkpt>
      <trkpt lat="43.49187" lon="5.83973">
        <ele>410.14</ele>
        <time>2018-11-24T13:57:25Z</time>
      </trkpt>
      <trkpt lat="43.49185" lon="5.83981">
        <ele>408.22</ele>
        <time>2018-11-24T13:57:39Z</time>
      </trkpt>
      <trkpt lat="43.49186" lon="5.83982">
        <ele>408.22</ele>
        <time>2018-11-24T13:57:43Z</time>
      </trkpt>
      <trkpt lat="43.49193" lon="5.83997">
        <ele>408.22</ele>
        <time>2018-11-24T13:57:53Z</time>
      </trkpt>
      <trkpt lat="43.49193" lon="5.83997">
        <ele>408.22</ele>
        <time>2018-11-24T13:57:55Z</time>
      </trkpt>
      <trkpt lat="43.49193" lon="5.83998">
        <ele>408.22</ele>
        <time>2018-11-24T13:57:56Z</time>
      </trkpt>
      <trkpt lat="43.49197" lon="5.84011">
        <ele>407.26</ele>
        <time>2018-11-24T13:58:06Z</time>
      </trkpt>
      <trkpt lat="43.49199" lon="5.84025">
        <ele>407.26</ele>
        <time>2018-11-24T13:58:17Z</time>
      </trkpt>
      <trkpt lat="43.492" lon="5.8403">
        <ele>407.26</ele>
        <time>2018-11-24T13:58:21Z</time>
      </trkpt>
      <trkpt lat="43.492" lon="5.84031">
        <ele>407.26</ele>
        <time>2018-11-24T13:58:22Z</time>
      </trkpt>
      <trkpt lat="43.492" lon="5.84033">
        <ele>407.26</ele>
        <time>2018-11-24T13:58:23Z</time>
      </trkpt>
      <trkpt lat="43.49203" lon="5.8404">
        <ele>407.26</ele>
        <time>2018-11-24T13:58:28Z</time>
      </trkpt>
      <trkpt lat="43.49208" lon="5.84045">
        <ele>408.7</ele>
        <time>2018-11-24T13:58:34Z</time>
      </trkpt>
      <trkpt lat="43.49214" lon="5.84055">
        <ele>408.7</ele>
        <time>2018-11-24T13:58:45Z</time>
      </trkpt>
      <trkpt lat="43.49226" lon="5.84061">
        <ele>409.66</ele>
        <time>2018-11-24T13:59:03Z</time>
      </trkpt>
      <trkpt lat="43.49237" lon="5.84063">
        <ele>410.14</ele>
        <time>2018-11-24T13:59:18Z</time>
      </trkpt>
      <trkpt lat="43.49246" lon="5.84063">
        <ele>411.1</ele>
        <time>2018-11-24T13:59:30Z</time>
      </trkpt>
      <trkpt lat="43.49254" lon="5.84062">
        <ele>412.54</ele>
        <time>2018-11-24T13:59:41Z</time>
      </trkpt>
      <trkpt lat="43.49258" lon="5.84063">
        <ele>412.54</ele>
        <time>2018-11-24T13:59:46Z</time>
      </trkpt>
      <trkpt lat="43.49264" lon="5.84061">
        <ele>413.5</ele>
        <time>2018-11-24T13:59:55Z</time>
      </trkpt>
      <trkpt lat="43.4927" lon="5.84058">
        <ele>414.95</ele>
        <time>2018-11-24T14:00:04Z</time>
      </trkpt>
      <trkpt lat="43.49273" lon="5.84057">
        <ele>415.91</ele>
        <time>2018-11-24T14:00:08Z</time>
      </trkpt>
      <trkpt lat="43.49278" lon="5.84055">
        <ele>417.83</ele>
        <time>2018-11-24T14:00:17Z</time>
      </trkpt>
      <trkpt lat="43.4928" lon="5.84054">
        <ele>419.27</ele>
        <time>2018-11-24T14:00:20Z</time>
      </trkpt>
      <trkpt lat="43.49287" lon="5.84045">
        <ele>420.23</ele>
        <time>2018-11-24T14:00:31Z</time>
      </trkpt>
      <trkpt lat="43.4929" lon="5.84036">
        <ele>420.23</ele>
        <time>2018-11-24T14:00:42Z</time>
      </trkpt>
      <trkpt lat="43.49292" lon="5.84036">
        <ele>420.23</ele>
        <time>2018-11-24T14:00:43Z</time>
      </trkpt>
      <trkpt lat="43.49293" lon="5.84036">
        <ele>420.23</ele>
        <time>2018-11-24T14:00:44Z</time>
      </trkpt>
      <trkpt lat="43.49294" lon="5.84036">
        <ele>420.23</ele>
        <time>2018-11-24T14:00:45Z</time>
      </trkpt>
      <trkpt lat="43.49295" lon="5.84037">
        <ele>420.23</ele>
        <time>2018-11-24T14:00:46Z</time>
      </trkpt>
      <trkpt lat="43.49305" lon="5.84043">
        <ele>420.71</ele>
        <time>2018-11-24T14:00:59Z</time>
      </trkpt>
      <trkpt lat="43.4931" lon="5.84043">
        <ele>420.23</ele>
        <time>2018-11-24T14:01:12Z</time>
      </trkpt>
      <trkpt lat="43.49315" lon="5.8404">
        <ele>420.23</ele>
        <time>2018-11-24T14:01:28Z</time>
      </trkpt>
      <trkpt lat="43.49315" lon="5.84039">
        <ele>420.23</ele>
        <time>2018-11-24T14:01:29Z</time>
      </trkpt>
      <trkpt lat="43.49316" lon="5.84038">
        <ele>420.23</ele>
        <time>2018-11-24T14:01:41Z</time>
      </trkpt>
      <trkpt lat="43.49317" lon="5.84037">
        <ele>420.23</ele>
        <time>2018-11-24T14:01:43Z</time>
      </trkpt>
      <trkpt lat="43.49318" lon="5.84037">
        <ele>420.23</ele>
        <time>2018-11-24T14:01:44Z</time>
      </trkpt>
      <trkpt lat="43.49319" lon="5.84037">
        <ele>420.23</ele>
        <time>2018-11-24T14:01:45Z</time>
      </trkpt>
      <trkpt lat="43.49321" lon="5.84036">
        <ele>420.23</ele>
        <time>2018-11-24T14:01:46Z</time>
      </trkpt>
      <trkpt lat="43.49322" lon="5.84035">
        <ele>420.23</ele>
        <time>2018-11-24T14:01:47Z</time>
      </trkpt>
      <trkpt lat="43.49337" lon="5.84018">
        <ele>419.27</ele>
        <time>2018-11-24T14:02:06Z</time>
      </trkpt>
      <trkpt lat="43.49339" lon="5.84015">
        <ele>419.27</ele>
        <time>2018-11-24T14:02:09Z</time>
      </trkpt>
      <trkpt lat="43.49349" lon="5.84012">
        <ele>417.83</ele>
        <time>2018-11-24T14:02:20Z</time>
      </trkpt>
      <trkpt lat="43.49355" lon="5.84008">
        <ele>417.35</ele>
        <time>2018-11-24T14:02:28Z</time>
      </trkpt>
      <trkpt lat="43.4936" lon="5.84005">
        <ele>416.87</ele>
        <time>2018-11-24T14:02:33Z</time>
      </trkpt>
      <trkpt lat="43.49362" lon="5.84004">
        <ele>416.87</ele>
        <time>2018-11-24T14:02:35Z</time>
      </trkpt>
      <trkpt lat="43.49371" lon="5.83995">
        <ele>415.91</ele>
        <time>2018-11-24T14:02:46Z</time>
      </trkpt>
      <trkpt lat="43.4938" lon="5.83985">
        <ele>415.43</ele>
        <time>2018-11-24T14:02:58Z</time>
      </trkpt>
      <trkpt lat="43.49387" lon="5.83981">
        <ele>414.95</ele>
        <time>2018-11-24T14:03:09Z</time>
      </trkpt>
      <trkpt lat="43.49391" lon="5.83976">
        <ele>416.39</ele>
        <time>2018-11-24T14:03:24Z</time>
      </trkpt>
      <trkpt lat="43.49391" lon="5.83973">
        <ele>415.91</ele>
        <time>2018-11-24T14:03:53Z</time>
      </trkpt>
      <trkpt lat="43.49393" lon="5.83973">
        <ele>415.91</ele>
        <time>2018-11-24T14:04:16Z</time>
      </trkpt>
      <trkpt lat="43.49394" lon="5.83972">
        <ele>414.95</ele>
        <time>2018-11-24T14:04:21Z</time>
      </trkpt>
      <trkpt lat="43.49395" lon="5.83972">
        <ele>414.95</ele>
        <time>2018-11-24T14:04:29Z</time>
      </trkpt>
      <trkpt lat="43.494" lon="5.8397">
        <ele>414.47</ele>
        <time>2018-11-24T14:04:34Z</time>
      </trkpt>
      <trkpt lat="43.49404" lon="5.83967">
        <ele>413.98</ele>
        <time>2018-11-24T14:04:46Z</time>
      </trkpt>
      <trkpt lat="43.49404" lon="5.83967">
        <ele>413.98</ele>
        <time>2018-11-24T14:04:47Z</time>
      </trkpt>
      <trkpt lat="43.49405" lon="5.83968">
        <ele>413.98</ele>
        <time>2018-11-24T14:04:51Z</time>
      </trkpt>
      <trkpt lat="43.49402" lon="5.83969">
        <ele>413.98</ele>
        <time>2018-11-24T14:04:57Z</time>
      </trkpt>
      <trkpt lat="43.49402" lon="5.83969">
        <ele>413.98</ele>
        <time>2018-11-24T14:05:02Z</time>
      </trkpt>
      <trkpt lat="43.49401" lon="5.83973">
        <ele>413.5</ele>
        <time>2018-11-24T14:05:06Z</time>
      </trkpt>
      <trkpt lat="43.49402" lon="5.83977">
        <ele>413.5</ele>
        <time>2018-11-24T14:05:09Z</time>
      </trkpt>
      <trkpt lat="43.494" lon="5.83983">
        <ele>413.5</ele>
        <time>2018-11-24T14:05:14Z</time>
      </trkpt>
      <trkpt lat="43.49403" lon="5.83988">
        <ele>413.5</ele>
        <time>2018-11-24T14:05:19Z</time>
      </trkpt>
      <trkpt lat="43.49406" lon="5.83994">
        <ele>413.5</ele>
        <time>2018-11-24T14:05:23Z</time>
      </trkpt>
      <trkpt lat="43.49406" lon="5.83995">
        <ele>413.5</ele>
        <time>2018-11-24T14:05:24Z</time>
      </trkpt>
      <trkpt lat="43.49407" lon="5.83997">
        <ele>413.5</ele>
        <time>2018-11-24T14:05:27Z</time>
      </trkpt>
      <trkpt lat="43.49409" lon="5.83999">
        <ele>413.5</ele>
        <time>2018-11-24T14:05:28Z</time>
      </trkpt>
      <trkpt lat="43.49411" lon="5.84002">
        <ele>413.5</ele>
        <time>2018-11-24T14:05:32Z</time>
      </trkpt>
      <trkpt lat="43.49422" lon="5.84003">
        <ele>414.95</ele>
        <time>2018-11-24T14:05:43Z</time>
      </trkpt>
      <trkpt lat="43.49429" lon="5.84005">
        <ele>414.95</ele>
        <time>2018-11-24T14:05:54Z</time>
      </trkpt>
      <trkpt lat="43.49433" lon="5.84008">
        <ele>414.95</ele>
        <time>2018-11-24T14:06:00Z</time>
      </trkpt>
      <trkpt lat="43.49442" lon="5.8401">
        <ele>413.98</ele>
        <time>2018-11-24T14:06:14Z</time>
      </trkpt>
      <trkpt lat="43.49445" lon="5.84012">
        <ele>414.47</ele>
        <time>2018-11-24T14:06:18Z</time>
      </trkpt>
      <trkpt lat="43.49447" lon="5.84012">
        <ele>414.47</ele>
        <time>2018-11-24T14:06:20Z</time>
      </trkpt>
      <trkpt lat="43.49449" lon="5.83995">
        <ele>414.95</ele>
        <time>2018-11-24T14:06:35Z</time>
      </trkpt>
      <trkpt lat="43.49449" lon="5.83991">
        <ele>414.95</ele>
        <time>2018-11-24T14:06:54Z</time>
      </trkpt>
      <trkpt lat="43.49451" lon="5.83989">
        <ele>413.5</ele>
        <time>2018-11-24T14:07:05Z</time>
      </trkpt>
      <trkpt lat="43.49461" lon="5.83998">
        <ele>413.02</ele>
        <time>2018-11-24T14:07:20Z</time>
      </trkpt>
      <trkpt lat="43.4946" lon="5.83998">
        <ele>414.47</ele>
        <time>2018-11-24T14:07:22Z</time>
      </trkpt>
      <trkpt lat="43.49462" lon="5.84006">
        <ele>414.47</ele>
        <time>2018-11-24T14:07:33Z</time>
      </trkpt>
      <trkpt lat="43.4947" lon="5.84015">
        <ele>414.47</ele>
        <time>2018-11-24T14:07:43Z</time>
      </trkpt>
      <trkpt lat="43.49471" lon="5.84018">
        <ele>414.47</ele>
        <time>2018-11-24T14:07:49Z</time>
      </trkpt>
      <trkpt lat="43.49472" lon="5.8402">
        <ele>414.47</ele>
        <time>2018-11-24T14:07:52Z</time>
      </trkpt>
      <trkpt lat="43.49484" lon="5.84025">
        <ele>414.95</ele>
        <time>2018-11-24T14:08:03Z</time>
      </trkpt>
      <trkpt lat="43.49489" lon="5.84028">
        <ele>414.95</ele>
        <time>2018-11-24T14:08:09Z</time>
      </trkpt>
      <trkpt lat="43.495" lon="5.84033">
        <ele>414.95</ele>
        <time>2018-11-24T14:08:21Z</time>
      </trkpt>
      <trkpt lat="43.49505" lon="5.84034">
        <ele>414.95</ele>
        <time>2018-11-24T14:08:26Z</time>
      </trkpt>
      <trkpt lat="43.49507" lon="5.84035">
        <ele>414.95</ele>
        <time>2018-11-24T14:08:27Z</time>
      </trkpt>
      <trkpt lat="43.49508" lon="5.84035">
        <ele>414.95</ele>
        <time>2018-11-24T14:08:28Z</time>
      </trkpt>
      <trkpt lat="43.49517" lon="5.84037">
        <ele>414.95</ele>
        <time>2018-11-24T14:08:37Z</time>
      </trkpt>
      <trkpt lat="43.49517" lon="5.84037">
        <ele>414.95</ele>
        <time>2018-11-24T14:08:38Z</time>
      </trkpt>
      <trkpt lat="43.49527" lon="5.84039">
        <ele>415.43</ele>
        <time>2018-11-24T14:08:50Z</time>
      </trkpt>
      <trkpt lat="43.49531" lon="5.84039">
        <ele>415.43</ele>
        <time>2018-11-24T14:08:55Z</time>
      </trkpt>
      <trkpt lat="43.49539" lon="5.84038">
        <ele>415.43</ele>
        <time>2018-11-24T14:09:03Z</time>
      </trkpt>
      <trkpt lat="43.4954" lon="5.84037">
        <ele>415.43</ele>
        <time>2018-11-24T14:09:05Z</time>
      </trkpt>
      <trkpt lat="43.49541" lon="5.84036">
        <ele>415.43</ele>
        <time>2018-11-24T14:09:06Z</time>
      </trkpt>
      <trkpt lat="43.49552" lon="5.84035">
        <ele>415.91</ele>
        <time>2018-11-24T14:09:17Z</time>
      </trkpt>
      <trkpt lat="43.49553" lon="5.84033">
        <ele>415.91</ele>
        <time>2018-11-24T14:09:20Z</time>
      </trkpt>
      <trkpt lat="43.49555" lon="5.8403">
        <ele>415.91</ele>
        <time>2018-11-24T14:09:23Z</time>
      </trkpt>
      <trkpt lat="43.49561" lon="5.84031">
        <ele>415.91</ele>
        <time>2018-11-24T14:09:31Z</time>
      </trkpt>
      <trkpt lat="43.49565" lon="5.84029">
        <ele>415.91</ele>
        <time>2018-11-24T14:09:40Z</time>
      </trkpt>
      <trkpt lat="43.49566" lon="5.84029">
        <ele>415.91</ele>
        <time>2018-11-24T14:09:41Z</time>
      </trkpt>
      <trkpt lat="43.49569" lon="5.84031">
        <ele>415.91</ele>
        <time>2018-11-24T14:09:45Z</time>
      </trkpt>
      <trkpt lat="43.49575" lon="5.8404">
        <ele>415.91</ele>
        <time>2018-11-24T14:09:53Z</time>
      </trkpt>
      <trkpt lat="43.49584" lon="5.84049">
        <ele>414.47</ele>
        <time>2018-11-24T14:10:04Z</time>
      </trkpt>
      <trkpt lat="43.49588" lon="5.84053">
        <ele>414.47</ele>
        <time>2018-11-24T14:10:10Z</time>
      </trkpt>
      <trkpt lat="43.49589" lon="5.84054">
        <ele>414.47</ele>
        <time>2018-11-24T14:10:11Z</time>
      </trkpt>
      <trkpt lat="43.49592" lon="5.84057">
        <ele>415.91</ele>
        <time>2018-11-24T14:10:15Z</time>
      </trkpt>
      <trkpt lat="43.496" lon="5.84055">
        <ele>416.87</ele>
        <time>2018-11-24T14:10:25Z</time>
      </trkpt>
      <trkpt lat="43.49608" lon="5.84052">
        <ele>419.27</ele>
        <time>2018-11-24T14:10:34Z</time>
      </trkpt>
      <trkpt lat="43.49609" lon="5.84051">
        <ele>419.27</ele>
        <time>2018-11-24T14:10:36Z</time>
      </trkpt>
      <trkpt lat="43.4961" lon="5.8405">
        <ele>419.27</ele>
        <time>2018-11-24T14:10:37Z</time>
      </trkpt>
      <trkpt lat="43.49614" lon="5.84046">
        <ele>420.23</ele>
        <time>2018-11-24T14:10:42Z</time>
      </trkpt>
      <trkpt lat="43.49615" lon="5.84046">
        <ele>420.23</ele>
        <time>2018-11-24T14:10:43Z</time>
      </trkpt>
      <trkpt lat="43.49625" lon="5.84046">
        <ele>420.71</ele>
        <time>2018-11-24T14:10:59Z</time>
      </trkpt>
      <trkpt lat="43.49624" lon="5.84046">
        <ele>420.71</ele>
        <time>2018-11-24T14:11:13Z</time>
      </trkpt>
      <trkpt lat="43.49628" lon="5.84046">
        <ele>420.71</ele>
        <time>2018-11-24T14:11:19Z</time>
      </trkpt>
      <trkpt lat="43.4963" lon="5.84046">
        <ele>421.19</ele>
        <time>2018-11-24T14:11:21Z</time>
      </trkpt>
      <trkpt lat="43.49639" lon="5.84043">
        <ele>421.19</ele>
        <time>2018-11-24T14:11:29Z</time>
      </trkpt>
      <trkpt lat="43.49641" lon="5.8404">
        <ele>421.19</ele>
        <time>2018-11-24T14:11:32Z</time>
      </trkpt>
      <trkpt lat="43.49645" lon="5.84041">
        <ele>421.19</ele>
        <time>2018-11-24T14:11:36Z</time>
      </trkpt>
      <trkpt lat="43.49646" lon="5.84041">
        <ele>421.19</ele>
        <time>2018-11-24T14:11:37Z</time>
      </trkpt>
      <trkpt lat="43.49648" lon="5.84041">
        <ele>421.19</ele>
        <time>2018-11-24T14:11:38Z</time>
      </trkpt>
      <trkpt lat="43.49654" lon="5.84034">
        <ele>421.19</ele>
        <time>2018-11-24T14:11:48Z</time>
      </trkpt>
      <trkpt lat="43.49654" lon="5.84035">
        <ele>420.71</ele>
        <time>2018-11-24T14:11:54Z</time>
      </trkpt>
      <trkpt lat="43.49653" lon="5.84035">
        <ele>420.71</ele>
        <time>2018-11-24T14:12:01Z</time>
      </trkpt>
      <trkpt lat="43.49655" lon="5.84033">
        <ele>420.71</ele>
        <time>2018-11-24T14:12:04Z</time>
      </trkpt>
      <trkpt lat="43.49656" lon="5.84031">
        <ele>420.71</ele>
        <time>2018-11-24T14:12:05Z</time>
      </trkpt>
      <trkpt lat="43.49656" lon="5.84026">
        <ele>420.71</ele>
        <time>2018-11-24T14:12:09Z</time>
      </trkpt>
      <trkpt lat="43.49655" lon="5.84023">
        <ele>420.71</ele>
        <time>2018-11-24T14:12:10Z</time>
      </trkpt>
      <trkpt lat="43.49656" lon="5.84018">
        <ele>420.71</ele>
        <time>2018-11-24T14:12:14Z</time>
      </trkpt>
      <trkpt lat="43.49662" lon="5.84012">
        <ele>420.71</ele>
        <time>2018-11-24T14:12:26Z</time>
      </trkpt>
      <trkpt lat="43.49659" lon="5.8401">
        <ele>421.19</ele>
        <time>2018-11-24T14:12:43Z</time>
      </trkpt>
      <trkpt lat="43.49657" lon="5.8401">
        <ele>421.19</ele>
        <time>2018-11-24T14:12:44Z</time>
      </trkpt>
      <trkpt lat="43.49652" lon="5.84006">
        <ele>419.27</ele>
        <time>2018-11-24T14:12:53Z</time>
      </trkpt>
      <trkpt lat="43.49651" lon="5.84004">
        <ele>418.31</ele>
        <time>2018-11-24T14:12:54Z</time>
      </trkpt>
      <trkpt lat="43.49649" lon="5.84003">
        <ele>418.31</ele>
        <time>2018-11-24T14:12:55Z</time>
      </trkpt>
      <trkpt lat="43.49646" lon="5.83998">
        <ele>417.83</ele>
        <time>2018-11-24T14:13:05Z</time>
      </trkpt>
      <trkpt lat="43.49645" lon="5.83993">
        <ele>417.35</ele>
        <time>2018-11-24T14:13:09Z</time>
      </trkpt>
      <trkpt lat="43.49645" lon="5.83986">
        <ele>417.35</ele>
        <time>2018-11-24T14:13:13Z</time>
      </trkpt>
      <trkpt lat="43.49645" lon="5.83977">
        <ele>417.35</ele>
        <time>2018-11-24T14:13:22Z</time>
      </trkpt>
      <trkpt lat="43.49643" lon="5.83976">
        <ele>417.35</ele>
        <time>2018-11-24T14:13:24Z</time>
      </trkpt>
      <trkpt lat="43.49643" lon="5.83966">
        <ele>416.87</ele>
        <time>2018-11-24T14:13:32Z</time>
      </trkpt>
      <trkpt lat="43.49643" lon="5.83964">
        <ele>416.87</ele>
        <time>2018-11-24T14:13:33Z</time>
      </trkpt>
      <trkpt lat="43.49639" lon="5.8396">
        <ele>416.39</ele>
        <time>2018-11-24T14:13:45Z</time>
      </trkpt>
      <trkpt lat="43.49638" lon="5.8396">
        <ele>416.39</ele>
        <time>2018-11-24T14:13:46Z</time>
      </trkpt>
      <trkpt lat="43.49638" lon="5.8396">
        <ele>416.39</ele>
        <time>2018-11-24T14:13:54Z</time>
      </trkpt>
      <trkpt lat="43.49645" lon="5.83961">
        <ele>416.39</ele>
        <time>2018-11-24T14:14:03Z</time>
      </trkpt>
      <trkpt lat="43.49647" lon="5.8396">
        <ele>416.39</ele>
        <time>2018-11-24T14:14:06Z</time>
      </trkpt>
      <trkpt lat="43.49649" lon="5.83959">
        <ele>416.39</ele>
        <time>2018-11-24T14:14:07Z</time>
      </trkpt>
      <trkpt lat="43.49657" lon="5.83965">
        <ele>416.39</ele>
        <time>2018-11-24T14:14:18Z</time>
      </trkpt>
      <trkpt lat="43.49666" lon="5.83973">
        <ele>415.43</ele>
        <time>2018-11-24T14:14:28Z</time>
      </trkpt>
      <trkpt lat="43.49672" lon="5.83976">
        <ele>415.43</ele>
        <time>2018-11-24T14:14:35Z</time>
      </trkpt>
      <trkpt lat="43.49674" lon="5.83976">
        <ele>415.43</ele>
        <time>2018-11-24T14:14:36Z</time>
      </trkpt>
      <trkpt lat="43.49683" lon="5.83985">
        <ele>415.43</ele>
        <time>2018-11-24T14:14:47Z</time>
      </trkpt>
      <trkpt lat="43.49685" lon="5.83988">
        <ele>415.43</ele>
        <time>2018-11-24T14:14:50Z</time>
      </trkpt>
      <trkpt lat="43.49686" lon="5.83989">
        <ele>415.43</ele>
        <time>2018-11-24T14:14:51Z</time>
      </trkpt>
      <trkpt lat="43.49692" lon="5.83996">
        <ele>414.95</ele>
        <time>2018-11-24T14:15:00Z</time>
      </trkpt>
      <trkpt lat="43.49704" lon="5.84005">
        <ele>414.95</ele>
        <time>2018-11-24T14:15:13Z</time>
      </trkpt>
      <trkpt lat="43.49706" lon="5.84008">
        <ele>413.98</ele>
        <time>2018-11-24T14:15:16Z</time>
      </trkpt>
      <trkpt lat="43.49707" lon="5.8401">
        <ele>413.98</ele>
        <time>2018-11-24T14:15:17Z</time>
      </trkpt>
      <trkpt lat="43.49709" lon="5.84012">
        <ele>413.98</ele>
        <time>2018-11-24T14:15:18Z</time>
      </trkpt>
      <trkpt lat="43.49711" lon="5.84013">
        <ele>413.98</ele>
        <time>2018-11-24T14:15:19Z</time>
      </trkpt>
      <trkpt lat="43.49714" lon="5.84014">
        <ele>413.98</ele>
        <time>2018-11-24T14:15:23Z</time>
      </trkpt>
      <trkpt lat="43.49716" lon="5.84014">
        <ele>413.98</ele>
        <time>2018-11-24T14:15:24Z</time>
      </trkpt>
      <trkpt lat="43.49721" lon="5.84012">
        <ele>413.98</ele>
        <time>2018-11-24T14:15:29Z</time>
      </trkpt>
      <trkpt lat="43.49721" lon="5.84009">
        <ele>414.95</ele>
        <time>2018-11-24T14:15:31Z</time>
      </trkpt>
      <trkpt lat="43.49725" lon="5.83997">
        <ele>414.95</ele>
        <time>2018-11-24T14:15:43Z</time>
      </trkpt>
      <trkpt lat="43.49728" lon="5.83997">
        <ele>414.95</ele>
        <time>2018-11-24T14:15:48Z</time>
      </trkpt>
      <trkpt lat="43.4973" lon="5.84">
        <ele>414.95</ele>
        <time>2018-11-24T14:15:56Z</time>
      </trkpt>
      <trkpt lat="43.49729" lon="5.84001">
        <ele>414.95</ele>
        <time>2018-11-24T14:15:58Z</time>
      </trkpt>
      <trkpt lat="43.49729" lon="5.84003">
        <ele>414.95</ele>
        <time>2018-11-24T14:15:59Z</time>
      </trkpt>
      <trkpt lat="43.49726" lon="5.84004">
        <ele>414.95</ele>
        <time>2018-11-24T14:16:03Z</time>
      </trkpt>
      <trkpt lat="43.49724" lon="5.84004">
        <ele>414.95</ele>
        <time>2018-11-24T14:16:05Z</time>
      </trkpt>
      <trkpt lat="43.4972" lon="5.84009">
        <ele>414.95</ele>
        <time>2018-11-24T14:16:10Z</time>
      </trkpt>
      <trkpt lat="43.49719" lon="5.84014">
        <ele>414.95</ele>
        <time>2018-11-24T14:16:22Z</time>
      </trkpt>
      <trkpt lat="43.49722" lon="5.84017">
        <ele>414.95</ele>
        <time>2018-11-24T14:16:33Z</time>
      </trkpt>
      <trkpt lat="43.49722" lon="5.84017">
        <ele>415.43</ele>
        <time>2018-11-24T14:16:44Z</time>
      </trkpt>
      <trkpt lat="43.49722" lon="5.84013">
        <ele>415.43</ele>
        <time>2018-11-24T14:16:55Z</time>
      </trkpt>
      <trkpt lat="43.4972" lon="5.84012">
        <ele>414.47</ele>
        <time>2018-11-24T14:17:07Z</time>
      </trkpt>
      <trkpt lat="43.49725" lon="5.84016">
        <ele>414.47</ele>
        <time>2018-11-24T14:17:19Z</time>
      </trkpt>
      <trkpt lat="43.49727" lon="5.84017">
        <ele>415.43</ele>
        <time>2018-11-24T14:17:24Z</time>
      </trkpt>
      <trkpt lat="43.49719" lon="5.84012">
        <ele>413.98</ele>
        <time>2018-11-24T14:17:34Z</time>
      </trkpt>
      <trkpt lat="43.49718" lon="5.84012">
        <ele>413.98</ele>
        <time>2018-11-24T14:17:35Z</time>
      </trkpt>
      <trkpt lat="43.49717" lon="5.84015">
        <ele>413.98</ele>
        <time>2018-11-24T14:17:53Z</time>
      </trkpt>
      <trkpt lat="43.49721" lon="5.84011">
        <ele>413.98</ele>
        <time>2018-11-24T14:18:07Z</time>
      </trkpt>
      <trkpt lat="43.49721" lon="5.84011">
        <ele>415.43</ele>
        <time>2018-11-24T14:18:09Z</time>
      </trkpt>
      <trkpt lat="43.49722" lon="5.84015">
        <ele>413.98</ele>
        <time>2018-11-24T14:18:38Z</time>
      </trkpt>
      <trkpt lat="43.49722" lon="5.84015">
        <ele>413.98</ele>
        <time>2018-11-24T14:18:39Z</time>
      </trkpt>
      <trkpt lat="43.49718" lon="5.84014">
        <ele>413.98</ele>
        <time>2018-11-24T14:18:41Z</time>
      </trkpt>
      <trkpt lat="43.49713" lon="5.84013">
        <ele>413.98</ele>
        <time>2018-11-24T14:18:46Z</time>
      </trkpt>
      <trkpt lat="43.49711" lon="5.84012">
        <ele>413.98</ele>
        <time>2018-11-24T14:18:47Z</time>
      </trkpt>
      <trkpt lat="43.49702" lon="5.84002">
        <ele>415.43</ele>
        <time>2018-11-24T14:18:54Z</time>
      </trkpt>
      <trkpt lat="43.49694" lon="5.83996">
        <ele>415.43</ele>
        <time>2018-11-24T14:19:04Z</time>
      </trkpt>
      <trkpt lat="43.49691" lon="5.83992">
        <ele>415.43</ele>
        <time>2018-11-24T14:19:08Z</time>
      </trkpt>
      <trkpt lat="43.4969" lon="5.83991">
        <ele>415.43</ele>
        <time>2018-11-24T14:19:09Z</time>
      </trkpt>
      <trkpt lat="43.49689" lon="5.8399">
        <ele>415.43</ele>
        <time>2018-11-24T14:19:10Z</time>
      </trkpt>
      <trkpt lat="43.49677" lon="5.83982">
        <ele>415.43</ele>
        <time>2018-11-24T14:19:21Z</time>
      </trkpt>
      <trkpt lat="43.49672" lon="5.8398">
        <ele>415.43</ele>
        <time>2018-11-24T14:19:30Z</time>
      </trkpt>
      <trkpt lat="43.49666" lon="5.83973">
        <ele>415.43</ele>
        <time>2018-11-24T14:19:40Z</time>
      </trkpt>
      <trkpt lat="43.4966" lon="5.83968">
        <ele>415.43</ele>
        <time>2018-11-24T14:19:46Z</time>
      </trkpt>
      <trkpt lat="43.49658" lon="5.83967">
        <ele>415.43</ele>
        <time>2018-11-24T14:19:47Z</time>
      </trkpt>
      <trkpt lat="43.49657" lon="5.83966">
        <ele>415.43</ele>
        <time>2018-11-24T14:19:48Z</time>
      </trkpt>
      <trkpt lat="43.49642" lon="5.83961">
        <ele>416.39</ele>
        <time>2018-11-24T14:20:03Z</time>
      </trkpt>
      <trkpt lat="43.49639" lon="5.83961">
        <ele>416.39</ele>
        <time>2018-11-24T14:20:06Z</time>
      </trkpt>
      <trkpt lat="43.49633" lon="5.83961">
        <ele>416.39</ele>
        <time>2018-11-24T14:20:18Z</time>
      </trkpt>
      <trkpt lat="43.49626" lon="5.83961">
        <ele>416.39</ele>
        <time>2018-11-24T14:20:37Z</time>
      </trkpt>
      <trkpt lat="43.49622" lon="5.83961">
        <ele>415.43</ele>
        <time>2018-11-24T14:20:42Z</time>
      </trkpt>
      <trkpt lat="43.49621" lon="5.83961">
        <ele>415.43</ele>
        <time>2018-11-24T14:20:43Z</time>
      </trkpt>
      <trkpt lat="43.49622" lon="5.83959">
        <ele>414.95</ele>
        <time>2018-11-24T14:20:53Z</time>
      </trkpt>
      <trkpt lat="43.49624" lon="5.83956">
        <ele>414.95</ele>
        <time>2018-11-24T14:20:56Z</time>
      </trkpt>
      <trkpt lat="43.49624" lon="5.83956">
        <ele>414.95</ele>
        <time>2018-11-24T14:21:01Z</time>
      </trkpt>
      <trkpt lat="43.49624" lon="5.83954">
        <ele>414.95</ele>
        <time>2018-11-24T14:21:02Z</time>
      </trkpt>
      <trkpt lat="43.49628" lon="5.83948">
        <ele>414.95</ele>
        <time>2018-11-24T14:21:07Z</time>
      </trkpt>
      <trkpt lat="43.49629" lon="5.83947">
        <ele>414.95</ele>
        <time>2018-11-24T14:21:08Z</time>
      </trkpt>
      <trkpt lat="43.49634" lon="5.83943">
        <ele>414.95</ele>
        <time>2018-11-24T14:21:14Z</time>
      </trkpt>
      <trkpt lat="43.49634" lon="5.83941">
        <ele>414.95</ele>
        <time>2018-11-24T14:21:15Z</time>
      </trkpt>
      <trkpt lat="43.49633" lon="5.83937">
        <ele>414.95</ele>
        <time>2018-11-24T14:21:17Z</time>
      </trkpt>
      <trkpt lat="43.49634" lon="5.83935">
        <ele>414.95</ele>
        <time>2018-11-24T14:21:18Z</time>
      </trkpt>
      <trkpt lat="43.49634" lon="5.83933">
        <ele>416.39</ele>
        <time>2018-11-24T14:21:19Z</time>
      </trkpt>
      <trkpt lat="43.49634" lon="5.83931">
        <ele>416.39</ele>
        <time>2018-11-24T14:21:20Z</time>
      </trkpt>
      <trkpt lat="43.49632" lon="5.83923">
        <ele>416.39</ele>
        <time>2018-11-24T14:21:27Z</time>
      </trkpt>
      <trkpt lat="43.49632" lon="5.83921">
        <ele>416.39</ele>
        <time>2018-11-24T14:21:28Z</time>
      </trkpt>
      <trkpt lat="43.4963" lon="5.83919">
        <ele>416.39</ele>
        <time>2018-11-24T14:21:31Z</time>
      </trkpt>
      <trkpt lat="43.49629" lon="5.83916">
        <ele>416.39</ele>
        <time>2018-11-24T14:21:32Z</time>
      </trkpt>
      <trkpt lat="43.49624" lon="5.83912">
        <ele>416.39</ele>
        <time>2018-11-24T14:21:40Z</time>
      </trkpt>
      <trkpt lat="43.49623" lon="5.83911">
        <ele>416.39</ele>
        <time>2018-11-24T14:21:42Z</time>
      </trkpt>
      <trkpt lat="43.49621" lon="5.8391">
        <ele>416.39</ele>
        <time>2018-11-24T14:21:43Z</time>
      </trkpt>
      <trkpt lat="43.49617" lon="5.83908">
        <ele>416.39</ele>
        <time>2018-11-24T14:21:50Z</time>
      </trkpt>
      <trkpt lat="43.49616" lon="5.83906">
        <ele>416.39</ele>
        <time>2018-11-24T14:21:51Z</time>
      </trkpt>
      <trkpt lat="43.49615" lon="5.83905">
        <ele>416.39</ele>
        <time>2018-11-24T14:21:52Z</time>
      </trkpt>
      <trkpt lat="43.4961" lon="5.83905">
        <ele>416.87</ele>
        <time>2018-11-24T14:21:57Z</time>
      </trkpt>
      <trkpt lat="43.49603" lon="5.83909">
        <ele>417.35</ele>
        <time>2018-11-24T14:22:05Z</time>
      </trkpt>
      <trkpt lat="43.49602" lon="5.83908">
        <ele>417.35</ele>
        <time>2018-11-24T14:22:06Z</time>
      </trkpt>
      <trkpt lat="43.49599" lon="5.8391">
        <ele>417.35</ele>
        <time>2018-11-24T14:22:20Z</time>
      </trkpt>
      <trkpt lat="43.49597" lon="5.83904">
        <ele>417.35</ele>
        <time>2018-11-24T14:22:31Z</time>
      </trkpt>
      <trkpt lat="43.49597" lon="5.83898">
        <ele>417.35</ele>
        <time>2018-11-24T14:22:42Z</time>
      </trkpt>
      <trkpt lat="43.49592" lon="5.83884">
        <ele>418.31</ele>
        <time>2018-11-24T14:22:56Z</time>
      </trkpt>
      <trkpt lat="43.49589" lon="5.8387">
        <ele>417.83</ele>
        <time>2018-11-24T14:23:08Z</time>
      </trkpt>
      <trkpt lat="43.49587" lon="5.83865">
        <ele>416.87</ele>
        <time>2018-11-24T14:23:12Z</time>
      </trkpt>
      <trkpt lat="43.49584" lon="5.83858">
        <ele>416.87</ele>
        <time>2018-11-24T14:23:17Z</time>
      </trkpt>
      <trkpt lat="43.49582" lon="5.83856">
        <ele>415.91</ele>
        <time>2018-11-24T14:23:19Z</time>
      </trkpt>
      <trkpt lat="43.49582" lon="5.83855">
        <ele>415.43</ele>
        <time>2018-11-24T14:23:20Z</time>
      </trkpt>
      <trkpt lat="43.49581" lon="5.83853">
        <ele>415.43</ele>
        <time>2018-11-24T14:23:21Z</time>
      </trkpt>
      <trkpt lat="43.49578" lon="5.83842">
        <ele>414.95</ele>
        <time>2018-11-24T14:23:30Z</time>
      </trkpt>
      <trkpt lat="43.49577" lon="5.83841">
        <ele>414.95</ele>
        <time>2018-11-24T14:23:33Z</time>
      </trkpt>
      <trkpt lat="43.49576" lon="5.83838">
        <ele>414.95</ele>
        <time>2018-11-24T14:23:35Z</time>
      </trkpt>
      <trkpt lat="43.49574" lon="5.83836">
        <ele>414.95</ele>
        <time>2018-11-24T14:23:39Z</time>
      </trkpt>
      <trkpt lat="43.49574" lon="5.83834">
        <ele>414.95</ele>
        <time>2018-11-24T14:23:40Z</time>
      </trkpt>
      <trkpt lat="43.49569" lon="5.83825">
        <ele>414.95</ele>
        <time>2018-11-24T14:23:46Z</time>
      </trkpt>
      <trkpt lat="43.49568" lon="5.83823">
        <ele>414.95</ele>
        <time>2018-11-24T14:23:47Z</time>
      </trkpt>
      <trkpt lat="43.49568" lon="5.83821">
        <ele>414.95</ele>
        <time>2018-11-24T14:23:48Z</time>
      </trkpt>
      <trkpt lat="43.49567" lon="5.83816">
        <ele>413.98</ele>
        <time>2018-11-24T14:23:53Z</time>
      </trkpt>
      <trkpt lat="43.49567" lon="5.83814">
        <ele>413.98</ele>
        <time>2018-11-24T14:23:54Z</time>
      </trkpt>
      <trkpt lat="43.49567" lon="5.83811">
        <ele>413.98</ele>
        <time>2018-11-24T14:23:55Z</time>
      </trkpt>
      <trkpt lat="43.49566" lon="5.83807">
        <ele>413.5</ele>
        <time>2018-11-24T14:24:00Z</time>
      </trkpt>
      <trkpt lat="43.49559" lon="5.83805">
        <ele>413.98</ele>
        <time>2018-11-24T14:24:10Z</time>
      </trkpt>
      <trkpt lat="43.49554" lon="5.83803">
        <ele>414.95</ele>
        <time>2018-11-24T14:24:16Z</time>
      </trkpt>
      <trkpt lat="43.49554" lon="5.83802">
        <ele>414.95</ele>
        <time>2018-11-24T14:24:17Z</time>
      </trkpt>
      <trkpt lat="43.49554" lon="5.838">
        <ele>414.95</ele>
        <time>2018-11-24T14:24:18Z</time>
      </trkpt>
      <trkpt lat="43.49553" lon="5.83797">
        <ele>414.95</ele>
        <time>2018-11-24T14:24:19Z</time>
      </trkpt>
      <trkpt lat="43.49549" lon="5.83786">
        <ele>413.98</ele>
        <time>2018-11-24T14:24:27Z</time>
      </trkpt>
      <trkpt lat="43.49546" lon="5.83776">
        <ele>413.5</ele>
        <time>2018-11-24T14:24:40Z</time>
      </trkpt>
      <trkpt lat="43.49542" lon="5.83765">
        <ele>413.5</ele>
        <time>2018-11-24T14:24:54Z</time>
      </trkpt>
      <trkpt lat="43.49538" lon="5.83745">
        <ele>412.54</ele>
        <time>2018-11-24T14:25:09Z</time>
      </trkpt>
      <trkpt lat="43.49536" lon="5.8373">
        <ele>411.58</ele>
        <time>2018-11-24T14:25:25Z</time>
      </trkpt>
      <trkpt lat="43.49535" lon="5.83727">
        <ele>411.58</ele>
        <time>2018-11-24T14:25:26Z</time>
      </trkpt>
      <trkpt lat="43.49534" lon="5.83722">
        <ele>411.58</ele>
        <time>2018-11-24T14:25:34Z</time>
      </trkpt>
      <trkpt lat="43.49532" lon="5.83705">
        <ele>411.58</ele>
        <time>2018-11-24T14:25:43Z</time>
      </trkpt>
      <trkpt lat="43.4953" lon="5.83703">
        <ele>411.58</ele>
        <time>2018-11-24T14:25:51Z</time>
      </trkpt>
      <trkpt lat="43.49531" lon="5.83702">
        <ele>411.1</ele>
        <time>2018-11-24T14:26:01Z</time>
      </trkpt>
      <trkpt lat="43.49531" lon="5.83699">
        <ele>411.1</ele>
        <time>2018-11-24T14:26:02Z</time>
      </trkpt>
      <trkpt lat="43.49532" lon="5.83696">
        <ele>411.1</ele>
        <time>2018-11-24T14:26:03Z</time>
      </trkpt>
      <trkpt lat="43.49533" lon="5.83694">
        <ele>411.1</ele>
        <time>2018-11-24T14:26:04Z</time>
      </trkpt>
      <trkpt lat="43.49531" lon="5.83686">
        <ele>411.1</ele>
        <time>2018-11-24T14:26:13Z</time>
      </trkpt>
      <trkpt lat="43.49531" lon="5.83685">
        <ele>411.1</ele>
        <time>2018-11-24T14:26:14Z</time>
      </trkpt>
      <trkpt lat="43.49531" lon="5.83675">
        <ele>412.06</ele>
        <time>2018-11-24T14:26:23Z</time>
      </trkpt>
      <trkpt lat="43.4953" lon="5.83673">
        <ele>412.06</ele>
        <time>2018-11-24T14:26:24Z</time>
      </trkpt>
      <trkpt lat="43.4953" lon="5.83671">
        <ele>412.06</ele>
        <time>2018-11-24T14:26:25Z</time>
      </trkpt>
      <trkpt lat="43.4953" lon="5.83661">
        <ele>412.54</ele>
        <time>2018-11-24T14:26:31Z</time>
      </trkpt>
      <trkpt lat="43.49531" lon="5.83657">
        <ele>413.02</ele>
        <time>2018-11-24T14:26:34Z</time>
      </trkpt>
      <trkpt lat="43.49531" lon="5.83655">
        <ele>413.02</ele>
        <time>2018-11-24T14:26:35Z</time>
      </trkpt>
      <trkpt lat="43.49531" lon="5.83652">
        <ele>413.5</ele>
        <time>2018-11-24T14:26:38Z</time>
      </trkpt>
      <trkpt lat="43.49531" lon="5.8365">
        <ele>413.5</ele>
        <time>2018-11-24T14:26:39Z</time>
      </trkpt>
      <trkpt lat="43.4953" lon="5.83647">
        <ele>413.5</ele>
        <time>2018-11-24T14:26:40Z</time>
      </trkpt>
      <trkpt lat="43.49529" lon="5.83646">
        <ele>413.5</ele>
        <time>2018-11-24T14:26:41Z</time>
      </trkpt>
      <trkpt lat="43.49527" lon="5.83633">
        <ele>414.95</ele>
        <time>2018-11-24T14:26:50Z</time>
      </trkpt>
      <trkpt lat="43.49528" lon="5.83629">
        <ele>414.95</ele>
        <time>2018-11-24T14:26:52Z</time>
      </trkpt>
      <trkpt lat="43.49524" lon="5.83614">
        <ele>415.91</ele>
        <time>2018-11-24T14:27:02Z</time>
      </trkpt>
      <trkpt lat="43.49523" lon="5.83613">
        <ele>415.91</ele>
        <time>2018-11-24T14:27:03Z</time>
      </trkpt>
      <trkpt lat="43.49523" lon="5.83611">
        <ele>415.91</ele>
        <time>2018-11-24T14:27:04Z</time>
      </trkpt>
      <trkpt lat="43.49522" lon="5.83605">
        <ele>414.47</ele>
        <time>2018-11-24T14:27:09Z</time>
      </trkpt>
      <trkpt lat="43.49523" lon="5.83603">
        <ele>414.47</ele>
        <time>2018-11-24T14:27:10Z</time>
      </trkpt>
      <trkpt lat="43.49522" lon="5.83602">
        <ele>414.47</ele>
        <time>2018-11-24T14:27:11Z</time>
      </trkpt>
      <trkpt lat="43.49523" lon="5.83587">
        <ele>414.47</ele>
        <time>2018-11-24T14:27:21Z</time>
      </trkpt>
      <trkpt lat="43.49528" lon="5.83579">
        <ele>413.5</ele>
        <time>2018-11-24T14:27:31Z</time>
      </trkpt>
      <trkpt lat="43.49529" lon="5.83573">
        <ele>413.5</ele>
        <time>2018-11-24T14:27:35Z</time>
      </trkpt>
      <trkpt lat="43.49532" lon="5.83561">
        <ele>412.54</ele>
        <time>2018-11-24T14:27:43Z</time>
      </trkpt>
      <trkpt lat="43.49533" lon="5.83552">
        <ele>412.06</ele>
        <time>2018-11-24T14:27:50Z</time>
      </trkpt>
      <trkpt lat="43.49533" lon="5.83545">
        <ele>412.06</ele>
        <time>2018-11-24T14:27:55Z</time>
      </trkpt>
      <trkpt lat="43.49532" lon="5.83543">
        <ele>411.58</ele>
        <time>2018-11-24T14:27:56Z</time>
      </trkpt>
      <trkpt lat="43.49532" lon="5.83531">
        <ele>411.1</ele>
        <time>2018-11-24T14:28:05Z</time>
      </trkpt>
      <trkpt lat="43.49531" lon="5.83526">
        <ele>411.1</ele>
        <time>2018-11-24T14:28:08Z</time>
      </trkpt>
      <trkpt lat="43.49528" lon="5.83517">
        <ele>410.62</ele>
        <time>2018-11-24T14:28:16Z</time>
      </trkpt>
      <trkpt lat="43.49527" lon="5.83514">
        <ele>410.62</ele>
        <time>2018-11-24T14:28:18Z</time>
      </trkpt>
      <trkpt lat="43.49526" lon="5.83511">
        <ele>410.14</ele>
        <time>2018-11-24T14:28:21Z</time>
      </trkpt>
      <trkpt lat="43.49526" lon="5.83509">
        <ele>410.14</ele>
        <time>2018-11-24T14:28:22Z</time>
      </trkpt>
      <trkpt lat="43.49522" lon="5.83497">
        <ele>409.66</ele>
        <time>2018-11-24T14:28:30Z</time>
      </trkpt>
      <trkpt lat="43.49521" lon="5.83496">
        <ele>409.66</ele>
        <time>2018-11-24T14:28:31Z</time>
      </trkpt>
      <trkpt lat="43.49519" lon="5.83491">
        <ele>409.18</ele>
        <time>2018-11-24T14:28:35Z</time>
      </trkpt>
      <trkpt lat="43.49518" lon="5.83488">
        <ele>409.18</ele>
        <time>2018-11-24T14:28:37Z</time>
      </trkpt>
      <trkpt lat="43.49513" lon="5.8348">
        <ele>409.18</ele>
        <time>2018-11-24T14:28:44Z</time>
      </trkpt>
      <trkpt lat="43.49511" lon="5.83478">
        <ele>408.22</ele>
        <time>2018-11-24T14:28:47Z</time>
      </trkpt>
      <trkpt lat="43.49508" lon="5.83475">
        <ele>408.22</ele>
        <time>2018-11-24T14:28:50Z</time>
      </trkpt>
      <trkpt lat="43.49499" lon="5.83469">
        <ele>407.26</ele>
        <time>2018-11-24T14:29:01Z</time>
      </trkpt>
      <trkpt lat="43.49498" lon="5.83468">
        <ele>407.26</ele>
        <time>2018-11-24T14:29:02Z</time>
      </trkpt>
      <trkpt lat="43.49496" lon="5.83467">
        <ele>406.77</ele>
        <time>2018-11-24T14:29:03Z</time>
      </trkpt>
      <trkpt lat="43.49488" lon="5.83461">
        <ele>406.29</ele>
        <time>2018-11-24T14:29:13Z</time>
      </trkpt>
      <trkpt lat="43.49487" lon="5.83461">
        <ele>406.29</ele>
        <time>2018-11-24T14:29:15Z</time>
      </trkpt>
      <trkpt lat="43.49486" lon="5.83459">
        <ele>405.81</ele>
        <time>2018-11-24T14:29:16Z</time>
      </trkpt>
      <trkpt lat="43.49482" lon="5.83458">
        <ele>405.81</ele>
        <time>2018-11-24T14:29:25Z</time>
      </trkpt>
      <trkpt lat="43.49481" lon="5.83454">
        <ele>405.33</ele>
        <time>2018-11-24T14:29:37Z</time>
      </trkpt>
      <trkpt lat="43.4948" lon="5.83452">
        <ele>405.33</ele>
        <time>2018-11-24T14:29:38Z</time>
      </trkpt>
      <trkpt lat="43.49478" lon="5.83451">
        <ele>404.37</ele>
        <time>2018-11-24T14:29:47Z</time>
      </trkpt>
      <trkpt lat="43.49476" lon="5.8345">
        <ele>404.37</ele>
        <time>2018-11-24T14:29:49Z</time>
      </trkpt>
      <trkpt lat="43.49474" lon="5.83449">
        <ele>404.37</ele>
        <time>2018-11-24T14:29:50Z</time>
      </trkpt>
      <trkpt lat="43.49471" lon="5.83445">
        <ele>403.89</ele>
        <time>2018-11-24T14:29:58Z</time>
      </trkpt>
      <trkpt lat="43.49469" lon="5.83443">
        <ele>403.41</ele>
        <time>2018-11-24T14:30:08Z</time>
      </trkpt>
      <trkpt lat="43.49462" lon="5.83443">
        <ele>402.93</ele>
        <time>2018-11-24T14:30:14Z</time>
      </trkpt>
      <trkpt lat="43.4946" lon="5.83443">
        <ele>402.93</ele>
        <time>2018-11-24T14:30:15Z</time>
      </trkpt>
      <trkpt lat="43.4945" lon="5.83437">
        <ele>401.97</ele>
        <time>2018-11-24T14:30:25Z</time>
      </trkpt>
      <trkpt lat="43.49446" lon="5.83433">
        <ele>401.49</ele>
        <time>2018-11-24T14:30:30Z</time>
      </trkpt>
      <trkpt lat="43.49445" lon="5.83432">
        <ele>401.49</ele>
        <time>2018-11-24T14:30:31Z</time>
      </trkpt>
      <trkpt lat="43.49444" lon="5.8343">
        <ele>401.49</ele>
        <time>2018-11-24T14:30:32Z</time>
      </trkpt>
      <trkpt lat="43.49441" lon="5.83429">
        <ele>401.49</ele>
        <time>2018-11-24T14:30:35Z</time>
      </trkpt>
      <trkpt lat="43.49439" lon="5.8343">
        <ele>401.01</ele>
        <time>2018-11-24T14:30:37Z</time>
      </trkpt>
      <trkpt lat="43.49438" lon="5.83428">
        <ele>401.01</ele>
        <time>2018-11-24T14:30:38Z</time>
      </trkpt>
      <trkpt lat="43.49437" lon="5.83427">
        <ele>401.01</ele>
        <time>2018-11-24T14:30:39Z</time>
      </trkpt>
      <trkpt lat="43.4943" lon="5.83425">
        <ele>400.53</ele>
        <time>2018-11-24T14:30:47Z</time>
      </trkpt>
      <trkpt lat="43.4943" lon="5.83424">
        <ele>400.53</ele>
        <time>2018-11-24T14:30:48Z</time>
      </trkpt>
      <trkpt lat="43.49429" lon="5.83422">
        <ele>400.53</ele>
        <time>2018-11-24T14:30:49Z</time>
      </trkpt>
      <trkpt lat="43.49428" lon="5.83419">
        <ele>400.05</ele>
        <time>2018-11-24T14:30:53Z</time>
      </trkpt>
      <trkpt lat="43.49426" lon="5.83418">
        <ele>400.05</ele>
        <time>2018-11-24T14:30:54Z</time>
      </trkpt>
      <trkpt lat="43.49425" lon="5.83418">
        <ele>400.05</ele>
        <time>2018-11-24T14:30:55Z</time>
      </trkpt>
      <trkpt lat="43.49419" lon="5.83415">
        <ele>399.57</ele>
        <time>2018-11-24T14:31:02Z</time>
      </trkpt>
      <trkpt lat="43.49419" lon="5.83414">
        <ele>399.08</ele>
        <time>2018-11-24T14:31:03Z</time>
      </trkpt>
      <trkpt lat="43.49417" lon="5.83413">
        <ele>399.08</ele>
        <time>2018-11-24T14:31:04Z</time>
      </trkpt>
      <trkpt lat="43.49416" lon="5.83412">
        <ele>398.6</ele>
        <time>2018-11-24T14:31:05Z</time>
      </trkpt>
      <trkpt lat="43.49414" lon="5.83409">
        <ele>398.6</ele>
        <time>2018-11-24T14:31:09Z</time>
      </trkpt>
      <trkpt lat="43.49411" lon="5.83409">
        <ele>398.12</ele>
        <time>2018-11-24T14:31:13Z</time>
      </trkpt>
      <trkpt lat="43.4941" lon="5.83407">
        <ele>398.12</ele>
        <time>2018-11-24T14:31:14Z</time>
      </trkpt>
      <trkpt lat="43.49407" lon="5.83404">
        <ele>398.12</ele>
        <time>2018-11-24T14:31:17Z</time>
      </trkpt>
      <trkpt lat="43.49406" lon="5.83403">
        <ele>397.64</ele>
        <time>2018-11-24T14:31:18Z</time>
      </trkpt>
      <trkpt lat="43.49404" lon="5.83402">
        <ele>397.64</ele>
        <time>2018-11-24T14:31:20Z</time>
      </trkpt>
      <trkpt lat="43.49401" lon="5.83399">
        <ele>397.64</ele>
        <time>2018-11-24T14:31:24Z</time>
      </trkpt>
      <trkpt lat="43.49397" lon="5.83395">
        <ele>396.68</ele>
        <time>2018-11-24T14:31:31Z</time>
      </trkpt>
      <trkpt lat="43.49396" lon="5.83393">
        <ele>396.68</ele>
        <time>2018-11-24T14:31:32Z</time>
      </trkpt>
      <trkpt lat="43.49395" lon="5.83386">
        <ele>396.2</ele>
        <time>2018-11-24T14:31:37Z</time>
      </trkpt>
      <trkpt lat="43.49395" lon="5.83384">
        <ele>396.2</ele>
        <time>2018-11-24T14:31:38Z</time>
      </trkpt>
      <trkpt lat="43.49395" lon="5.83372">
        <ele>395.24</ele>
        <time>2018-11-24T14:31:47Z</time>
      </trkpt>
      <trkpt lat="43.49395" lon="5.8337">
        <ele>394.76</ele>
        <time>2018-11-24T14:31:48Z</time>
      </trkpt>
      <trkpt lat="43.49394" lon="5.83367">
        <ele>394.76</ele>
        <time>2018-11-24T14:31:51Z</time>
      </trkpt>
      <trkpt lat="43.49395" lon="5.83364">
        <ele>394.28</ele>
        <time>2018-11-24T14:31:53Z</time>
      </trkpt>
      <trkpt lat="43.49396" lon="5.83359">
        <ele>393.8</ele>
        <time>2018-11-24T14:31:57Z</time>
      </trkpt>
      <trkpt lat="43.49397" lon="5.83357">
        <ele>393.8</ele>
        <time>2018-11-24T14:31:58Z</time>
      </trkpt>
      <trkpt lat="43.49397" lon="5.83355">
        <ele>393.8</ele>
        <time>2018-11-24T14:31:59Z</time>
      </trkpt>
      <trkpt lat="43.49397" lon="5.83353">
        <ele>393.32</ele>
        <time>2018-11-24T14:32:09Z</time>
      </trkpt>
      <trkpt lat="43.49399" lon="5.83346">
        <ele>393.32</ele>
        <time>2018-11-24T14:32:24Z</time>
      </trkpt>
      <trkpt lat="43.49402" lon="5.83336">
        <ele>392.84</ele>
        <time>2018-11-24T14:32:33Z</time>
      </trkpt>
      <trkpt lat="43.49405" lon="5.83327">
        <ele>392.36</ele>
        <time>2018-11-24T14:32:41Z</time>
      </trkpt>
      <trkpt lat="43.49405" lon="5.83326">
        <ele>392.36</ele>
        <time>2018-11-24T14:32:43Z</time>
      </trkpt>
      <trkpt lat="43.49405" lon="5.83324">
        <ele>392.36</ele>
        <time>2018-11-24T14:32:44Z</time>
      </trkpt>
      <trkpt lat="43.49406" lon="5.83319">
        <ele>391.39</ele>
        <time>2018-11-24T14:32:49Z</time>
      </trkpt>
      <trkpt lat="43.49405" lon="5.83314">
        <ele>390.91</ele>
        <time>2018-11-24T14:32:53Z</time>
      </trkpt>
      <trkpt lat="43.49406" lon="5.83302">
        <ele>390.43</ele>
        <time>2018-11-24T14:33:02Z</time>
      </trkpt>
      <trkpt lat="43.49406" lon="5.83296">
        <ele>389.95</ele>
        <time>2018-11-24T14:33:12Z</time>
      </trkpt>
      <trkpt lat="43.49401" lon="5.83287">
        <ele>388.99</ele>
        <time>2018-11-24T14:33:22Z</time>
      </trkpt>
      <trkpt lat="43.49401" lon="5.83285">
        <ele>388.51</ele>
        <time>2018-11-24T14:33:25Z</time>
      </trkpt>
      <trkpt lat="43.49401" lon="5.83283">
        <ele>388.51</ele>
        <time>2018-11-24T14:33:26Z</time>
      </trkpt>
      <trkpt lat="43.49399" lon="5.83279">
        <ele>388.51</ele>
        <time>2018-11-24T14:33:30Z</time>
      </trkpt>
      <trkpt lat="43.49396" lon="5.83272">
        <ele>388.03</ele>
        <time>2018-11-24T14:33:38Z</time>
      </trkpt>
      <trkpt lat="43.49396" lon="5.83266">
        <ele>387.07</ele>
        <time>2018-11-24T14:33:42Z</time>
      </trkpt>
      <trkpt lat="43.49396" lon="5.83264">
        <ele>387.07</ele>
        <time>2018-11-24T14:33:43Z</time>
      </trkpt>
      <trkpt lat="43.49393" lon="5.83254">
        <ele>386.59</ele>
        <time>2018-11-24T14:33:52Z</time>
      </trkpt>
      <trkpt lat="43.49392" lon="5.8325">
        <ele>385.63</ele>
        <time>2018-11-24T14:33:56Z</time>
      </trkpt>
      <trkpt lat="43.49392" lon="5.83249">
        <ele>385.63</ele>
        <time>2018-11-24T14:33:57Z</time>
      </trkpt>
      <trkpt lat="43.49391" lon="5.83245">
        <ele>385.15</ele>
        <time>2018-11-24T14:34:00Z</time>
      </trkpt>
      <trkpt lat="43.49391" lon="5.83243">
        <ele>385.15</ele>
        <time>2018-11-24T14:34:01Z</time>
      </trkpt>
      <trkpt lat="43.4939" lon="5.83237">
        <ele>384.66</ele>
        <time>2018-11-24T14:34:06Z</time>
      </trkpt>
      <trkpt lat="43.49389" lon="5.83234">
        <ele>384.66</ele>
        <time>2018-11-24T14:34:09Z</time>
      </trkpt>
      <trkpt lat="43.49388" lon="5.83232">
        <ele>384.66</ele>
        <time>2018-11-24T14:34:10Z</time>
      </trkpt>
      <trkpt lat="43.49387" lon="5.83228">
        <ele>384.18</ele>
        <time>2018-11-24T14:34:15Z</time>
      </trkpt>
      <trkpt lat="43.49385" lon="5.83224">
        <ele>383.7</ele>
        <time>2018-11-24T14:34:19Z</time>
      </trkpt>
      <trkpt lat="43.49384" lon="5.83222">
        <ele>383.7</ele>
        <time>2018-11-24T14:34:20Z</time>
      </trkpt>
      <trkpt lat="43.49384" lon="5.83218">
        <ele>383.22</ele>
        <time>2018-11-24T14:34:28Z</time>
      </trkpt>
      <trkpt lat="43.49384" lon="5.83211">
        <ele>382.74</ele>
        <time>2018-11-24T14:34:43Z</time>
      </trkpt>
      <trkpt lat="43.49384" lon="5.83206">
        <ele>382.26</ele>
        <time>2018-11-24T14:34:47Z</time>
      </trkpt>
      <trkpt lat="43.49384" lon="5.83204">
        <ele>382.26</ele>
        <time>2018-11-24T14:34:48Z</time>
      </trkpt>
      <trkpt lat="43.49384" lon="5.83202">
        <ele>382.26</ele>
        <time>2018-11-24T14:34:49Z</time>
      </trkpt>
      <trkpt lat="43.49384" lon="5.83199">
        <ele>382.26</ele>
        <time>2018-11-24T14:34:52Z</time>
      </trkpt>
      <trkpt lat="43.49384" lon="5.83197">
        <ele>381.78</ele>
        <time>2018-11-24T14:34:53Z</time>
      </trkpt>
      <trkpt lat="43.49384" lon="5.83194">
        <ele>381.78</ele>
        <time>2018-11-24T14:34:56Z</time>
      </trkpt>
      <trkpt lat="43.49384" lon="5.83192">
        <ele>381.78</ele>
        <time>2018-11-24T14:34:57Z</time>
      </trkpt>
      <trkpt lat="43.49384" lon="5.8319">
        <ele>381.78</ele>
        <time>2018-11-24T14:34:58Z</time>
      </trkpt>
      <trkpt lat="43.49384" lon="5.83187">
        <ele>381.3</ele>
        <time>2018-11-24T14:35:01Z</time>
      </trkpt>
      <trkpt lat="43.49384" lon="5.83185">
        <ele>381.3</ele>
        <time>2018-11-24T14:35:02Z</time>
      </trkpt>
      <trkpt lat="43.49384" lon="5.83183">
        <ele>381.3</ele>
        <time>2018-11-24T14:35:03Z</time>
      </trkpt>
      <trkpt lat="43.49384" lon="5.83181">
        <ele>380.82</ele>
        <time>2018-11-24T14:35:06Z</time>
      </trkpt>
      <trkpt lat="43.49384" lon="5.83179">
        <ele>380.82</ele>
        <time>2018-11-24T14:35:07Z</time>
      </trkpt>
      <trkpt lat="43.49384" lon="5.83175">
        <ele>380.82</ele>
        <time>2018-11-24T14:35:11Z</time>
      </trkpt>
      <trkpt lat="43.49383" lon="5.83173">
        <ele>380.82</ele>
        <time>2018-11-24T14:35:12Z</time>
      </trkpt>
      <trkpt lat="43.49384" lon="5.83162">
        <ele>380.34</ele>
        <time>2018-11-24T14:35:19Z</time>
      </trkpt>
      <trkpt lat="43.49383" lon="5.83157">
        <ele>379.86</ele>
        <time>2018-11-24T14:35:26Z</time>
      </trkpt>
      <trkpt lat="43.49383" lon="5.83154">
        <ele>379.86</ele>
        <time>2018-11-24T14:35:27Z</time>
      </trkpt>
      <trkpt lat="43.49383" lon="5.83152">
        <ele>379.86</ele>
        <time>2018-11-24T14:35:28Z</time>
      </trkpt>
      <trkpt lat="43.49383" lon="5.8315">
        <ele>379.86</ele>
        <time>2018-11-24T14:35:31Z</time>
      </trkpt>
      <trkpt lat="43.49382" lon="5.83148">
        <ele>379.86</ele>
        <time>2018-11-24T14:35:32Z</time>
      </trkpt>
      <trkpt lat="43.49382" lon="5.83144">
        <ele>379.38</ele>
        <time>2018-11-24T14:35:36Z</time>
      </trkpt>
      <trkpt lat="43.49382" lon="5.83142">
        <ele>379.38</ele>
        <time>2018-11-24T14:35:37Z</time>
      </trkpt>
      <trkpt lat="43.49382" lon="5.83139">
        <ele>378.9</ele>
        <time>2018-11-24T14:35:40Z</time>
      </trkpt>
      <trkpt lat="43.49382" lon="5.83138">
        <ele>378.9</ele>
        <time>2018-11-24T14:35:41Z</time>
      </trkpt>
      <trkpt lat="43.49382" lon="5.83135">
        <ele>378.9</ele>
        <time>2018-11-24T14:35:44Z</time>
      </trkpt>
      <trkpt lat="43.49382" lon="5.83132">
        <ele>378.9</ele>
        <time>2018-11-24T14:35:45Z</time>
      </trkpt>
      <trkpt lat="43.49382" lon="5.83124">
        <ele>378.9</ele>
        <time>2018-11-24T14:35:52Z</time>
      </trkpt>
      <trkpt lat="43.49383" lon="5.83121">
        <ele>378.42</ele>
        <time>2018-11-24T14:35:54Z</time>
      </trkpt>
      <trkpt lat="43.49383" lon="5.83119">
        <ele>378.42</ele>
        <time>2018-11-24T14:35:55Z</time>
      </trkpt>
      <trkpt lat="43.49382" lon="5.8311">
        <ele>377.94</ele>
        <time>2018-11-24T14:36:02Z</time>
      </trkpt>
      <trkpt lat="43.49383" lon="5.83108">
        <ele>377.94</ele>
        <time>2018-11-24T14:36:04Z</time>
      </trkpt>
      <trkpt lat="43.49383" lon="5.83106">
        <ele>377.94</ele>
        <time>2018-11-24T14:36:05Z</time>
      </trkpt>
      <trkpt lat="43.49383" lon="5.83103">
        <ele>377.94</ele>
        <time>2018-11-24T14:36:06Z</time>
      </trkpt>
      <trkpt lat="43.49383" lon="5.83101">
        <ele>377.45</ele>
        <time>2018-11-24T14:36:09Z</time>
      </trkpt>
      <trkpt lat="43.49383" lon="5.83099">
        <ele>377.45</ele>
        <time>2018-11-24T14:36:10Z</time>
      </trkpt>
      <trkpt lat="43.49383" lon="5.83097">
        <ele>377.45</ele>
        <time>2018-11-24T14:36:11Z</time>
      </trkpt>
      <trkpt lat="43.49382" lon="5.83092">
        <ele>376.97</ele>
        <time>2018-11-24T14:36:15Z</time>
      </trkpt>
      <trkpt lat="43.49383" lon="5.8309">
        <ele>376.97</ele>
        <time>2018-11-24T14:36:16Z</time>
      </trkpt>
      <trkpt lat="43.49384" lon="5.83086">
        <ele>376.97</ele>
        <time>2018-11-24T14:36:20Z</time>
      </trkpt>
      <trkpt lat="43.49384" lon="5.83084">
        <ele>376.97</ele>
        <time>2018-11-24T14:36:21Z</time>
      </trkpt>
      <trkpt lat="43.49384" lon="5.83075">
        <ele>376.01</ele>
        <time>2018-11-24T14:36:29Z</time>
      </trkpt>
      <trkpt lat="43.49385" lon="5.83074">
        <ele>376.01</ele>
        <time>2018-11-24T14:36:30Z</time>
      </trkpt>
      <trkpt lat="43.49385" lon="5.83072">
        <ele>376.01</ele>
        <time>2018-11-24T14:36:31Z</time>
      </trkpt>
      <trkpt lat="43.49385" lon="5.8307">
        <ele>376.01</ele>
        <time>2018-11-24T14:36:32Z</time>
      </trkpt>
      <trkpt lat="43.49385" lon="5.8306">
        <ele>376.01</ele>
        <time>2018-11-24T14:36:39Z</time>
      </trkpt>
      <trkpt lat="43.49387" lon="5.83038">
        <ele>375.53</ele>
        <time>2018-11-24T14:36:56Z</time>
      </trkpt>
      <trkpt lat="43.49387" lon="5.83027">
        <ele>374.57</ele>
        <time>2018-11-24T14:37:04Z</time>
      </trkpt>
      <trkpt lat="43.49387" lon="5.83025">
        <ele>374.57</ele>
        <time>2018-11-24T14:37:05Z</time>
      </trkpt>
      <trkpt lat="43.49386" lon="5.83007">
        <ele>374.09</ele>
        <time>2018-11-24T14:37:18Z</time>
      </trkpt>
      <trkpt lat="43.49384" lon="5.83001">
        <ele>373.13</ele>
        <time>2018-11-24T14:37:25Z</time>
      </trkpt>
      <trkpt lat="43.49383" lon="5.83">
        <ele>373.13</ele>
        <time>2018-11-24T14:37:26Z</time>
      </trkpt>
      <trkpt lat="43.49382" lon="5.82999">
        <ele>373.13</ele>
        <time>2018-11-24T14:37:27Z</time>
      </trkpt>
      <trkpt lat="43.49371" lon="5.8299">
        <ele>371.69</ele>
        <time>2018-11-24T14:37:39Z</time>
      </trkpt>
      <trkpt lat="43.4937" lon="5.82989">
        <ele>371.69</ele>
        <time>2018-11-24T14:37:41Z</time>
      </trkpt>
      <trkpt lat="43.49369" lon="5.82989">
        <ele>371.69</ele>
        <time>2018-11-24T14:37:42Z</time>
      </trkpt>
      <trkpt lat="43.49367" lon="5.82984">
        <ele>370.73</ele>
        <time>2018-11-24T14:37:47Z</time>
      </trkpt>
      <trkpt lat="43.49366" lon="5.82983">
        <ele>370.73</ele>
        <time>2018-11-24T14:37:48Z</time>
      </trkpt>
      <trkpt lat="43.49363" lon="5.82981">
        <ele>370.73</ele>
        <time>2018-11-24T14:37:52Z</time>
      </trkpt>
      <trkpt lat="43.49358" lon="5.82978">
        <ele>370.24</ele>
        <time>2018-11-24T14:37:58Z</time>
      </trkpt>
      <trkpt lat="43.49356" lon="5.82977">
        <ele>369.76</ele>
        <time>2018-11-24T14:38:01Z</time>
      </trkpt>
      <trkpt lat="43.49355" lon="5.82977">
        <ele>369.76</ele>
        <time>2018-11-24T14:38:02Z</time>
      </trkpt>
      <trkpt lat="43.49352" lon="5.82976">
        <ele>369.28</ele>
        <time>2018-11-24T14:38:06Z</time>
      </trkpt>
      <trkpt lat="43.4935" lon="5.82975">
        <ele>369.28</ele>
        <time>2018-11-24T14:38:07Z</time>
      </trkpt>
      <trkpt lat="43.49343" lon="5.82972">
        <ele>368.32</ele>
        <time>2018-11-24T14:38:15Z</time>
      </trkpt>
      <trkpt lat="43.49342" lon="5.82971">
        <ele>368.32</ele>
        <time>2018-11-24T14:38:16Z</time>
      </trkpt>
      <trkpt lat="43.49339" lon="5.8297">
        <ele>368.32</ele>
        <time>2018-11-24T14:38:20Z</time>
      </trkpt>
      <trkpt lat="43.49338" lon="5.82969">
        <ele>368.32</ele>
        <time>2018-11-24T14:38:21Z</time>
      </trkpt>
      <trkpt lat="43.49336" lon="5.82966">
        <ele>368.32</ele>
        <time>2018-11-24T14:38:25Z</time>
      </trkpt>
      <trkpt lat="43.49333" lon="5.82965">
        <ele>367.36</ele>
        <time>2018-11-24T14:38:29Z</time>
      </trkpt>
      <trkpt lat="43.49331" lon="5.82963">
        <ele>367.36</ele>
        <time>2018-11-24T14:38:32Z</time>
      </trkpt>
      <trkpt lat="43.4933" lon="5.82962">
        <ele>367.36</ele>
        <time>2018-11-24T14:38:33Z</time>
      </trkpt>
      <trkpt lat="43.49327" lon="5.82959">
        <ele>366.88</ele>
        <time>2018-11-24T14:38:38Z</time>
      </trkpt>
      <trkpt lat="43.49326" lon="5.82959">
        <ele>366.88</ele>
        <time>2018-11-24T14:38:39Z</time>
      </trkpt>
      <trkpt lat="43.49321" lon="5.82956">
        <ele>365.92</ele>
        <time>2018-11-24T14:38:47Z</time>
      </trkpt>
      <trkpt lat="43.49314" lon="5.82951">
        <ele>365.44</ele>
        <time>2018-11-24T14:38:57Z</time>
      </trkpt>
      <trkpt lat="43.49311" lon="5.82949">
        <ele>365.44</ele>
        <time>2018-11-24T14:39:00Z</time>
      </trkpt>
      <trkpt lat="43.49309" lon="5.82948">
        <ele>365.44</ele>
        <time>2018-11-24T14:39:01Z</time>
      </trkpt>
      <trkpt lat="43.49308" lon="5.82948">
        <ele>364.96</ele>
        <time>2018-11-24T14:39:02Z</time>
      </trkpt>
      <trkpt lat="43.49303" lon="5.82945">
        <ele>364.48</ele>
        <time>2018-11-24T14:39:09Z</time>
      </trkpt>
      <trkpt lat="43.49301" lon="5.82944">
        <ele>364.48</ele>
        <time>2018-11-24T14:39:11Z</time>
      </trkpt>
      <trkpt lat="43.493" lon="5.82942">
        <ele>364</ele>
        <time>2018-11-24T14:39:14Z</time>
      </trkpt>
      <trkpt lat="43.49299" lon="5.82941">
        <ele>364</ele>
        <time>2018-11-24T14:39:15Z</time>
      </trkpt>
      <trkpt lat="43.49297" lon="5.8294">
        <ele>364</ele>
        <time>2018-11-24T14:39:18Z</time>
      </trkpt>
      <trkpt lat="43.49293" lon="5.82933">
        <ele>363.04</ele>
        <time>2018-11-24T14:39:24Z</time>
      </trkpt>
      <trkpt lat="43.4929" lon="5.82926">
        <ele>362.07</ele>
        <time>2018-11-24T14:39:32Z</time>
      </trkpt>
      <trkpt lat="43.4929" lon="5.82924">
        <ele>361.59</ele>
        <time>2018-11-24T14:39:33Z</time>
      </trkpt>
      <trkpt lat="43.49289" lon="5.82921">
        <ele>361.59</ele>
        <time>2018-11-24T14:39:36Z</time>
      </trkpt>
      <trkpt lat="43.49288" lon="5.82916">
        <ele>361.59</ele>
        <time>2018-11-24T14:39:40Z</time>
      </trkpt>
      <trkpt lat="43.49288" lon="5.82905">
        <ele>359.67</ele>
        <time>2018-11-24T14:39:53Z</time>
      </trkpt>
      <trkpt lat="43.49289" lon="5.82903">
        <ele>359.67</ele>
        <time>2018-11-24T14:39:54Z</time>
      </trkpt>
      <trkpt lat="43.49289" lon="5.82902">
        <ele>359.67</ele>
        <time>2018-11-24T14:39:55Z</time>
      </trkpt>
      <trkpt lat="43.49289" lon="5.829">
        <ele>359.67</ele>
        <time>2018-11-24T14:39:58Z</time>
      </trkpt>
      <trkpt lat="43.49289" lon="5.82898">
        <ele>358.71</ele>
        <time>2018-11-24T14:39:59Z</time>
      </trkpt>
      <trkpt lat="43.49289" lon="5.82896">
        <ele>358.71</ele>
        <time>2018-11-24T14:40:00Z</time>
      </trkpt>
      <trkpt lat="43.49289" lon="5.82892">
        <ele>358.23</ele>
        <time>2018-11-24T14:40:04Z</time>
      </trkpt>
      <trkpt lat="43.49289" lon="5.8289">
        <ele>358.23</ele>
        <time>2018-11-24T14:40:05Z</time>
      </trkpt>
      <trkpt lat="43.49289" lon="5.82888">
        <ele>358.23</ele>
        <time>2018-11-24T14:40:06Z</time>
      </trkpt>
      <trkpt lat="43.49288" lon="5.82885">
        <ele>357.75</ele>
        <time>2018-11-24T14:40:10Z</time>
      </trkpt>
      <trkpt lat="43.49288" lon="5.82883">
        <ele>357.27</ele>
        <time>2018-11-24T14:40:11Z</time>
      </trkpt>
      <trkpt lat="43.49288" lon="5.82881">
        <ele>357.27</ele>
        <time>2018-11-24T14:40:12Z</time>
      </trkpt>
      <trkpt lat="43.49287" lon="5.82876">
        <ele>357.27</ele>
        <time>2018-11-24T14:40:17Z</time>
      </trkpt>
      <trkpt lat="43.49287" lon="5.82874">
        <ele>356.79</ele>
        <time>2018-11-24T14:40:18Z</time>
      </trkpt>
      <trkpt lat="43.49287" lon="5.82868">
        <ele>356.31</ele>
        <time>2018-11-24T14:40:23Z</time>
      </trkpt>
      <trkpt lat="43.49286" lon="5.82866">
        <ele>356.31</ele>
        <time>2018-11-24T14:40:24Z</time>
      </trkpt>
      <trkpt lat="43.49286" lon="5.82864">
        <ele>355.83</ele>
        <time>2018-11-24T14:40:25Z</time>
      </trkpt>
      <trkpt lat="43.49287" lon="5.82862">
        <ele>355.83</ele>
        <time>2018-11-24T14:40:26Z</time>
      </trkpt>
      <trkpt lat="43.49287" lon="5.82861">
        <ele>355.83</ele>
        <time>2018-11-24T14:40:27Z</time>
      </trkpt>
      <trkpt lat="43.49287" lon="5.82859">
        <ele>355.34</ele>
        <time>2018-11-24T14:40:30Z</time>
      </trkpt>
      <trkpt lat="43.49287" lon="5.82857">
        <ele>354.86</ele>
        <time>2018-11-24T14:40:31Z</time>
      </trkpt>
      <trkpt lat="43.49286" lon="5.82851">
        <ele>354.38</ele>
        <time>2018-11-24T14:40:36Z</time>
      </trkpt>
      <trkpt lat="43.49286" lon="5.8285">
        <ele>353.9</ele>
        <time>2018-11-24T14:40:37Z</time>
      </trkpt>
      <trkpt lat="43.49286" lon="5.82843">
        <ele>353.42</ele>
        <time>2018-11-24T14:40:42Z</time>
      </trkpt>
      <trkpt lat="43.49286" lon="5.82842">
        <ele>353.42</ele>
        <time>2018-11-24T14:40:43Z</time>
      </trkpt>
      <trkpt lat="43.49286" lon="5.82839">
        <ele>353.42</ele>
        <time>2018-11-24T14:40:46Z</time>
      </trkpt>
      <trkpt lat="43.49286" lon="5.82837">
        <ele>352.94</ele>
        <time>2018-11-24T14:40:47Z</time>
      </trkpt>
      <trkpt lat="43.49286" lon="5.82835">
        <ele>352.94</ele>
        <time>2018-11-24T14:40:48Z</time>
      </trkpt>
      <trkpt lat="43.49288" lon="5.82829">
        <ele>351.98</ele>
        <time>2018-11-24T14:40:56Z</time>
      </trkpt>
      <trkpt lat="43.49289" lon="5.82827">
        <ele>351.98</ele>
        <time>2018-11-24T14:40:57Z</time>
      </trkpt>
      <trkpt lat="43.49289" lon="5.82825">
        <ele>351.5</ele>
        <time>2018-11-24T14:40:58Z</time>
      </trkpt>
      <trkpt lat="43.49292" lon="5.8282">
        <ele>351.5</ele>
        <time>2018-11-24T14:41:03Z</time>
      </trkpt>
      <trkpt lat="43.49293" lon="5.82818">
        <ele>351.02</ele>
        <time>2018-11-24T14:41:04Z</time>
      </trkpt>
      <trkpt lat="43.49294" lon="5.82817">
        <ele>351.02</ele>
        <time>2018-11-24T14:41:05Z</time>
      </trkpt>
      <trkpt lat="43.49299" lon="5.82807">
        <ele>349.58</ele>
        <time>2018-11-24T14:41:15Z</time>
      </trkpt>
      <trkpt lat="43.493" lon="5.82805">
        <ele>349.58</ele>
        <time>2018-11-24T14:41:16Z</time>
      </trkpt>
      <trkpt lat="43.49301" lon="5.82803">
        <ele>349.1</ele>
        <time>2018-11-24T14:41:19Z</time>
      </trkpt>
      <trkpt lat="43.49302" lon="5.82801">
        <ele>349.1</ele>
        <time>2018-11-24T14:41:20Z</time>
      </trkpt>
      <trkpt lat="43.49304" lon="5.82797">
        <ele>348.62</ele>
        <time>2018-11-24T14:41:24Z</time>
      </trkpt>
      <trkpt lat="43.49304" lon="5.82795">
        <ele>348.62</ele>
        <time>2018-11-24T14:41:25Z</time>
      </trkpt>
      <trkpt lat="43.49305" lon="5.8279">
        <ele>348.13</ele>
        <time>2018-11-24T14:41:29Z</time>
      </trkpt>
      <trkpt lat="43.49306" lon="5.82788">
        <ele>348.13</ele>
        <time>2018-11-24T14:41:30Z</time>
      </trkpt>
      <trkpt lat="43.49308" lon="5.82782">
        <ele>347.17</ele>
        <time>2018-11-24T14:41:36Z</time>
      </trkpt>
      <trkpt lat="43.49309" lon="5.8278">
        <ele>347.17</ele>
        <time>2018-11-24T14:41:37Z</time>
      </trkpt>
      <trkpt lat="43.49311" lon="5.82777">
        <ele>346.69</ele>
        <time>2018-11-24T14:41:41Z</time>
      </trkpt>
      <trkpt lat="43.49312" lon="5.82776">
        <ele>346.69</ele>
        <time>2018-11-24T14:41:42Z</time>
      </trkpt>
      <trkpt lat="43.49313" lon="5.82774">
        <ele>346.69</ele>
        <time>2018-11-24T14:41:43Z</time>
      </trkpt>
      <trkpt lat="43.49319" lon="5.82755">
        <ele>345.25</ele>
        <time>2018-11-24T14:41:58Z</time>
      </trkpt>
      <trkpt lat="43.49315" lon="5.82746">
        <ele>344.77</ele>
        <time>2018-11-24T14:42:15Z</time>
      </trkpt>
      <trkpt lat="43.49314" lon="5.82745">
        <ele>344.77</ele>
        <time>2018-11-24T14:42:26Z</time>
      </trkpt>
      <trkpt lat="43.49315" lon="5.82746">
        <ele>344.77</ele>
        <time>2018-11-24T14:42:40Z</time>
      </trkpt>
      <trkpt lat="43.49316" lon="5.82745">
        <ele>344.77</ele>
        <time>2018-11-24T14:42:49Z</time>
      </trkpt>
      <trkpt lat="43.49317" lon="5.82745">
        <ele>344.77</ele>
        <time>2018-11-24T14:42:59Z</time>
      </trkpt>
      <trkpt lat="43.49318" lon="5.82744">
        <ele>344.77</ele>
        <time>2018-11-24T14:43:12Z</time>
      </trkpt>
      <trkpt lat="43.49317" lon="5.82742">
        <ele>344.29</ele>
        <time>2018-11-24T14:43:50Z</time>
      </trkpt>
      <trkpt lat="43.49316" lon="5.82745">
        <ele>344.29</ele>
        <time>2018-11-24T14:44:05Z</time>
      </trkpt>
      <trkpt lat="43.49317" lon="5.82743">
        <ele>344.29</ele>
        <time>2018-11-24T14:44:20Z</time>
      </trkpt>
      <trkpt lat="43.49325" lon="5.8274">
        <ele>344.29</ele>
        <time>2018-11-24T14:44:39Z</time>
      </trkpt>
      <trkpt lat="43.49331" lon="5.82739">
        <ele>345.25</ele>
        <time>2018-11-24T14:44:47Z</time>
      </trkpt>
      <trkpt lat="43.4934" lon="5.82739">
        <ele>345.25</ele>
        <time>2018-11-24T14:45:02Z</time>
      </trkpt>
      <trkpt lat="43.49351" lon="5.82739">
        <ele>345.73</ele>
        <time>2018-11-24T14:45:17Z</time>
      </trkpt>
      <trkpt lat="43.49358" lon="5.82738">
        <ele>346.69</ele>
        <time>2018-11-24T14:45:32Z</time>
      </trkpt>
      <trkpt lat="43.49361" lon="5.8274">
        <ele>346.69</ele>
        <time>2018-11-24T14:45:42Z</time>
      </trkpt>
      <trkpt lat="43.49362" lon="5.82742">
        <ele>346.69</ele>
        <time>2018-11-24T14:45:43Z</time>
      </trkpt>
      <trkpt lat="43.49361" lon="5.82746">
        <ele>346.69</ele>
        <time>2018-11-24T14:45:46Z</time>
      </trkpt>
      <trkpt lat="43.49362" lon="5.82748">
        <ele>346.69</ele>
        <time>2018-11-24T14:45:47Z</time>
      </trkpt>
      <trkpt lat="43.49363" lon="5.8275">
        <ele>346.69</ele>
        <time>2018-11-24T14:45:48Z</time>
      </trkpt>
      <trkpt lat="43.49371" lon="5.82753">
        <ele>347.17</ele>
        <time>2018-11-24T14:46:05Z</time>
      </trkpt>
      <trkpt lat="43.49381" lon="5.82761">
        <ele>348.62</ele>
        <time>2018-11-24T14:46:21Z</time>
      </trkpt>
      <trkpt lat="43.49382" lon="5.82763">
        <ele>349.1</ele>
        <time>2018-11-24T14:46:23Z</time>
      </trkpt>
      <trkpt lat="43.49387" lon="5.8277">
        <ele>349.58</ele>
        <time>2018-11-24T14:46:32Z</time>
      </trkpt>
      <trkpt lat="43.49391" lon="5.82775">
        <ele>350.54</ele>
        <time>2018-11-24T14:46:40Z</time>
      </trkpt>
      <trkpt lat="43.49394" lon="5.82778">
        <ele>351.02</ele>
        <time>2018-11-24T14:46:44Z</time>
      </trkpt>
      <trkpt lat="43.49403" lon="5.82787">
        <ele>351.98</ele>
        <time>2018-11-24T14:46:58Z</time>
      </trkpt>
      <trkpt lat="43.49411" lon="5.82795">
        <ele>353.42</ele>
        <time>2018-11-24T14:47:12Z</time>
      </trkpt>
      <trkpt lat="43.49418" lon="5.82803">
        <ele>354.86</ele>
        <time>2018-11-24T14:47:25Z</time>
      </trkpt>
      <trkpt lat="43.49425" lon="5.82814">
        <ele>356.31</ele>
        <time>2018-11-24T14:47:40Z</time>
      </trkpt>
      <trkpt lat="43.4943" lon="5.8282">
        <ele>357.75</ele>
        <time>2018-11-24T14:47:50Z</time>
      </trkpt>
      <trkpt lat="43.49439" lon="5.82833">
        <ele>359.19</ele>
        <time>2018-11-24T14:48:06Z</time>
      </trkpt>
      <trkpt lat="43.4945" lon="5.82849">
        <ele>362.07</ele>
        <time>2018-11-24T14:48:26Z</time>
      </trkpt>
      <trkpt lat="43.49458" lon="5.82859">
        <ele>363.52</ele>
        <time>2018-11-24T14:48:40Z</time>
      </trkpt>
      <trkpt lat="43.49466" lon="5.82872">
        <ele>365.44</ele>
        <time>2018-11-24T14:48:56Z</time>
      </trkpt>
      <trkpt lat="43.49475" lon="5.82879">
        <ele>366.4</ele>
        <time>2018-11-24T14:49:09Z</time>
      </trkpt>
      <trkpt lat="43.49478" lon="5.8288">
        <ele>366.88</ele>
        <time>2018-11-24T14:49:13Z</time>
      </trkpt>
      <trkpt lat="43.49481" lon="5.82882">
        <ele>367.36</ele>
        <time>2018-11-24T14:49:17Z</time>
      </trkpt>
      <trkpt lat="43.49483" lon="5.82882">
        <ele>368.32</ele>
        <time>2018-11-24T14:49:20Z</time>
      </trkpt>
      <trkpt lat="43.49487" lon="5.82883">
        <ele>368.32</ele>
        <time>2018-11-24T14:49:23Z</time>
      </trkpt>
      <trkpt lat="43.49491" lon="5.82884">
        <ele>368.8</ele>
        <time>2018-11-24T14:49:28Z</time>
      </trkpt>
      <trkpt lat="43.49493" lon="5.82884">
        <ele>368.8</ele>
        <time>2018-11-24T14:49:29Z</time>
      </trkpt>
      <trkpt lat="43.49503" lon="5.82886">
        <ele>369.28</ele>
        <time>2018-11-24T14:49:41Z</time>
      </trkpt>
      <trkpt lat="43.49505" lon="5.82887">
        <ele>369.76</ele>
        <time>2018-11-24T14:49:44Z</time>
      </trkpt>
      <trkpt lat="43.49508" lon="5.82889">
        <ele>370.24</ele>
        <time>2018-11-24T14:49:47Z</time>
      </trkpt>
      <trkpt lat="43.49509" lon="5.82891">
        <ele>370.24</ele>
        <time>2018-11-24T14:49:50Z</time>
      </trkpt>
      <trkpt lat="43.49515" lon="5.82898">
        <ele>371.21</ele>
        <time>2018-11-24T14:49:59Z</time>
      </trkpt>
      <trkpt lat="43.49517" lon="5.82901">
        <ele>371.69</ele>
        <time>2018-11-24T14:50:02Z</time>
      </trkpt>
      <trkpt lat="43.49524" lon="5.82905">
        <ele>372.17</ele>
        <time>2018-11-24T14:50:15Z</time>
      </trkpt>
      <trkpt lat="43.49528" lon="5.82905">
        <ele>373.13</ele>
        <time>2018-11-24T14:50:20Z</time>
      </trkpt>
      <trkpt lat="43.49537" lon="5.82905">
        <ele>373.13</ele>
        <time>2018-11-24T14:50:34Z</time>
      </trkpt>
      <trkpt lat="43.4954" lon="5.82905">
        <ele>373.13</ele>
        <time>2018-11-24T14:50:37Z</time>
      </trkpt>
      <trkpt lat="43.49545" lon="5.82905">
        <ele>373.13</ele>
        <time>2018-11-24T14:50:41Z</time>
      </trkpt>
      <trkpt lat="43.4956" lon="5.82897">
        <ele>374.09</ele>
        <time>2018-11-24T14:51:02Z</time>
      </trkpt>
      <trkpt lat="43.49561" lon="5.82897">
        <ele>375.53</ele>
        <time>2018-11-24T14:51:06Z</time>
      </trkpt>
      <trkpt lat="43.49575" lon="5.829">
        <ele>376.49</ele>
        <time>2018-11-24T14:51:28Z</time>
      </trkpt>
      <trkpt lat="43.49586" lon="5.82897">
        <ele>376.97</ele>
        <time>2018-11-24T14:51:37Z</time>
      </trkpt>
      <trkpt lat="43.49597" lon="5.82896">
        <ele>377.94</ele>
        <time>2018-11-24T14:51:47Z</time>
      </trkpt>
      <trkpt lat="43.4961" lon="5.82892">
        <ele>378.42</ele>
        <time>2018-11-24T14:52:02Z</time>
      </trkpt>
      <trkpt lat="43.49624" lon="5.82891">
        <ele>378.9</ele>
        <time>2018-11-24T14:52:13Z</time>
      </trkpt>
      <trkpt lat="43.49631" lon="5.82891">
        <ele>379.38</ele>
        <time>2018-11-24T14:52:28Z</time>
      </trkpt>
      <trkpt lat="43.4964" lon="5.82892">
        <ele>379.86</ele>
        <time>2018-11-24T14:52:40Z</time>
      </trkpt>
      <trkpt lat="43.49641" lon="5.82892">
        <ele>379.86</ele>
        <time>2018-11-24T14:52:41Z</time>
      </trkpt>
      <trkpt lat="43.49649" lon="5.82894">
        <ele>380.34</ele>
        <time>2018-11-24T14:52:54Z</time>
      </trkpt>
      <trkpt lat="43.49664" lon="5.82897">
        <ele>380.34</ele>
        <time>2018-11-24T14:53:10Z</time>
      </trkpt>
      <trkpt lat="43.49677" lon="5.82898">
        <ele>379.86</ele>
        <time>2018-11-24T14:53:26Z</time>
      </trkpt>
      <trkpt lat="43.49693" lon="5.82899">
        <ele>380.34</ele>
        <time>2018-11-24T14:53:42Z</time>
      </trkpt>
      <trkpt lat="43.49704" lon="5.82902">
        <ele>380.82</ele>
        <time>2018-11-24T14:53:55Z</time>
      </trkpt>
      <trkpt lat="43.49705" lon="5.82903">
        <ele>380.82</ele>
        <time>2018-11-24T14:53:56Z</time>
      </trkpt>
      <trkpt lat="43.49715" lon="5.82913">
        <ele>381.78</ele>
        <time>2018-11-24T14:54:10Z</time>
      </trkpt>
      <trkpt lat="43.49716" lon="5.82913">
        <ele>381.78</ele>
        <time>2018-11-24T14:54:11Z</time>
      </trkpt>
      <trkpt lat="43.49724" lon="5.82921">
        <ele>382.26</ele>
        <time>2018-11-24T14:54:25Z</time>
      </trkpt>
      <trkpt lat="43.49742" lon="5.82925">
        <ele>382.74</ele>
        <time>2018-11-24T14:54:44Z</time>
      </trkpt>
      <trkpt lat="43.49753" lon="5.82925">
        <ele>383.22</ele>
        <time>2018-11-24T14:54:55Z</time>
      </trkpt>
      <trkpt lat="43.49758" lon="5.82922">
        <ele>383.22</ele>
        <time>2018-11-24T14:55:04Z</time>
      </trkpt>
      <trkpt lat="43.49777" lon="5.82913">
        <ele>383.7</ele>
        <time>2018-11-24T14:55:28Z</time>
      </trkpt>
      <trkpt lat="43.49791" lon="5.82917">
        <ele>384.18</ele>
        <time>2018-11-24T14:55:50Z</time>
      </trkpt>
      <trkpt lat="43.49806" lon="5.82913">
        <ele>385.15</ele>
        <time>2018-11-24T14:56:02Z</time>
      </trkpt>
      <trkpt lat="43.49818" lon="5.82911">
        <ele>384.18</ele>
        <time>2018-11-24T14:56:10Z</time>
      </trkpt>
      <trkpt lat="43.49821" lon="5.82909">
        <ele>385.15</ele>
        <time>2018-11-24T14:56:13Z</time>
      </trkpt>
      <trkpt lat="43.49839" lon="5.82902">
        <ele>383.7</ele>
        <time>2018-11-24T14:56:32Z</time>
      </trkpt>
      <trkpt lat="43.49849" lon="5.82904">
        <ele>383.7</ele>
        <time>2018-11-24T14:56:40Z</time>
      </trkpt>
      <trkpt lat="43.49851" lon="5.82903">
        <ele>383.7</ele>
        <time>2018-11-24T14:56:41Z</time>
      </trkpt>
      <trkpt lat="43.49861" lon="5.82899">
        <ele>383.22</ele>
        <time>2018-11-24T14:56:53Z</time>
      </trkpt>
      <trkpt lat="43.49864" lon="5.82899">
        <ele>383.22</ele>
        <time>2018-11-24T14:56:56Z</time>
      </trkpt>
      <trkpt lat="43.49865" lon="5.82899">
        <ele>382.74</ele>
        <time>2018-11-24T14:56:57Z</time>
      </trkpt>
      <trkpt lat="43.49874" lon="5.82893">
        <ele>383.22</ele>
        <time>2018-11-24T14:57:07Z</time>
      </trkpt>
      <trkpt lat="43.49883" lon="5.82888">
        <ele>383.22</ele>
        <time>2018-11-24T14:57:18Z</time>
      </trkpt>
      <trkpt lat="43.49885" lon="5.82888">
        <ele>383.22</ele>
        <time>2018-11-24T14:57:19Z</time>
      </trkpt>
      <trkpt lat="43.49895" lon="5.82883">
        <ele>383.22</ele>
        <time>2018-11-24T14:57:30Z</time>
      </trkpt>
      <trkpt lat="43.49905" lon="5.8288">
        <ele>382.74</ele>
        <time>2018-11-24T14:57:39Z</time>
      </trkpt>
      <trkpt lat="43.4991" lon="5.82877">
        <ele>382.74</ele>
        <time>2018-11-24T14:57:52Z</time>
      </trkpt>
      <trkpt lat="43.49908" lon="5.82878">
        <ele>382.74</ele>
        <time>2018-11-24T14:58:05Z</time>
      </trkpt>
      <trkpt lat="43.49904" lon="5.8288">
        <ele>382.74</ele>
        <time>2018-11-24T14:58:11Z</time>
      </trkpt>
      <trkpt lat="43.49903" lon="5.8288">
        <ele>382.74</ele>
        <time>2018-11-24T14:58:12Z</time>
      </trkpt>
      <trkpt lat="43.49898" lon="5.82881">
        <ele>382.74</ele>
        <time>2018-11-24T14:58:25Z</time>
      </trkpt>
      <trkpt lat="43.49898" lon="5.8288">
        <ele>382.74</ele>
        <time>2018-11-24T14:58:40Z</time>
      </trkpt>
      <trkpt lat="43.49899" lon="5.82879">
        <ele>382.74</ele>
        <time>2018-11-24T14:58:57Z</time>
      </trkpt>
      <trkpt lat="43.49899" lon="5.82881">
        <ele>382.74</ele>
        <time>2018-11-24T14:59:10Z</time>
      </trkpt>
      <trkpt lat="43.49902" lon="5.82878">
        <ele>382.74</ele>
        <time>2018-11-24T14:59:15Z</time>
      </trkpt>
      <trkpt lat="43.49906" lon="5.82878">
        <ele>382.74</ele>
        <time>2018-11-24T14:59:29Z</time>
      </trkpt>
      <trkpt lat="43.49909" lon="5.82877">
        <ele>382.74</ele>
        <time>2018-11-24T14:59:32Z</time>
      </trkpt>
      <trkpt lat="43.49912" lon="5.82877">
        <ele>382.74</ele>
        <time>2018-11-24T14:59:35Z</time>
      </trkpt>
      <trkpt lat="43.49918" lon="5.82875">
        <ele>383.7</ele>
        <time>2018-11-24T14:59:44Z</time>
      </trkpt>
      <trkpt lat="43.49919" lon="5.82874">
        <ele>383.7</ele>
        <time>2018-11-24T14:59:45Z</time>
      </trkpt>
      <trkpt lat="43.49921" lon="5.82873">
        <ele>384.18</ele>
        <time>2018-11-24T14:59:49Z</time>
      </trkpt>
      <trkpt lat="43.49922" lon="5.82872">
        <ele>384.18</ele>
        <time>2018-11-24T14:59:50Z</time>
      </trkpt>
      <trkpt lat="43.49926" lon="5.8287">
        <ele>385.15</ele>
        <time>2018-11-24T14:59:54Z</time>
      </trkpt>
      <trkpt lat="43.49927" lon="5.82868">
        <ele>385.15</ele>
        <time>2018-11-24T14:59:55Z</time>
      </trkpt>
      <trkpt lat="43.49929" lon="5.82868">
        <ele>385.15</ele>
        <time>2018-11-24T14:59:56Z</time>
      </trkpt>
      <trkpt lat="43.49931" lon="5.82868">
        <ele>385.63</ele>
        <time>2018-11-24T14:59:57Z</time>
      </trkpt>
      <trkpt lat="43.49937" lon="5.82866">
        <ele>385.63</ele>
        <time>2018-11-24T15:00:07Z</time>
      </trkpt>
      <trkpt lat="43.49939" lon="5.82866">
        <ele>385.63</ele>
        <time>2018-11-24T15:00:12Z</time>
      </trkpt>
      <trkpt lat="43.49942" lon="5.82864">
        <ele>385.63</ele>
        <time>2018-11-24T15:00:16Z</time>
      </trkpt>
      <trkpt lat="43.49945" lon="5.82863">
        <ele>385.63</ele>
        <time>2018-11-24T15:00:18Z</time>
      </trkpt>
      <trkpt lat="43.49946" lon="5.82862">
        <ele>385.63</ele>
        <time>2018-11-24T15:00:19Z</time>
      </trkpt>
      <trkpt lat="43.49949" lon="5.8286">
        <ele>386.59</ele>
        <time>2018-11-24T15:00:22Z</time>
      </trkpt>
      <trkpt lat="43.4995" lon="5.8286">
        <ele>386.59</ele>
        <time>2018-11-24T15:00:23Z</time>
      </trkpt>
      <trkpt lat="43.4996" lon="5.82855">
        <ele>386.59</ele>
        <time>2018-11-24T15:00:33Z</time>
      </trkpt>
      <trkpt lat="43.49963" lon="5.82853">
        <ele>386.59</ele>
        <time>2018-11-24T15:00:37Z</time>
      </trkpt>
      <trkpt lat="43.49967" lon="5.8285">
        <ele>386.59</ele>
        <time>2018-11-24T15:00:42Z</time>
      </trkpt>
      <trkpt lat="43.49981" lon="5.82843">
        <ele>387.07</ele>
        <time>2018-11-24T15:00:55Z</time>
      </trkpt>
      <trkpt lat="43.49996" lon="5.82835">
        <ele>386.11</ele>
        <time>2018-11-24T15:01:12Z</time>
      </trkpt>
      <trkpt lat="43.50003" lon="5.82833">
        <ele>386.11</ele>
        <time>2018-11-24T15:01:19Z</time>
      </trkpt>
      <trkpt lat="43.50006" lon="5.82831">
        <ele>385.63</ele>
        <time>2018-11-24T15:01:23Z</time>
      </trkpt>
      <trkpt lat="43.50007" lon="5.8283">
        <ele>385.63</ele>
        <time>2018-11-24T15:01:24Z</time>
      </trkpt>
      <trkpt lat="43.50017" lon="5.82826">
        <ele>385.15</ele>
        <time>2018-11-24T15:01:37Z</time>
      </trkpt>
      <trkpt lat="43.50018" lon="5.82825">
        <ele>385.15</ele>
        <time>2018-11-24T15:01:39Z</time>
      </trkpt>
      <trkpt lat="43.50021" lon="5.82822">
        <ele>385.15</ele>
        <time>2018-11-24T15:01:44Z</time>
      </trkpt>
      <trkpt lat="43.50022" lon="5.82821">
        <ele>385.15</ele>
        <time>2018-11-24T15:01:45Z</time>
      </trkpt>
      <trkpt lat="43.50024" lon="5.82818">
        <ele>385.15</ele>
        <time>2018-11-24T15:01:48Z</time>
      </trkpt>
      <trkpt lat="43.50025" lon="5.82816">
        <ele>385.15</ele>
        <time>2018-11-24T15:01:49Z</time>
      </trkpt>
      <trkpt lat="43.50029" lon="5.82811">
        <ele>385.63</ele>
        <time>2018-11-24T15:01:55Z</time>
      </trkpt>
      <trkpt lat="43.50037" lon="5.82798">
        <ele>385.63</ele>
        <time>2018-11-24T15:02:06Z</time>
      </trkpt>
      <trkpt lat="43.50039" lon="5.82796">
        <ele>385.63</ele>
        <time>2018-11-24T15:02:08Z</time>
      </trkpt>
      <trkpt lat="43.5004" lon="5.82795">
        <ele>385.63</ele>
        <time>2018-11-24T15:02:09Z</time>
      </trkpt>
      <trkpt lat="43.5005" lon="5.82789">
        <ele>386.59</ele>
        <time>2018-11-24T15:02:21Z</time>
      </trkpt>
      <trkpt lat="43.50058" lon="5.82784">
        <ele>387.55</ele>
        <time>2018-11-24T15:02:30Z</time>
      </trkpt>
      <trkpt lat="43.5006" lon="5.82783">
        <ele>387.55</ele>
        <time>2018-11-24T15:02:33Z</time>
      </trkpt>
      <trkpt lat="43.50062" lon="5.82783">
        <ele>387.55</ele>
        <time>2018-11-24T15:02:34Z</time>
      </trkpt>
      <trkpt lat="43.50064" lon="5.82783">
        <ele>388.03</ele>
        <time>2018-11-24T15:02:35Z</time>
      </trkpt>
      <trkpt lat="43.50073" lon="5.82781">
        <ele>388.03</ele>
        <time>2018-11-24T15:02:45Z</time>
      </trkpt>
      <trkpt lat="43.50076" lon="5.82781">
        <ele>388.03</ele>
        <time>2018-11-24T15:02:51Z</time>
      </trkpt>
      <trkpt lat="43.50081" lon="5.82782">
        <ele>388.51</ele>
        <time>2018-11-24T15:02:56Z</time>
      </trkpt>
      <trkpt lat="43.50084" lon="5.82782">
        <ele>388.51</ele>
        <time>2018-11-24T15:02:59Z</time>
      </trkpt>
      <trkpt lat="43.50091" lon="5.82783">
        <ele>388.51</ele>
        <time>2018-11-24T15:03:07Z</time>
      </trkpt>
      <trkpt lat="43.50092" lon="5.82783">
        <ele>388.51</ele>
        <time>2018-11-24T15:03:08Z</time>
      </trkpt>
      <trkpt lat="43.50095" lon="5.82783">
        <ele>388.51</ele>
        <time>2018-11-24T15:03:11Z</time>
      </trkpt>
      <trkpt lat="43.50097" lon="5.82783">
        <ele>388.51</ele>
        <time>2018-11-24T15:03:12Z</time>
      </trkpt>
      <trkpt lat="43.50106" lon="5.82783">
        <ele>388.51</ele>
        <time>2018-11-24T15:03:21Z</time>
      </trkpt>
      <trkpt lat="43.50112" lon="5.82781">
        <ele>388.51</ele>
        <time>2018-11-24T15:03:28Z</time>
      </trkpt>
      <trkpt lat="43.50114" lon="5.8278">
        <ele>388.51</ele>
        <time>2018-11-24T15:03:29Z</time>
      </trkpt>
      <trkpt lat="43.50117" lon="5.82777">
        <ele>388.51</ele>
        <time>2018-11-24T15:03:33Z</time>
      </trkpt>
      <trkpt lat="43.50119" lon="5.82775">
        <ele>388.51</ele>
        <time>2018-11-24T15:03:36Z</time>
      </trkpt>
      <trkpt lat="43.5012" lon="5.82774">
        <ele>388.51</ele>
        <time>2018-11-24T15:03:37Z</time>
      </trkpt>
      <trkpt lat="43.50124" lon="5.82772">
        <ele>388.99</ele>
        <time>2018-11-24T15:03:41Z</time>
      </trkpt>
      <trkpt lat="43.50128" lon="5.82768">
        <ele>388.99</ele>
        <time>2018-11-24T15:03:48Z</time>
      </trkpt>
      <trkpt lat="43.5013" lon="5.82768">
        <ele>388.99</ele>
        <time>2018-11-24T15:03:49Z</time>
      </trkpt>
      <trkpt lat="43.50138" lon="5.8276">
        <ele>388.99</ele>
        <time>2018-11-24T15:04:00Z</time>
      </trkpt>
      <trkpt lat="43.50143" lon="5.82758">
        <ele>388.99</ele>
        <time>2018-11-24T15:04:07Z</time>
      </trkpt>
      <trkpt lat="43.50146" lon="5.82758">
        <ele>388.99</ele>
        <time>2018-11-24T15:04:10Z</time>
      </trkpt>
      <trkpt lat="43.50148" lon="5.82758">
        <ele>388.99</ele>
        <time>2018-11-24T15:04:11Z</time>
      </trkpt>
      <trkpt lat="43.5015" lon="5.82757">
        <ele>388.99</ele>
        <time>2018-11-24T15:04:14Z</time>
      </trkpt>
      <trkpt lat="43.50151" lon="5.82758">
        <ele>388.99</ele>
        <time>2018-11-24T15:04:15Z</time>
      </trkpt>
      <trkpt lat="43.50159" lon="5.82757">
        <ele>388.99</ele>
        <time>2018-11-24T15:04:26Z</time>
      </trkpt>
      <trkpt lat="43.50166" lon="5.82759">
        <ele>388.99</ele>
        <time>2018-11-24T15:04:35Z</time>
      </trkpt>
      <trkpt lat="43.50167" lon="5.82759">
        <ele>388.99</ele>
        <time>2018-11-24T15:04:36Z</time>
      </trkpt>
      <trkpt lat="43.50173" lon="5.82761">
        <ele>388.03</ele>
        <time>2018-11-24T15:04:43Z</time>
      </trkpt>
      <trkpt lat="43.50175" lon="5.82761">
        <ele>388.03</ele>
        <time>2018-11-24T15:04:44Z</time>
      </trkpt>
      <trkpt lat="43.50183" lon="5.82761">
        <ele>387.55</ele>
        <time>2018-11-24T15:04:52Z</time>
      </trkpt>
      <trkpt lat="43.50184" lon="5.82762">
        <ele>387.55</ele>
        <time>2018-11-24T15:04:53Z</time>
      </trkpt>
      <trkpt lat="43.50193" lon="5.82765">
        <ele>387.07</ele>
        <time>2018-11-24T15:05:04Z</time>
      </trkpt>
      <trkpt lat="43.50205" lon="5.82766">
        <ele>387.07</ele>
        <time>2018-11-24T15:05:20Z</time>
      </trkpt>
      <trkpt lat="43.50213" lon="5.8277">
        <ele>386.59</ele>
        <time>2018-11-24T15:05:38Z</time>
      </trkpt>
      <trkpt lat="43.50212" lon="5.82768">
        <ele>386.59</ele>
        <time>2018-11-24T15:05:55Z</time>
      </trkpt>
      <trkpt lat="43.50215" lon="5.8277">
        <ele>386.11</ele>
        <time>2018-11-24T15:06:11Z</time>
      </trkpt>
      <trkpt lat="43.50222" lon="5.82775">
        <ele>385.63</ele>
        <time>2018-11-24T15:06:20Z</time>
      </trkpt>
      <trkpt lat="43.50229" lon="5.82777">
        <ele>385.63</ele>
        <time>2018-11-24T15:06:30Z</time>
      </trkpt>
      <trkpt lat="43.5023" lon="5.82779">
        <ele>385.63</ele>
        <time>2018-11-24T15:06:33Z</time>
      </trkpt>
      <trkpt lat="43.50231" lon="5.82781">
        <ele>385.63</ele>
        <time>2018-11-24T15:06:34Z</time>
      </trkpt>
      <trkpt lat="43.50233" lon="5.82783">
        <ele>385.63</ele>
        <time>2018-11-24T15:06:37Z</time>
      </trkpt>
      <trkpt lat="43.50235" lon="5.82783">
        <ele>385.63</ele>
        <time>2018-11-24T15:06:38Z</time>
      </trkpt>
      <trkpt lat="43.50237" lon="5.82783">
        <ele>385.63</ele>
        <time>2018-11-24T15:06:39Z</time>
      </trkpt>
      <trkpt lat="43.50243" lon="5.82785">
        <ele>385.15</ele>
        <time>2018-11-24T15:06:46Z</time>
      </trkpt>
      <trkpt lat="43.50245" lon="5.82787">
        <ele>385.15</ele>
        <time>2018-11-24T15:06:50Z</time>
      </trkpt>
      <trkpt lat="43.50246" lon="5.82787">
        <ele>385.15</ele>
        <time>2018-11-24T15:06:51Z</time>
      </trkpt>
      <trkpt lat="43.5025" lon="5.82787">
        <ele>385.15</ele>
        <time>2018-11-24T15:07:05Z</time>
      </trkpt>
      <trkpt lat="43.50252" lon="5.82789">
        <ele>385.15</ele>
        <time>2018-11-24T15:07:08Z</time>
      </trkpt>
      <trkpt lat="43.50253" lon="5.82791">
        <ele>384.18</ele>
        <time>2018-11-24T15:07:09Z</time>
      </trkpt>
      <trkpt lat="43.50256" lon="5.82793">
        <ele>384.18</ele>
        <time>2018-11-24T15:07:13Z</time>
      </trkpt>
      <trkpt lat="43.50261" lon="5.82797">
        <ele>383.7</ele>
        <time>2018-11-24T15:07:19Z</time>
      </trkpt>
      <trkpt lat="43.50269" lon="5.82803">
        <ele>383.22</ele>
        <time>2018-11-24T15:07:32Z</time>
      </trkpt>
      <trkpt lat="43.5027" lon="5.82804">
        <ele>383.22</ele>
        <time>2018-11-24T15:07:33Z</time>
      </trkpt>
      <trkpt lat="43.50274" lon="5.82807">
        <ele>383.22</ele>
        <time>2018-11-24T15:07:37Z</time>
      </trkpt>
      <trkpt lat="43.50282" lon="5.82814">
        <ele>382.74</ele>
        <time>2018-11-24T15:07:47Z</time>
      </trkpt>
      <trkpt lat="43.50285" lon="5.82818">
        <ele>382.74</ele>
        <time>2018-11-24T15:07:51Z</time>
      </trkpt>
      <trkpt lat="43.50288" lon="5.82818">
        <ele>382.74</ele>
        <time>2018-11-24T15:07:55Z</time>
      </trkpt>
      <trkpt lat="43.50295" lon="5.82818">
        <ele>382.74</ele>
        <time>2018-11-24T15:08:05Z</time>
      </trkpt>
      <trkpt lat="43.50298" lon="5.82821">
        <ele>382.26</ele>
        <time>2018-11-24T15:08:18Z</time>
      </trkpt>
      <trkpt lat="43.50298" lon="5.82823">
        <ele>382.26</ele>
        <time>2018-11-24T15:08:25Z</time>
      </trkpt>
      <trkpt lat="43.50303" lon="5.82829">
        <ele>382.26</ele>
        <time>2018-11-24T15:08:34Z</time>
      </trkpt>
      <trkpt lat="43.50301" lon="5.82829">
        <ele>382.26</ele>
        <time>2018-11-24T15:08:37Z</time>
      </trkpt>
      <trkpt lat="43.50299" lon="5.82829">
        <ele>382.26</ele>
        <time>2018-11-24T15:08:38Z</time>
      </trkpt>
      <trkpt lat="43.50297" lon="5.82826">
        <ele>382.26</ele>
        <time>2018-11-24T15:08:45Z</time>
      </trkpt>
      <trkpt lat="43.50295" lon="5.82826">
        <ele>382.26</ele>
        <time>2018-11-24T15:08:46Z</time>
      </trkpt>
      <trkpt lat="43.50295" lon="5.82826">
        <ele>382.26</ele>
        <time>2018-11-24T15:09:02Z</time>
      </trkpt>
      <trkpt lat="43.50293" lon="5.8282">
        <ele>382.26</ele>
        <time>2018-11-24T15:09:26Z</time>
      </trkpt>
      <trkpt lat="43.50294" lon="5.8282">
        <ele>376.97</ele>
        <time>2018-11-24T15:09:47Z</time>
      </trkpt>
      <trkpt lat="43.50293" lon="5.8282">
        <ele>382.26</ele>
        <time>2018-11-24T15:09:48Z</time>
      </trkpt>
      <trkpt lat="43.50289" lon="5.82821">
        <ele>382.74</ele>
        <time>2018-11-24T15:10:17Z</time>
      </trkpt>
      <trkpt lat="43.50293" lon="5.82823">
        <ele>382.74</ele>
        <time>2018-11-24T15:10:38Z</time>
      </trkpt>
      <trkpt lat="43.50315" lon="5.82836">
        <ele>383.7</ele>
        <time>2018-11-24T15:10:58Z</time>
      </trkpt>
      <trkpt lat="43.50317" lon="5.82838">
        <ele>384.18</ele>
        <time>2018-11-24T15:11:12Z</time>
      </trkpt>
      <trkpt lat="43.50316" lon="5.82835">
        <ele>384.18</ele>
        <time>2018-11-24T15:11:24Z</time>
      </trkpt>
      <trkpt lat="43.5031" lon="5.82825">
        <ele>383.22</ele>
        <time>2018-11-24T15:11:38Z</time>
      </trkpt>
      <trkpt lat="43.50308" lon="5.82824">
        <ele>383.22</ele>
        <time>2018-11-24T15:11:46Z</time>
      </trkpt>
      <trkpt lat="43.50305" lon="5.82827">
        <ele>383.22</ele>
        <time>2018-11-24T15:11:50Z</time>
      </trkpt>
      <trkpt lat="43.50304" lon="5.82826">
        <ele>383.22</ele>
        <time>2018-11-24T15:11:51Z</time>
      </trkpt>
      <trkpt lat="43.50303" lon="5.82826">
        <ele>383.22</ele>
        <time>2018-11-24T15:11:52Z</time>
      </trkpt>
      <trkpt lat="43.503" lon="5.82825">
        <ele>383.22</ele>
        <time>2018-11-24T15:11:55Z</time>
      </trkpt>
      <trkpt lat="43.50298" lon="5.82824">
        <ele>383.22</ele>
        <time>2018-11-24T15:11:56Z</time>
      </trkpt>
      <trkpt lat="43.50297" lon="5.82823">
        <ele>383.22</ele>
        <time>2018-11-24T15:11:57Z</time>
      </trkpt>
      <trkpt lat="43.50296" lon="5.82819">
        <ele>383.22</ele>
        <time>2018-11-24T15:12:01Z</time>
      </trkpt>
      <trkpt lat="43.50297" lon="5.82807">
        <ele>382.74</ele>
        <time>2018-11-24T15:12:12Z</time>
      </trkpt>
      <trkpt lat="43.50299" lon="5.82802">
        <ele>382.74</ele>
        <time>2018-11-24T15:12:15Z</time>
      </trkpt>
      <trkpt lat="43.50302" lon="5.82794">
        <ele>382.26</ele>
        <time>2018-11-24T15:12:26Z</time>
      </trkpt>
      <trkpt lat="43.50297" lon="5.82787">
        <ele>383.22</ele>
        <time>2018-11-24T15:12:39Z</time>
      </trkpt>
      <trkpt lat="43.50299" lon="5.82788">
        <ele>383.22</ele>
        <time>2018-11-24T15:12:41Z</time>
      </trkpt>
      <trkpt lat="43.50301" lon="5.8279">
        <ele>383.22</ele>
        <time>2018-11-24T15:12:44Z</time>
      </trkpt>
      <trkpt lat="43.50302" lon="5.82792">
        <ele>383.22</ele>
        <time>2018-11-24T15:12:45Z</time>
      </trkpt>
      <trkpt lat="43.50301" lon="5.82795">
        <ele>383.22</ele>
        <time>2018-11-24T15:12:53Z</time>
      </trkpt>
      <trkpt lat="43.50299" lon="5.82798">
        <ele>382.26</ele>
        <time>2018-11-24T15:13:00Z</time>
      </trkpt>
      <trkpt lat="43.50301" lon="5.82805">
        <ele>382.26</ele>
        <time>2018-11-24T15:13:25Z</time>
      </trkpt>
      <trkpt lat="43.50302" lon="5.82797">
        <ele>382.26</ele>
        <time>2018-11-24T15:13:52Z</time>
      </trkpt>
      <trkpt lat="43.503" lon="5.82792">
        <ele>383.7</ele>
        <time>2018-11-24T15:13:56Z</time>
      </trkpt>
      <trkpt lat="43.50297" lon="5.82789">
        <ele>382.74</ele>
        <time>2018-11-24T15:14:02Z</time>
      </trkpt>
      <trkpt lat="43.50291" lon="5.82784">
        <ele>381.78</ele>
        <time>2018-11-24T15:14:09Z</time>
      </trkpt>
      <trkpt lat="43.50288" lon="5.82782">
        <ele>381.78</ele>
        <time>2018-11-24T15:14:12Z</time>
      </trkpt>
      <trkpt lat="43.50282" lon="5.8277">
        <ele>383.22</ele>
        <time>2018-11-24T15:14:22Z</time>
      </trkpt>
      <trkpt lat="43.50279" lon="5.82766">
        <ele>382.74</ele>
        <time>2018-11-24T15:14:27Z</time>
      </trkpt>
      <trkpt lat="43.50269" lon="5.82748">
        <ele>383.22</ele>
        <time>2018-11-24T15:14:44Z</time>
      </trkpt>
      <trkpt lat="43.5026" lon="5.82741">
        <ele>383.22</ele>
        <time>2018-11-24T15:14:58Z</time>
      </trkpt>
      <trkpt lat="43.50246" lon="5.82734">
        <ele>383.22</ele>
        <time>2018-11-24T15:15:15Z</time>
      </trkpt>
      <trkpt lat="43.50231" lon="5.82727">
        <ele>383.22</ele>
        <time>2018-11-24T15:15:31Z</time>
      </trkpt>
      <trkpt lat="43.50208" lon="5.82722">
        <ele>383.22</ele>
        <time>2018-11-24T15:15:53Z</time>
      </trkpt>
      <trkpt lat="43.5019" lon="5.82714">
        <ele>383.7</ele>
        <time>2018-11-24T15:16:12Z</time>
      </trkpt>
      <trkpt lat="43.50183" lon="5.82712">
        <ele>384.18</ele>
        <time>2018-11-24T15:16:20Z</time>
      </trkpt>
      <trkpt lat="43.50172" lon="5.82709">
        <ele>382.74</ele>
        <time>2018-11-24T15:16:32Z</time>
      </trkpt>
      <trkpt lat="43.50152" lon="5.82708">
        <ele>382.26</ele>
        <time>2018-11-24T15:16:51Z</time>
      </trkpt>
      <trkpt lat="43.50146" lon="5.82709">
        <ele>382.26</ele>
        <time>2018-11-24T15:16:58Z</time>
      </trkpt>
      <trkpt lat="43.50137" lon="5.8271">
        <ele>381.78</ele>
        <time>2018-11-24T15:17:09Z</time>
      </trkpt>
      <trkpt lat="43.50118" lon="5.82701">
        <ele>381.78</ele>
        <time>2018-11-24T15:17:31Z</time>
      </trkpt>
      <trkpt lat="43.50113" lon="5.827">
        <ele>383.22</ele>
        <time>2018-11-24T15:17:37Z</time>
      </trkpt>
      <trkpt lat="43.50089" lon="5.82694">
        <ele>381.78</ele>
        <time>2018-11-24T15:17:58Z</time>
      </trkpt>
      <trkpt lat="43.50071" lon="5.82686">
        <ele>383.22</ele>
        <time>2018-11-24T15:18:15Z</time>
      </trkpt>
      <trkpt lat="43.50066" lon="5.82682">
        <ele>381.78</ele>
        <time>2018-11-24T15:18:24Z</time>
      </trkpt>
      <trkpt lat="43.50063" lon="5.82683">
        <ele>381.78</ele>
        <time>2018-11-24T15:18:27Z</time>
      </trkpt>
      <trkpt lat="43.50055" lon="5.82684">
        <ele>381.3</ele>
        <time>2018-11-24T15:18:33Z</time>
      </trkpt>
      <trkpt lat="43.50042" lon="5.82695">
        <ele>381.3</ele>
        <time>2018-11-24T15:18:51Z</time>
      </trkpt>
      <trkpt lat="43.50038" lon="5.82696">
        <ele>379.86</ele>
        <time>2018-11-24T15:18:56Z</time>
      </trkpt>
      <trkpt lat="43.5002" lon="5.82694">
        <ele>379.86</ele>
        <time>2018-11-24T15:19:14Z</time>
      </trkpt>
      <trkpt lat="43.5001" lon="5.82695">
        <ele>379.38</ele>
        <time>2018-11-24T15:19:27Z</time>
      </trkpt>
      <trkpt lat="43.50006" lon="5.82697">
        <ele>379.86</ele>
        <time>2018-11-24T15:19:31Z</time>
      </trkpt>
      <trkpt lat="43.49996" lon="5.82704">
        <ele>379.38</ele>
        <time>2018-11-24T15:19:44Z</time>
      </trkpt>
      <trkpt lat="43.49985" lon="5.82706">
        <ele>378.9</ele>
        <time>2018-11-24T15:19:59Z</time>
      </trkpt>
      <trkpt lat="43.49976" lon="5.82713">
        <ele>378.42</ele>
        <time>2018-11-24T15:20:15Z</time>
      </trkpt>
      <trkpt lat="43.49975" lon="5.82715">
        <ele>378.42</ele>
        <time>2018-11-24T15:20:39Z</time>
      </trkpt>
      <trkpt lat="43.49976" lon="5.82718">
        <ele>378.42</ele>
        <time>2018-11-24T15:21:00Z</time>
      </trkpt>
      <trkpt lat="43.49967" lon="5.82723">
        <ele>378.42</ele>
        <time>2018-11-24T15:21:22Z</time>
      </trkpt>
      <trkpt lat="43.49964" lon="5.82728">
        <ele>378.42</ele>
        <time>2018-11-24T15:21:26Z</time>
      </trkpt>
      <trkpt lat="43.49959" lon="5.82735">
        <ele>378.42</ele>
        <time>2018-11-24T15:21:34Z</time>
      </trkpt>
      <trkpt lat="43.49957" lon="5.82737">
        <ele>378.42</ele>
        <time>2018-11-24T15:21:36Z</time>
      </trkpt>
      <trkpt lat="43.49952" lon="5.82744">
        <ele>378.42</ele>
        <time>2018-11-24T15:21:44Z</time>
      </trkpt>
      <trkpt lat="43.49951" lon="5.82746">
        <ele>379.86</ele>
        <time>2018-11-24T15:21:46Z</time>
      </trkpt>
      <trkpt lat="43.49942" lon="5.82758">
        <ele>380.82</ele>
        <time>2018-11-24T15:22:03Z</time>
      </trkpt>
      <trkpt lat="43.49937" lon="5.82762">
        <ele>381.3</ele>
        <time>2018-11-24T15:22:08Z</time>
      </trkpt>
      <trkpt lat="43.49931" lon="5.82772">
        <ele>381.78</ele>
        <time>2018-11-24T15:22:16Z</time>
      </trkpt>
      <trkpt lat="43.49927" lon="5.82776">
        <ele>381.78</ele>
        <time>2018-11-24T15:22:20Z</time>
      </trkpt>
      <trkpt lat="43.49924" lon="5.82779">
        <ele>382.26</ele>
        <time>2018-11-24T15:22:24Z</time>
      </trkpt>
      <trkpt lat="43.49922" lon="5.82786">
        <ele>382.26</ele>
        <time>2018-11-24T15:22:31Z</time>
      </trkpt>
      <trkpt lat="43.49921" lon="5.82789">
        <ele>382.74</ele>
        <time>2018-11-24T15:22:35Z</time>
      </trkpt>
      <trkpt lat="43.49921" lon="5.82794">
        <ele>382.26</ele>
        <time>2018-11-24T15:22:39Z</time>
      </trkpt>
      <trkpt lat="43.49919" lon="5.82801">
        <ele>382.26</ele>
        <time>2018-11-24T15:22:44Z</time>
      </trkpt>
      <trkpt lat="43.49918" lon="5.8282">
        <ele>382.74</ele>
        <time>2018-11-24T15:22:59Z</time>
      </trkpt>
      <trkpt lat="43.49913" lon="5.82831">
        <ele>382.74</ele>
        <time>2018-11-24T15:23:09Z</time>
      </trkpt>
      <trkpt lat="43.49911" lon="5.82842">
        <ele>383.22</ele>
        <time>2018-11-24T15:23:17Z</time>
      </trkpt>
      <trkpt lat="43.49902" lon="5.82861">
        <ele>383.7</ele>
        <time>2018-11-24T15:23:37Z</time>
      </trkpt>
      <trkpt lat="43.49889" lon="5.82878">
        <ele>378.9</ele>
        <time>2018-11-24T15:23:57Z</time>
      </trkpt>
      <trkpt lat="43.49889" lon="5.82879">
        <ele>387.55</ele>
        <time>2018-11-24T15:23:58Z</time>
      </trkpt>
      <trkpt lat="43.49888" lon="5.82879">
        <ele>382.74</ele>
        <time>2018-11-24T15:23:59Z</time>
      </trkpt>
      <trkpt lat="43.49871" lon="5.82886">
        <ele>383.7</ele>
        <time>2018-11-24T15:24:14Z</time>
      </trkpt>
      <trkpt lat="43.49867" lon="5.82886">
        <ele>383.7</ele>
        <time>2018-11-24T15:24:18Z</time>
      </trkpt>
      <trkpt lat="43.49863" lon="5.82881">
        <ele>384.18</ele>
        <time>2018-11-24T15:24:23Z</time>
      </trkpt>
      <trkpt lat="43.49858" lon="5.82881">
        <ele>382.74</ele>
        <time>2018-11-24T15:24:26Z</time>
      </trkpt>
      <trkpt lat="43.4985" lon="5.82878">
        <ele>382.74</ele>
        <time>2018-11-24T15:24:37Z</time>
      </trkpt>
      <trkpt lat="43.49841" lon="5.82873">
        <ele>382.26</ele>
        <time>2018-11-24T15:24:48Z</time>
      </trkpt>
      <trkpt lat="43.49839" lon="5.82872">
        <ele>381.78</ele>
        <time>2018-11-24T15:24:50Z</time>
      </trkpt>
      <trkpt lat="43.49823" lon="5.82873">
        <ele>380.82</ele>
        <time>2018-11-24T15:25:01Z</time>
      </trkpt>
      <trkpt lat="43.4982" lon="5.82874">
        <ele>380.82</ele>
        <time>2018-11-24T15:25:05Z</time>
      </trkpt>
      <trkpt lat="43.49809" lon="5.82881">
        <ele>379.86</ele>
        <time>2018-11-24T15:25:15Z</time>
      </trkpt>
      <trkpt lat="43.49808" lon="5.82882">
        <ele>379.86</ele>
        <time>2018-11-24T15:25:16Z</time>
      </trkpt>
      <trkpt lat="43.49807" lon="5.82883">
        <ele>379.86</ele>
        <time>2018-11-24T15:25:17Z</time>
      </trkpt>
      <trkpt lat="43.49806" lon="5.82884">
        <ele>379.86</ele>
        <time>2018-11-24T15:25:18Z</time>
      </trkpt>
      <trkpt lat="43.49804" lon="5.82886">
        <ele>379.86</ele>
        <time>2018-11-24T15:25:20Z</time>
      </trkpt>
      <trkpt lat="43.49803" lon="5.82887">
        <ele>379.86</ele>
        <time>2018-11-24T15:25:21Z</time>
      </trkpt>
      <trkpt lat="43.49802" lon="5.82888">
        <ele>379.38</ele>
        <time>2018-11-24T15:25:22Z</time>
      </trkpt>
      <trkpt lat="43.49798" lon="5.82891">
        <ele>379.38</ele>
        <time>2018-11-24T15:25:27Z</time>
      </trkpt>
      <trkpt lat="43.49795" lon="5.82894">
        <ele>378.9</ele>
        <time>2018-11-24T15:25:31Z</time>
      </trkpt>
      <trkpt lat="43.49787" lon="5.82896">
        <ele>378.42</ele>
        <time>2018-11-24T15:25:43Z</time>
      </trkpt>
      <trkpt lat="43.49774" lon="5.82898">
        <ele>378.42</ele>
        <time>2018-11-24T15:25:58Z</time>
      </trkpt>
      <trkpt lat="43.4977" lon="5.82896">
        <ele>377.94</ele>
        <time>2018-11-24T15:26:03Z</time>
      </trkpt>
      <trkpt lat="43.49768" lon="5.82896">
        <ele>377.94</ele>
        <time>2018-11-24T15:26:04Z</time>
      </trkpt>
      <trkpt lat="43.49755" lon="5.82891">
        <ele>376.97</ele>
        <time>2018-11-24T15:26:19Z</time>
      </trkpt>
      <trkpt lat="43.49743" lon="5.82891">
        <ele>376.49</ele>
        <time>2018-11-24T15:26:33Z</time>
      </trkpt>
      <trkpt lat="43.49736" lon="5.82886">
        <ele>376.01</ele>
        <time>2018-11-24T15:26:40Z</time>
      </trkpt>
      <trkpt lat="43.49735" lon="5.82884">
        <ele>376.01</ele>
        <time>2018-11-24T15:26:41Z</time>
      </trkpt>
      <trkpt lat="43.49734" lon="5.82883">
        <ele>376.01</ele>
        <time>2018-11-24T15:26:42Z</time>
      </trkpt>
      <trkpt lat="43.49733" lon="5.82882">
        <ele>376.01</ele>
        <time>2018-11-24T15:26:43Z</time>
      </trkpt>
      <trkpt lat="43.49729" lon="5.82882">
        <ele>375.53</ele>
        <time>2018-11-24T15:26:47Z</time>
      </trkpt>
      <trkpt lat="43.49728" lon="5.82881">
        <ele>375.53</ele>
        <time>2018-11-24T15:26:48Z</time>
      </trkpt>
      <trkpt lat="43.49727" lon="5.8288">
        <ele>375.53</ele>
        <time>2018-11-24T15:26:49Z</time>
      </trkpt>
      <trkpt lat="43.49725" lon="5.8288">
        <ele>375.53</ele>
        <time>2018-11-24T15:26:51Z</time>
      </trkpt>
      <trkpt lat="43.49723" lon="5.82879">
        <ele>375.53</ele>
        <time>2018-11-24T15:26:52Z</time>
      </trkpt>
      <trkpt lat="43.49722" lon="5.82879">
        <ele>375.53</ele>
        <time>2018-11-24T15:26:53Z</time>
      </trkpt>
      <trkpt lat="43.4972" lon="5.82877">
        <ele>375.05</ele>
        <time>2018-11-24T15:26:54Z</time>
      </trkpt>
      <trkpt lat="43.49719" lon="5.82876">
        <ele>375.05</ele>
        <time>2018-11-24T15:26:55Z</time>
      </trkpt>
      <trkpt lat="43.49718" lon="5.82872">
        <ele>375.05</ele>
        <time>2018-11-24T15:26:59Z</time>
      </trkpt>
      <trkpt lat="43.49717" lon="5.82871">
        <ele>375.05</ele>
        <time>2018-11-24T15:27:00Z</time>
      </trkpt>
      <trkpt lat="43.49716" lon="5.8287">
        <ele>375.05</ele>
        <time>2018-11-24T15:27:01Z</time>
      </trkpt>
      <trkpt lat="43.49714" lon="5.82869">
        <ele>374.57</ele>
        <time>2018-11-24T15:27:04Z</time>
      </trkpt>
      <trkpt lat="43.49712" lon="5.82869">
        <ele>374.57</ele>
        <time>2018-11-24T15:27:06Z</time>
      </trkpt>
      <trkpt lat="43.49711" lon="5.82867">
        <ele>374.57</ele>
        <time>2018-11-24T15:27:07Z</time>
      </trkpt>
      <trkpt lat="43.49709" lon="5.82866">
        <ele>374.57</ele>
        <time>2018-11-24T15:27:08Z</time>
      </trkpt>
      <trkpt lat="43.49705" lon="5.82863">
        <ele>374.57</ele>
        <time>2018-11-24T15:27:12Z</time>
      </trkpt>
      <trkpt lat="43.49704" lon="5.82862">
        <ele>374.57</ele>
        <time>2018-11-24T15:27:13Z</time>
      </trkpt>
      <trkpt lat="43.49703" lon="5.82861">
        <ele>374.57</ele>
        <time>2018-11-24T15:27:14Z</time>
      </trkpt>
      <trkpt lat="43.49702" lon="5.8286">
        <ele>374.57</ele>
        <time>2018-11-24T15:27:15Z</time>
      </trkpt>
      <trkpt lat="43.49698" lon="5.82858">
        <ele>374.57</ele>
        <time>2018-11-24T15:27:20Z</time>
      </trkpt>
      <trkpt lat="43.49697" lon="5.82856">
        <ele>374.09</ele>
        <time>2018-11-24T15:27:21Z</time>
      </trkpt>
      <trkpt lat="43.49697" lon="5.82854">
        <ele>374.09</ele>
        <time>2018-11-24T15:27:22Z</time>
      </trkpt>
      <trkpt lat="43.49692" lon="5.82851">
        <ele>375.05</ele>
        <time>2018-11-24T15:27:27Z</time>
      </trkpt>
      <trkpt lat="43.49691" lon="5.82849">
        <ele>373.61</ele>
        <time>2018-11-24T15:27:29Z</time>
      </trkpt>
      <trkpt lat="43.4969" lon="5.82848">
        <ele>373.61</ele>
        <time>2018-11-24T15:27:31Z</time>
      </trkpt>
      <trkpt lat="43.49685" lon="5.82843">
        <ele>373.13</ele>
        <time>2018-11-24T15:27:36Z</time>
      </trkpt>
      <trkpt lat="43.49684" lon="5.82842">
        <ele>373.13</ele>
        <time>2018-11-24T15:27:37Z</time>
      </trkpt>
      <trkpt lat="43.49683" lon="5.82841">
        <ele>373.13</ele>
        <time>2018-11-24T15:27:38Z</time>
      </trkpt>
      <trkpt lat="43.49679" lon="5.82836">
        <ele>372.65</ele>
        <time>2018-11-24T15:27:43Z</time>
      </trkpt>
      <trkpt lat="43.49678" lon="5.82834">
        <ele>372.65</ele>
        <time>2018-11-24T15:27:44Z</time>
      </trkpt>
      <trkpt lat="43.49677" lon="5.82833">
        <ele>372.65</ele>
        <time>2018-11-24T15:27:45Z</time>
      </trkpt>
      <trkpt lat="43.49676" lon="5.82831">
        <ele>372.65</ele>
        <time>2018-11-24T15:27:46Z</time>
      </trkpt>
      <trkpt lat="43.49675" lon="5.8283">
        <ele>372.65</ele>
        <time>2018-11-24T15:27:47Z</time>
      </trkpt>
      <trkpt lat="43.49673" lon="5.82822">
        <ele>372.65</ele>
        <time>2018-11-24T15:27:52Z</time>
      </trkpt>
      <trkpt lat="43.49668" lon="5.82816">
        <ele>372.17</ele>
        <time>2018-11-24T15:28:02Z</time>
      </trkpt>
      <trkpt lat="43.49664" lon="5.82812">
        <ele>372.17</ele>
        <time>2018-11-24T15:28:07Z</time>
      </trkpt>
      <trkpt lat="43.4966" lon="5.82804">
        <ele>372.17</ele>
        <time>2018-11-24T15:28:13Z</time>
      </trkpt>
      <trkpt lat="43.4966" lon="5.82802">
        <ele>372.17</ele>
        <time>2018-11-24T15:28:14Z</time>
      </trkpt>
      <trkpt lat="43.49658" lon="5.82801">
        <ele>371.69</ele>
        <time>2018-11-24T15:28:15Z</time>
      </trkpt>
      <trkpt lat="43.49657" lon="5.82799">
        <ele>371.69</ele>
        <time>2018-11-24T15:28:16Z</time>
      </trkpt>
      <trkpt lat="43.49648" lon="5.82785">
        <ele>371.21</ele>
        <time>2018-11-24T15:28:28Z</time>
      </trkpt>
      <trkpt lat="43.49641" lon="5.82767">
        <ele>370.73</ele>
        <time>2018-11-24T15:28:41Z</time>
      </trkpt>
      <trkpt lat="43.49638" lon="5.82756">
        <ele>370.24</ele>
        <time>2018-11-24T15:28:48Z</time>
      </trkpt>
      <trkpt lat="43.49637" lon="5.82754">
        <ele>370.24</ele>
        <time>2018-11-24T15:28:49Z</time>
      </trkpt>
      <trkpt lat="43.49631" lon="5.82737">
        <ele>369.76</ele>
        <time>2018-11-24T15:29:02Z</time>
      </trkpt>
      <trkpt lat="43.49626" lon="5.82718">
        <ele>368.8</ele>
        <time>2018-11-24T15:29:17Z</time>
      </trkpt>
      <trkpt lat="43.49625" lon="5.82715">
        <ele>368.8</ele>
        <time>2018-11-24T15:29:19Z</time>
      </trkpt>
      <trkpt lat="43.49625" lon="5.82713">
        <ele>368.8</ele>
        <time>2018-11-24T15:29:20Z</time>
      </trkpt>
      <trkpt lat="43.49623" lon="5.82703">
        <ele>368.32</ele>
        <time>2018-11-24T15:29:25Z</time>
      </trkpt>
      <trkpt lat="43.49623" lon="5.82696">
        <ele>368.32</ele>
        <time>2018-11-24T15:29:30Z</time>
      </trkpt>
      <trkpt lat="43.49623" lon="5.82694">
        <ele>368.32</ele>
        <time>2018-11-24T15:29:31Z</time>
      </trkpt>
      <trkpt lat="43.49623" lon="5.82692">
        <ele>368.32</ele>
        <time>2018-11-24T15:29:32Z</time>
      </trkpt>
      <trkpt lat="43.49622" lon="5.82688">
        <ele>367.84</ele>
        <time>2018-11-24T15:29:35Z</time>
      </trkpt>
      <trkpt lat="43.49622" lon="5.82687">
        <ele>367.84</ele>
        <time>2018-11-24T15:29:36Z</time>
      </trkpt>
      <trkpt lat="43.49621" lon="5.82684">
        <ele>367.84</ele>
        <time>2018-11-24T15:29:39Z</time>
      </trkpt>
      <trkpt lat="43.49621" lon="5.82681">
        <ele>367.84</ele>
        <time>2018-11-24T15:29:40Z</time>
      </trkpt>
      <trkpt lat="43.49621" lon="5.82672">
        <ele>367.36</ele>
        <time>2018-11-24T15:29:48Z</time>
      </trkpt>
      <trkpt lat="43.49621" lon="5.82671">
        <ele>366.88</ele>
        <time>2018-11-24T15:29:51Z</time>
      </trkpt>
      <trkpt lat="43.4962" lon="5.82668">
        <ele>366.88</ele>
        <time>2018-11-24T15:29:52Z</time>
      </trkpt>
      <trkpt lat="43.4962" lon="5.82661">
        <ele>366.4</ele>
        <time>2018-11-24T15:29:58Z</time>
      </trkpt>
      <trkpt lat="43.4962" lon="5.82659">
        <ele>366.4</ele>
        <time>2018-11-24T15:29:59Z</time>
      </trkpt>
      <trkpt lat="43.4962" lon="5.82657">
        <ele>366.4</ele>
        <time>2018-11-24T15:30:00Z</time>
      </trkpt>
      <trkpt lat="43.49619" lon="5.82654">
        <ele>366.4</ele>
        <time>2018-11-24T15:30:01Z</time>
      </trkpt>
      <trkpt lat="43.49619" lon="5.82653">
        <ele>365.92</ele>
        <time>2018-11-24T15:30:02Z</time>
      </trkpt>
      <trkpt lat="43.49617" lon="5.82649">
        <ele>365.92</ele>
        <time>2018-11-24T15:30:06Z</time>
      </trkpt>
      <trkpt lat="43.49616" lon="5.82647">
        <ele>365.92</ele>
        <time>2018-11-24T15:30:07Z</time>
      </trkpt>
      <trkpt lat="43.49615" lon="5.82644">
        <ele>365.44</ele>
        <time>2018-11-24T15:30:08Z</time>
      </trkpt>
      <trkpt lat="43.49615" lon="5.82642">
        <ele>365.44</ele>
        <time>2018-11-24T15:30:09Z</time>
      </trkpt>
      <trkpt lat="43.49613" lon="5.82629">
        <ele>365.92</ele>
        <time>2018-11-24T15:30:20Z</time>
      </trkpt>
      <trkpt lat="43.49613" lon="5.82626">
        <ele>365.44</ele>
        <time>2018-11-24T15:30:21Z</time>
      </trkpt>
      <trkpt lat="43.4961" lon="5.8262">
        <ele>364.96</ele>
        <time>2018-11-24T15:30:26Z</time>
      </trkpt>
      <trkpt lat="43.4961" lon="5.82618">
        <ele>364.96</ele>
        <time>2018-11-24T15:30:27Z</time>
      </trkpt>
      <trkpt lat="43.49609" lon="5.82615">
        <ele>365.44</ele>
        <time>2018-11-24T15:30:29Z</time>
      </trkpt>
      <trkpt lat="43.49602" lon="5.826">
        <ele>364.48</ele>
        <time>2018-11-24T15:30:41Z</time>
      </trkpt>
      <trkpt lat="43.49599" lon="5.82597">
        <ele>364.48</ele>
        <time>2018-11-24T15:30:45Z</time>
      </trkpt>
      <trkpt lat="43.49599" lon="5.82596">
        <ele>364</ele>
        <time>2018-11-24T15:30:46Z</time>
      </trkpt>
      <trkpt lat="43.49592" lon="5.82591">
        <ele>363.52</ele>
        <time>2018-11-24T15:30:54Z</time>
      </trkpt>
      <trkpt lat="43.4959" lon="5.8259">
        <ele>363.52</ele>
        <time>2018-11-24T15:30:55Z</time>
      </trkpt>
      <trkpt lat="43.49583" lon="5.82586">
        <ele>362.55</ele>
        <time>2018-11-24T15:31:04Z</time>
      </trkpt>
      <trkpt lat="43.49581" lon="5.82586">
        <ele>362.55</ele>
        <time>2018-11-24T15:31:05Z</time>
      </trkpt>
      <trkpt lat="43.49575" lon="5.82588">
        <ele>362.07</ele>
        <time>2018-11-24T15:31:11Z</time>
      </trkpt>
      <trkpt lat="43.49574" lon="5.82589">
        <ele>362.07</ele>
        <time>2018-11-24T15:31:12Z</time>
      </trkpt>
      <trkpt lat="43.49572" lon="5.82589">
        <ele>362.07</ele>
        <time>2018-11-24T15:31:13Z</time>
      </trkpt>
      <trkpt lat="43.49562" lon="5.82598">
        <ele>361.11</ele>
        <time>2018-11-24T15:31:24Z</time>
      </trkpt>
      <trkpt lat="43.4956" lon="5.82599">
        <ele>361.11</ele>
        <time>2018-11-24T15:31:26Z</time>
      </trkpt>
      <trkpt lat="43.49559" lon="5.826">
        <ele>361.11</ele>
        <time>2018-11-24T15:31:27Z</time>
      </trkpt>
      <trkpt lat="43.49558" lon="5.82601">
        <ele>361.11</ele>
        <time>2018-11-24T15:31:28Z</time>
      </trkpt>
      <trkpt lat="43.49557" lon="5.82602">
        <ele>361.11</ele>
        <time>2018-11-24T15:31:29Z</time>
      </trkpt>
      <trkpt lat="43.49546" lon="5.82609">
        <ele>360.15</ele>
        <time>2018-11-24T15:31:39Z</time>
      </trkpt>
      <trkpt lat="43.49545" lon="5.8261">
        <ele>360.15</ele>
        <time>2018-11-24T15:31:41Z</time>
      </trkpt>
      <trkpt lat="43.49544" lon="5.82611">
        <ele>360.15</ele>
        <time>2018-11-24T15:31:42Z</time>
      </trkpt>
      <trkpt lat="43.49542" lon="5.82612">
        <ele>360.15</ele>
        <time>2018-11-24T15:31:43Z</time>
      </trkpt>
      <trkpt lat="43.49538" lon="5.82616">
        <ele>359.67</ele>
        <time>2018-11-24T15:31:48Z</time>
      </trkpt>
      <trkpt lat="43.49537" lon="5.82618">
        <ele>359.67</ele>
        <time>2018-11-24T15:31:49Z</time>
      </trkpt>
      <trkpt lat="43.49526" lon="5.82631">
        <ele>358.71</ele>
        <time>2018-11-24T15:32:01Z</time>
      </trkpt>
      <trkpt lat="43.49518" lon="5.82643">
        <ele>357.75</ele>
        <time>2018-11-24T15:32:10Z</time>
      </trkpt>
      <trkpt lat="43.49517" lon="5.82645">
        <ele>357.75</ele>
        <time>2018-11-24T15:32:11Z</time>
      </trkpt>
      <trkpt lat="43.49511" lon="5.82653">
        <ele>357.75</ele>
        <time>2018-11-24T15:32:19Z</time>
      </trkpt>
      <trkpt lat="43.49504" lon="5.82665">
        <ele>356.79</ele>
        <time>2018-11-24T15:32:29Z</time>
      </trkpt>
      <trkpt lat="43.49492" lon="5.82682">
        <ele>356.31</ele>
        <time>2018-11-24T15:32:42Z</time>
      </trkpt>
      <trkpt lat="43.49479" lon="5.82699">
        <ele>355.34</ele>
        <time>2018-11-24T15:32:55Z</time>
      </trkpt>
      <trkpt lat="43.49471" lon="5.82716">
        <ele>354.86</ele>
        <time>2018-11-24T15:33:08Z</time>
      </trkpt>
      <trkpt lat="43.49463" lon="5.82721">
        <ele>354.38</ele>
        <time>2018-11-24T15:33:17Z</time>
      </trkpt>
      <trkpt lat="43.49461" lon="5.82721">
        <ele>354.38</ele>
        <time>2018-11-24T15:33:18Z</time>
      </trkpt>
      <trkpt lat="43.4946" lon="5.82721">
        <ele>354.38</ele>
        <time>2018-11-24T15:33:19Z</time>
      </trkpt>
      <trkpt lat="43.49458" lon="5.82721">
        <ele>354.38</ele>
        <time>2018-11-24T15:33:20Z</time>
      </trkpt>
      <trkpt lat="43.49454" lon="5.82721">
        <ele>353.9</ele>
        <time>2018-11-24T15:33:24Z</time>
      </trkpt>
      <trkpt lat="43.49453" lon="5.82721">
        <ele>353.42</ele>
        <time>2018-11-24T15:33:25Z</time>
      </trkpt>
      <trkpt lat="43.49446" lon="5.82725">
        <ele>352.94</ele>
        <time>2018-11-24T15:33:35Z</time>
      </trkpt>
      <trkpt lat="43.49444" lon="5.82726">
        <ele>352.94</ele>
        <time>2018-11-24T15:33:36Z</time>
      </trkpt>
      <trkpt lat="43.49433" lon="5.82729">
        <ele>351.98</ele>
        <time>2018-11-24T15:33:48Z</time>
      </trkpt>
      <trkpt lat="43.4942" lon="5.82729">
        <ele>351.98</ele>
        <time>2018-11-24T15:34:01Z</time>
      </trkpt>
      <trkpt lat="43.49404" lon="5.82726">
        <ele>350.06</ele>
        <time>2018-11-24T15:34:18Z</time>
      </trkpt>
      <trkpt lat="43.49403" lon="5.82726">
        <ele>350.06</ele>
        <time>2018-11-24T15:34:19Z</time>
      </trkpt>
      <trkpt lat="43.49398" lon="5.82727">
        <ele>349.58</ele>
        <time>2018-11-24T15:34:23Z</time>
      </trkpt>
      <trkpt lat="43.49396" lon="5.82727">
        <ele>349.58</ele>
        <time>2018-11-24T15:34:25Z</time>
      </trkpt>
      <trkpt lat="43.49379" lon="5.82734">
        <ele>349.1</ele>
        <time>2018-11-24T15:34:41Z</time>
      </trkpt>
      <trkpt lat="43.49358" lon="5.8274">
        <ele>348.13</ele>
        <time>2018-11-24T15:35:00Z</time>
      </trkpt>
      <trkpt lat="43.49341" lon="5.82741">
        <ele>345.73</ele>
        <time>2018-11-24T15:35:17Z</time>
      </trkpt>
      <trkpt lat="43.49336" lon="5.8274">
        <ele>345.73</ele>
        <time>2018-11-24T15:35:26Z</time>
      </trkpt>
      <trkpt lat="43.49334" lon="5.82741">
        <ele>345.73</ele>
        <time>2018-11-24T15:35:27Z</time>
      </trkpt>
      <trkpt lat="43.49332" lon="5.82741">
        <ele>345.73</ele>
        <time>2018-11-24T15:35:30Z</time>
      </trkpt>
      <trkpt lat="43.49316" lon="5.82741">
        <ele>345.25</ele>
        <time>2018-11-24T15:35:46Z</time>
      </trkpt>
      <trkpt lat="43.49315" lon="5.8274">
        <ele>345.73</ele>
        <time>2018-11-24T15:35:57Z</time>
      </trkpt>
      <trkpt lat="43.49309" lon="5.82737">
        <ele>344.77</ele>
        <time>2018-11-24T15:36:12Z</time>
      </trkpt>
      <trkpt lat="43.49301" lon="5.82736">
        <ele>344.77</ele>
        <time>2018-11-24T15:36:26Z</time>
      </trkpt>
      <trkpt lat="43.49295" lon="5.82736">
        <ele>344.77</ele>
        <time>2018-11-24T15:36:33Z</time>
      </trkpt>
      <trkpt lat="43.49287" lon="5.82744">
        <ele>344.77</ele>
        <time>2018-11-24T15:36:46Z</time>
      </trkpt>
      <trkpt lat="43.49287" lon="5.82745">
        <ele>344.77</ele>
        <time>2018-11-24T15:36:47Z</time>
      </trkpt>
      <trkpt lat="43.49278" lon="5.82753">
        <ele>344.29</ele>
        <time>2018-11-24T15:36:58Z</time>
      </trkpt>
      <trkpt lat="43.49277" lon="5.82755">
        <ele>344.29</ele>
        <time>2018-11-24T15:36:59Z</time>
      </trkpt>
      <trkpt lat="43.49275" lon="5.82757">
        <ele>344.29</ele>
        <time>2018-11-24T15:37:00Z</time>
      </trkpt>
      <trkpt lat="43.49274" lon="5.82758">
        <ele>344.29</ele>
        <time>2018-11-24T15:37:01Z</time>
      </trkpt>
      <trkpt lat="43.49269" lon="5.82763">
        <ele>344.29</ele>
        <time>2018-11-24T15:37:06Z</time>
      </trkpt>
      <trkpt lat="43.49268" lon="5.82764">
        <ele>344.29</ele>
        <time>2018-11-24T15:37:07Z</time>
      </trkpt>
      <trkpt lat="43.49264" lon="5.82768">
        <ele>344.29</ele>
        <time>2018-11-24T15:37:12Z</time>
      </trkpt>
      <trkpt lat="43.49263" lon="5.82769">
        <ele>344.29</ele>
        <time>2018-11-24T15:37:13Z</time>
      </trkpt>
      <trkpt lat="43.49261" lon="5.8277">
        <ele>344.29</ele>
        <time>2018-11-24T15:37:14Z</time>
      </trkpt>
      <trkpt lat="43.49259" lon="5.82773">
        <ele>344.29</ele>
        <time>2018-11-24T15:37:18Z</time>
      </trkpt>
      <trkpt lat="43.49257" lon="5.82774">
        <ele>344.29</ele>
        <time>2018-11-24T15:37:19Z</time>
      </trkpt>
      <trkpt lat="43.49253" lon="5.82777">
        <ele>344.29</ele>
        <time>2018-11-24T15:37:24Z</time>
      </trkpt>
      <trkpt lat="43.49251" lon="5.82778">
        <ele>344.29</ele>
        <time>2018-11-24T15:37:25Z</time>
      </trkpt>
      <trkpt lat="43.49242" lon="5.82787">
        <ele>344.29</ele>
        <time>2018-11-24T15:37:40Z</time>
      </trkpt>
      <trkpt lat="43.49223" lon="5.82803">
        <ele>343.33</ele>
        <time>2018-11-24T15:38:05Z</time>
      </trkpt>
      <trkpt lat="43.4921" lon="5.82807">
        <ele>342.85</ele>
        <time>2018-11-24T15:38:26Z</time>
      </trkpt>
      <trkpt lat="43.49201" lon="5.82811">
        <ele>342.85</ele>
        <time>2018-11-24T15:38:49Z</time>
      </trkpt>
      <trkpt lat="43.49194" lon="5.82814">
        <ele>343.33</ele>
        <time>2018-11-24T15:39:07Z</time>
      </trkpt>
      <trkpt lat="43.49169" lon="5.82818">
        <ele>343.81</ele>
        <time>2018-11-24T15:39:28Z</time>
      </trkpt>
      <trkpt lat="43.4915" lon="5.82821">
        <ele>343.81</ele>
        <time>2018-11-24T15:39:46Z</time>
      </trkpt>
      <trkpt lat="43.49141" lon="5.82821">
        <ele>342.37</ele>
        <time>2018-11-24T15:39:54Z</time>
      </trkpt>
      <trkpt lat="43.4914" lon="5.82822">
        <ele>341.89</ele>
        <time>2018-11-24T15:39:58Z</time>
      </trkpt>
      <trkpt lat="43.49139" lon="5.82822">
        <ele>341.89</ele>
        <time>2018-11-24T15:39:59Z</time>
      </trkpt>
      <trkpt lat="43.49124" lon="5.8282">
        <ele>339.96</ele>
        <time>2018-11-24T15:40:12Z</time>
      </trkpt>
      <trkpt lat="43.49108" lon="5.82817">
        <ele>339.48</ele>
        <time>2018-11-24T15:40:26Z</time>
      </trkpt>
      <trkpt lat="43.49088" lon="5.82808">
        <ele>338.52</ele>
        <time>2018-11-24T15:40:41Z</time>
      </trkpt>
      <trkpt lat="43.49073" lon="5.82801">
        <ele>337.56</ele>
        <time>2018-11-24T15:40:55Z</time>
      </trkpt>
      <trkpt lat="43.49057" lon="5.82794">
        <ele>337.08</ele>
        <time>2018-11-24T15:41:10Z</time>
      </trkpt>
      <trkpt lat="43.49039" lon="5.82792">
        <ele>336.6</ele>
        <time>2018-11-24T15:41:25Z</time>
      </trkpt>
      <trkpt lat="43.49027" lon="5.82793">
        <ele>336.6</ele>
        <time>2018-11-24T15:41:36Z</time>
      </trkpt>
      <trkpt lat="43.49026" lon="5.82794">
        <ele>336.6</ele>
        <time>2018-11-24T15:41:37Z</time>
      </trkpt>
      <trkpt lat="43.49024" lon="5.82796">
        <ele>336.6</ele>
        <time>2018-11-24T15:41:38Z</time>
      </trkpt>
      <trkpt lat="43.4902" lon="5.828">
        <ele>336.6</ele>
        <time>2018-11-24T15:41:44Z</time>
      </trkpt>
      <trkpt lat="43.49018" lon="5.82801">
        <ele>336.6</ele>
        <time>2018-11-24T15:41:45Z</time>
      </trkpt>
      <trkpt lat="43.49014" lon="5.82806">
        <ele>336.6</ele>
        <time>2018-11-24T15:41:51Z</time>
      </trkpt>
      <trkpt lat="43.49013" lon="5.82807">
        <ele>336.6</ele>
        <time>2018-11-24T15:41:52Z</time>
      </trkpt>
      <trkpt lat="43.49007" lon="5.82814">
        <ele>336.6</ele>
        <time>2018-11-24T15:42:06Z</time>
      </trkpt>
      <trkpt lat="43.49003" lon="5.82816">
        <ele>336.6</ele>
        <time>2018-11-24T15:42:10Z</time>
      </trkpt>
      <trkpt lat="43.49001" lon="5.82816">
        <ele>336.6</ele>
        <time>2018-11-24T15:42:11Z</time>
      </trkpt>
      <trkpt lat="43.48999" lon="5.82815">
        <ele>336.6</ele>
        <time>2018-11-24T15:42:12Z</time>
      </trkpt>
      <trkpt lat="43.48997" lon="5.82815">
        <ele>336.6</ele>
        <time>2018-11-24T15:42:13Z</time>
      </trkpt>
      <trkpt lat="43.48993" lon="5.82815">
        <ele>336.6</ele>
        <time>2018-11-24T15:42:17Z</time>
      </trkpt>
      <trkpt lat="43.48991" lon="5.82816">
        <ele>336.6</ele>
        <time>2018-11-24T15:42:18Z</time>
      </trkpt>
      <trkpt lat="43.48979" lon="5.82822">
        <ele>336.12</ele>
        <time>2018-11-24T15:42:29Z</time>
      </trkpt>
      <trkpt lat="43.48977" lon="5.82823">
        <ele>335.64</ele>
        <time>2018-11-24T15:42:32Z</time>
      </trkpt>
      <trkpt lat="43.48975" lon="5.82824">
        <ele>335.64</ele>
        <time>2018-11-24T15:42:33Z</time>
      </trkpt>
      <trkpt lat="43.48974" lon="5.82824">
        <ele>335.64</ele>
        <time>2018-11-24T15:42:34Z</time>
      </trkpt>
      <trkpt lat="43.48968" lon="5.82826">
        <ele>335.64</ele>
        <time>2018-11-24T15:42:40Z</time>
      </trkpt>
      <trkpt lat="43.48965" lon="5.82827">
        <ele>335.64</ele>
        <time>2018-11-24T15:42:43Z</time>
      </trkpt>
      <trkpt lat="43.48954" lon="5.82829">
        <ele>335.16</ele>
        <time>2018-11-24T15:42:53Z</time>
      </trkpt>
      <trkpt lat="43.48953" lon="5.82829">
        <ele>335.16</ele>
        <time>2018-11-24T15:42:55Z</time>
      </trkpt>
      <trkpt lat="43.48952" lon="5.82829">
        <ele>335.16</ele>
        <time>2018-11-24T15:42:56Z</time>
      </trkpt>
      <trkpt lat="43.48951" lon="5.82829">
        <ele>335.16</ele>
        <time>2018-11-24T15:42:57Z</time>
      </trkpt>
      <trkpt lat="43.48949" lon="5.82829">
        <ele>335.16</ele>
        <time>2018-11-24T15:42:58Z</time>
      </trkpt>
      <trkpt lat="43.48948" lon="5.82829">
        <ele>335.16</ele>
        <time>2018-11-24T15:42:59Z</time>
      </trkpt>
      <trkpt lat="43.48944" lon="5.82829">
        <ele>335.64</ele>
        <time>2018-11-24T15:43:04Z</time>
      </trkpt>
      <trkpt lat="43.48942" lon="5.8283">
        <ele>335.64</ele>
        <time>2018-11-24T15:43:05Z</time>
      </trkpt>
      <trkpt lat="43.48941" lon="5.8283">
        <ele>335.16</ele>
        <time>2018-11-24T15:43:06Z</time>
      </trkpt>
      <trkpt lat="43.48936" lon="5.82829">
        <ele>335.16</ele>
        <time>2018-11-24T15:43:11Z</time>
      </trkpt>
      <trkpt lat="43.48934" lon="5.82829">
        <ele>335.16</ele>
        <time>2018-11-24T15:43:12Z</time>
      </trkpt>
      <trkpt lat="43.48923" lon="5.8283">
        <ele>335.16</ele>
        <time>2018-11-24T15:43:25Z</time>
      </trkpt>
      <trkpt lat="43.48906" lon="5.82832">
        <ele>334.2</ele>
        <time>2018-11-24T15:43:45Z</time>
      </trkpt>
      <trkpt lat="43.4888" lon="5.82837">
        <ele>334.2</ele>
        <time>2018-11-24T15:44:06Z</time>
      </trkpt>
      <trkpt lat="43.4886" lon="5.82837">
        <ele>335.64</ele>
        <time>2018-11-24T15:44:30Z</time>
      </trkpt>
      <trkpt lat="43.48844" lon="5.8284">
        <ele>335.16</ele>
        <time>2018-11-24T15:44:47Z</time>
      </trkpt>
      <trkpt lat="43.48841" lon="5.82841">
        <ele>334.2</ele>
        <time>2018-11-24T15:44:49Z</time>
      </trkpt>
      <trkpt lat="43.48824" lon="5.82846">
        <ele>335.16</ele>
        <time>2018-11-24T15:45:04Z</time>
      </trkpt>
      <trkpt lat="43.48822" lon="5.82847">
        <ele>333.71</ele>
        <time>2018-11-24T15:45:06Z</time>
      </trkpt>
      <trkpt lat="43.48818" lon="5.82848">
        <ele>335.16</ele>
        <time>2018-11-24T15:45:10Z</time>
      </trkpt>
      <trkpt lat="43.48811" lon="5.8285">
        <ele>333.71</ele>
        <time>2018-11-24T15:45:16Z</time>
      </trkpt>
      <trkpt lat="43.48787" lon="5.82862">
        <ele>335.16</ele>
        <time>2018-11-24T15:45:38Z</time>
      </trkpt>
      <trkpt lat="43.48777" lon="5.82862">
        <ele>333.71</ele>
        <time>2018-11-24T15:45:51Z</time>
      </trkpt>
      <trkpt lat="43.4876" lon="5.82868">
        <ele>332.27</ele>
        <time>2018-11-24T15:46:06Z</time>
      </trkpt>
      <trkpt lat="43.48751" lon="5.82872">
        <ele>332.75</ele>
        <time>2018-11-24T15:46:15Z</time>
      </trkpt>
      <trkpt lat="43.48739" lon="5.8288">
        <ele>332.75</ele>
        <time>2018-11-24T15:46:35Z</time>
      </trkpt>
      <trkpt lat="43.48737" lon="5.8288">
        <ele>331.31</ele>
        <time>2018-11-24T15:46:42Z</time>
      </trkpt>
      <trkpt lat="43.48735" lon="5.82881">
        <ele>332.75</ele>
        <time>2018-11-24T15:46:46Z</time>
      </trkpt>
      <trkpt lat="43.48732" lon="5.82884">
        <ele>331.31</ele>
        <time>2018-11-24T15:46:50Z</time>
      </trkpt>
      <trkpt lat="43.48727" lon="5.82888">
        <ele>332.75</ele>
        <time>2018-11-24T15:46:55Z</time>
      </trkpt>
      <trkpt lat="43.48723" lon="5.82891">
        <ele>333.23</ele>
        <time>2018-11-24T15:47:00Z</time>
      </trkpt>
      <trkpt lat="43.48723" lon="5.82892">
        <ele>331.31</ele>
        <time>2018-11-24T15:47:01Z</time>
      </trkpt>
      <trkpt lat="43.48722" lon="5.82891">
        <ele>332.75</ele>
        <time>2018-11-24T15:47:02Z</time>
      </trkpt>
      <trkpt lat="43.48708" lon="5.82899">
        <ele>333.71</ele>
        <time>2018-11-24T15:47:18Z</time>
      </trkpt>
      <trkpt lat="43.48693" lon="5.82903">
        <ele>335.16</ele>
        <time>2018-11-24T15:47:35Z</time>
      </trkpt>
      <trkpt lat="43.48679" lon="5.82907">
        <ele>336.12</ele>
        <time>2018-11-24T15:47:52Z</time>
      </trkpt>
      <trkpt lat="43.48668" lon="5.82912">
        <ele>337.56</ele>
        <time>2018-11-24T15:48:05Z</time>
      </trkpt>
      <trkpt lat="43.48657" lon="5.82914">
        <ele>338.52</ele>
        <time>2018-11-24T15:48:19Z</time>
      </trkpt>
      <trkpt lat="43.48653" lon="5.82915">
        <ele>338.52</ele>
        <time>2018-11-24T15:48:22Z</time>
      </trkpt>
      <trkpt lat="43.48653" lon="5.82915">
        <ele>338.52</ele>
        <time>2018-11-24T15:48:23Z</time>
      </trkpt>
      <trkpt lat="43.48643" lon="5.8292">
        <ele>339.48</ele>
        <time>2018-11-24T15:48:35Z</time>
      </trkpt>
      <trkpt lat="43.48633" lon="5.82923">
        <ele>338.52</ele>
        <time>2018-11-24T15:48:45Z</time>
      </trkpt>
      <trkpt lat="43.4861" lon="5.82928">
        <ele>339.48</ele>
        <time>2018-11-24T15:49:07Z</time>
      </trkpt>
      <trkpt lat="43.48591" lon="5.82934">
        <ele>339.96</ele>
        <time>2018-11-24T15:49:25Z</time>
      </trkpt>
      <trkpt lat="43.48578" lon="5.82931">
        <ele>339</ele>
        <time>2018-11-24T15:49:48Z</time>
      </trkpt>
      <trkpt lat="43.48578" lon="5.82932">
        <ele>339</ele>
        <time>2018-11-24T15:49:49Z</time>
      </trkpt>
      <trkpt lat="43.48577" lon="5.82934">
        <ele>340.44</ele>
        <time>2018-11-24T15:49:53Z</time>
      </trkpt>
      <trkpt lat="43.48571" lon="5.82936">
        <ele>340.44</ele>
        <time>2018-11-24T15:50:01Z</time>
      </trkpt>
      <trkpt lat="43.4855" lon="5.82939">
        <ele>340.92</ele>
        <time>2018-11-24T15:50:25Z</time>
      </trkpt>
      <trkpt lat="43.48529" lon="5.82949">
        <ele>340.92</ele>
        <time>2018-11-24T15:50:46Z</time>
      </trkpt>
      <trkpt lat="43.4851" lon="5.82957">
        <ele>341.41</ele>
        <time>2018-11-24T15:51:05Z</time>
      </trkpt>
      <trkpt lat="43.48492" lon="5.82969">
        <ele>341.89</ele>
        <time>2018-11-24T15:51:25Z</time>
      </trkpt>
      <trkpt lat="43.48485" lon="5.82974">
        <ele>341.89</ele>
        <time>2018-11-24T15:51:43Z</time>
      </trkpt>
      <trkpt lat="43.4846" lon="5.82991">
        <ele>345.25</ele>
        <time>2018-11-24T15:52:04Z</time>
      </trkpt>
      <trkpt lat="43.48437" lon="5.83012">
        <ele>346.69</ele>
        <time>2018-11-24T15:52:29Z</time>
      </trkpt>
      <trkpt lat="43.48406" lon="5.83017">
        <ele>348.62</ele>
        <time>2018-11-24T15:52:55Z</time>
      </trkpt>
      <trkpt lat="43.48382" lon="5.83014">
        <ele>349.1</ele>
        <time>2018-11-24T15:53:17Z</time>
      </trkpt>
      <trkpt lat="43.48374" lon="5.83013">
        <ele>349.58</ele>
        <time>2018-11-24T15:53:28Z</time>
      </trkpt>
      <trkpt lat="43.48379" lon="5.83005">
        <ele>349.58</ele>
        <time>2018-11-24T15:53:47Z</time>
      </trkpt>
      <trkpt lat="43.48375" lon="5.83009">
        <ele>349.58</ele>
        <time>2018-11-24T15:54:03Z</time>
      </trkpt>
      <trkpt lat="43.48372" lon="5.83008">
        <ele>348.13</ele>
        <time>2018-11-24T15:54:07Z</time>
      </trkpt>
      <trkpt lat="43.4837" lon="5.8301">
        <ele>349.58</ele>
        <time>2018-11-24T15:54:14Z</time>
      </trkpt>
      <trkpt lat="43.48365" lon="5.83014">
        <ele>348.62</ele>
        <time>2018-11-24T15:54:33Z</time>
      </trkpt>
      <trkpt lat="43.48346" lon="5.83014">
        <ele>348.13</ele>
        <time>2018-11-24T15:54:52Z</time>
      </trkpt>
      <trkpt lat="43.48344" lon="5.83002">
        <ele>348.13</ele>
        <time>2018-11-24T15:55:09Z</time>
      </trkpt>
      <trkpt lat="43.48343" lon="5.83005">
        <ele>349.58</ele>
        <time>2018-11-24T15:55:26Z</time>
      </trkpt>
      <trkpt lat="43.48343" lon="5.83001">
        <ele>349.58</ele>
        <time>2018-11-24T15:55:55Z</time>
      </trkpt>
      <trkpt lat="43.48342" lon="5.83002">
        <ele>348.62</ele>
        <time>2018-11-24T15:56:25Z</time>
      </trkpt>
      <trkpt lat="43.48341" lon="5.83001">
        <ele>348.62</ele>
        <time>2018-11-24T15:56:30Z</time>
      </trkpt>
    </trkseg>
  </trk>
</gpx>